<?xml version="1.0" encoding="UTF-8" standalone="no" ?>
<gpx xmlns="http://www.topografix.com/GPX/1/1" xmlns:xsi="http://www.w3.org/2001/XMLSchema-instance" xsi:schemaLocation="http://www.topografix.com/GPX/1/1 http://www.topografix.com/GPX/1/1/gpx.xsd" version="1.1" creator="VisuGPX - https://www.visugpx.com">
  <metadata>
    <name>2 jours en Chartreuse depuis St Laurent du Pont</name>
    <desc><![CDATA[Belle randonnée équestre avec étape au Planolet, au gîte le Perce-Neige. Quelques passages sur route passante et dénivelé. Passage par la voie Sarde et le couvent de la grande Chartreuse.]]></desc>
  </metadata>
  <trk>
    <name><![CDATA[2013-06-15 536616]]></name>
    <trkseg>
      <trkpt lat="45.3906" lon="5.71305">
        <ele>389</ele>
        <time>2013-06-14T09:02:58Z</time>
      </trkpt>
      <trkpt lat="45.3906" lon="5.71305">
        <ele>392</ele>
        <time>2013-06-14T09:03:06Z</time>
      </trkpt>
      <trkpt lat="45.3906" lon="5.71305">
        <ele>395</ele>
        <time>2013-06-14T09:03:12Z</time>
      </trkpt>
      <trkpt lat="45.3906" lon="5.71306">
        <ele>399</ele>
        <time>2013-06-14T09:03:20Z</time>
      </trkpt>
      <trkpt lat="45.39061" lon="5.71306">
        <ele>401</ele>
        <time>2013-06-14T09:03:31Z</time>
      </trkpt>
      <trkpt lat="45.39063" lon="5.71309">
        <ele>403</ele>
        <time>2013-06-14T09:03:58Z</time>
      </trkpt>
      <trkpt lat="45.39064" lon="5.71305">
        <ele>405</ele>
        <time>2013-06-14T09:05:56Z</time>
      </trkpt>
      <trkpt lat="45.39062" lon="5.71302">
        <ele>405</ele>
        <time>2013-06-14T09:06:29Z</time>
      </trkpt>
      <trkpt lat="45.39062" lon="5.71302">
        <ele>405</ele>
        <time>2013-06-14T09:08:41Z</time>
      </trkpt>
      <trkpt lat="45.39062" lon="5.71301">
        <ele>405</ele>
        <time>2013-06-14T09:09:43Z</time>
      </trkpt>
      <trkpt lat="45.39061" lon="5.71301">
        <ele>406</ele>
        <time>2013-06-14T09:13:57Z</time>
      </trkpt>
      <trkpt lat="45.39061" lon="5.71304">
        <ele>405</ele>
        <time>2013-06-14T09:17:25Z</time>
      </trkpt>
      <trkpt lat="45.39064" lon="5.71304">
        <ele>406</ele>
        <time>2013-06-14T09:17:50Z</time>
      </trkpt>
      <trkpt lat="45.39064" lon="5.71303">
        <ele>406</ele>
        <time>2013-06-14T09:18:52Z</time>
      </trkpt>
      <trkpt lat="45.39061" lon="5.71308">
        <ele>406</ele>
        <time>2013-06-14T09:20:34Z</time>
      </trkpt>
      <trkpt lat="45.39058" lon="5.71313">
        <ele>406</ele>
        <time>2013-06-14T09:20:38Z</time>
      </trkpt>
      <trkpt lat="45.3905" lon="5.71311">
        <ele>406</ele>
        <time>2013-06-14T09:20:55Z</time>
      </trkpt>
      <trkpt lat="45.39047" lon="5.71315">
        <ele>406</ele>
        <time>2013-06-14T09:21:15Z</time>
      </trkpt>
      <trkpt lat="45.39046" lon="5.71316">
        <ele>406</ele>
        <time>2013-06-14T09:22:54Z</time>
      </trkpt>
      <trkpt lat="45.39046" lon="5.71315">
        <ele>406</ele>
        <time>2013-06-14T09:25:17Z</time>
      </trkpt>
      <trkpt lat="45.39047" lon="5.71313">
        <ele>406</ele>
        <time>2013-06-14T09:27:00Z</time>
      </trkpt>
      <trkpt lat="45.39051" lon="5.71314">
        <ele>406</ele>
        <time>2013-06-14T09:27:04Z</time>
      </trkpt>
      <trkpt lat="45.39097" lon="5.71326">
        <ele>406</ele>
        <time>2013-06-14T09:27:37Z</time>
      </trkpt>
      <trkpt lat="45.39142" lon="5.71339">
        <ele>406</ele>
        <time>2013-06-14T09:28:09Z</time>
      </trkpt>
      <trkpt lat="45.39189" lon="5.71354">
        <ele>406</ele>
        <time>2013-06-14T09:28:44Z</time>
      </trkpt>
      <trkpt lat="45.392" lon="5.71356">
        <ele>406</ele>
        <time>2013-06-14T09:28:56Z</time>
      </trkpt>
      <trkpt lat="45.39204" lon="5.71351">
        <ele>406</ele>
        <time>2013-06-14T09:29:00Z</time>
      </trkpt>
      <trkpt lat="45.39232" lon="5.71278">
        <ele>405</ele>
        <time>2013-06-14T09:29:41Z</time>
      </trkpt>
      <trkpt lat="45.39263" lon="5.71203">
        <ele>405</ele>
        <time>2013-06-14T09:30:22Z</time>
      </trkpt>
      <trkpt lat="45.39298" lon="5.71118">
        <ele>405</ele>
        <time>2013-06-14T09:31:08Z</time>
      </trkpt>
      <trkpt lat="45.39328" lon="5.71041">
        <ele>405</ele>
        <time>2013-06-14T09:31:51Z</time>
      </trkpt>
      <trkpt lat="45.39333" lon="5.71033">
        <ele>405</ele>
        <time>2013-06-14T09:31:57Z</time>
      </trkpt>
      <trkpt lat="45.39344" lon="5.71031">
        <ele>404</ele>
        <time>2013-06-14T09:32:15Z</time>
      </trkpt>
      <trkpt lat="45.39345" lon="5.7103">
        <ele>404</ele>
        <time>2013-06-14T09:32:45Z</time>
      </trkpt>
      <trkpt lat="45.39346" lon="5.71029">
        <ele>403</ele>
        <time>2013-06-14T09:33:34Z</time>
      </trkpt>
      <trkpt lat="45.39349" lon="5.71035">
        <ele>404</ele>
        <time>2013-06-14T09:34:23Z</time>
      </trkpt>
      <trkpt lat="45.39348" lon="5.71046">
        <ele>404</ele>
        <time>2013-06-14T09:35:03Z</time>
      </trkpt>
      <trkpt lat="45.39349" lon="5.71043">
        <ele>403</ele>
        <time>2013-06-14T09:35:14Z</time>
      </trkpt>
      <trkpt lat="45.39346" lon="5.71041">
        <ele>403</ele>
        <time>2013-06-14T09:35:44Z</time>
      </trkpt>
      <trkpt lat="45.39346" lon="5.71041">
        <ele>403</ele>
        <time>2013-06-14T09:36:14Z</time>
      </trkpt>
      <trkpt lat="45.39354" lon="5.71051">
        <ele>403</ele>
        <time>2013-06-14T09:36:22Z</time>
      </trkpt>
      <trkpt lat="45.39371" lon="5.7107">
        <ele>403</ele>
        <time>2013-06-14T09:36:41Z</time>
      </trkpt>
      <trkpt lat="45.39406" lon="5.71095">
        <ele>403</ele>
        <time>2013-06-14T09:37:04Z</time>
      </trkpt>
      <trkpt lat="45.39445" lon="5.71123">
        <ele>403</ele>
        <time>2013-06-14T09:37:30Z</time>
      </trkpt>
      <trkpt lat="45.39489" lon="5.71163">
        <ele>403</ele>
        <time>2013-06-14T09:38:06Z</time>
      </trkpt>
      <trkpt lat="45.39522" lon="5.71193">
        <ele>403</ele>
        <time>2013-06-14T09:38:32Z</time>
      </trkpt>
      <trkpt lat="45.39554" lon="5.71222">
        <ele>403</ele>
        <time>2013-06-14T09:38:56Z</time>
      </trkpt>
      <trkpt lat="45.39581" lon="5.71244">
        <ele>403</ele>
        <time>2013-06-14T09:39:19Z</time>
      </trkpt>
      <trkpt lat="45.39616" lon="5.71279">
        <ele>404</ele>
        <time>2013-06-14T09:39:47Z</time>
      </trkpt>
      <trkpt lat="45.39638" lon="5.71298">
        <ele>404</ele>
        <time>2013-06-14T09:40:05Z</time>
      </trkpt>
      <trkpt lat="45.39644" lon="5.71303">
        <ele>404</ele>
        <time>2013-06-14T09:40:10Z</time>
      </trkpt>
      <trkpt lat="45.39648" lon="5.71306">
        <ele>404</ele>
        <time>2013-06-14T09:40:13Z</time>
      </trkpt>
      <trkpt lat="45.39675" lon="5.71332">
        <ele>404</ele>
        <time>2013-06-14T09:40:34Z</time>
      </trkpt>
      <trkpt lat="45.39706" lon="5.7136">
        <ele>404</ele>
        <time>2013-06-14T09:40:58Z</time>
      </trkpt>
      <trkpt lat="45.39745" lon="5.71396">
        <ele>404</ele>
        <time>2013-06-14T09:41:28Z</time>
      </trkpt>
      <trkpt lat="45.3977" lon="5.7142">
        <ele>405</ele>
        <time>2013-06-14T09:41:48Z</time>
      </trkpt>
      <trkpt lat="45.39799" lon="5.71448">
        <ele>405</ele>
        <time>2013-06-14T09:42:15Z</time>
      </trkpt>
      <trkpt lat="45.39834" lon="5.71477">
        <ele>405</ele>
        <time>2013-06-14T09:42:41Z</time>
      </trkpt>
      <trkpt lat="45.39848" lon="5.7149">
        <ele>405</ele>
        <time>2013-06-14T09:42:52Z</time>
      </trkpt>
      <trkpt lat="45.39871" lon="5.71509">
        <ele>405</ele>
        <time>2013-06-14T09:43:12Z</time>
      </trkpt>
      <trkpt lat="45.39896" lon="5.71531">
        <ele>405</ele>
        <time>2013-06-14T09:43:31Z</time>
      </trkpt>
      <trkpt lat="45.3992" lon="5.71556">
        <ele>405</ele>
        <time>2013-06-14T09:43:52Z</time>
      </trkpt>
      <trkpt lat="45.39925" lon="5.71559">
        <ele>405</ele>
        <time>2013-06-14T09:43:56Z</time>
      </trkpt>
      <trkpt lat="45.39955" lon="5.71589">
        <ele>405</ele>
        <time>2013-06-14T09:44:20Z</time>
      </trkpt>
      <trkpt lat="45.39987" lon="5.71621">
        <ele>405</ele>
        <time>2013-06-14T09:44:47Z</time>
      </trkpt>
      <trkpt lat="45.39997" lon="5.71628">
        <ele>405</ele>
        <time>2013-06-14T09:44:54Z</time>
      </trkpt>
      <trkpt lat="45.40022" lon="5.71651">
        <ele>405</ele>
        <time>2013-06-14T09:45:15Z</time>
      </trkpt>
      <trkpt lat="45.40063" lon="5.71687">
        <ele>405</ele>
        <time>2013-06-14T09:45:44Z</time>
      </trkpt>
      <trkpt lat="45.40085" lon="5.71705">
        <ele>405</ele>
        <time>2013-06-14T09:46:07Z</time>
      </trkpt>
      <trkpt lat="45.4011" lon="5.71739">
        <ele>406</ele>
        <time>2013-06-14T09:46:30Z</time>
      </trkpt>
      <trkpt lat="45.40137" lon="5.71775">
        <ele>405</ele>
        <time>2013-06-14T09:46:58Z</time>
      </trkpt>
      <trkpt lat="45.40166" lon="5.71816">
        <ele>405</ele>
        <time>2013-06-14T09:47:26Z</time>
      </trkpt>
      <trkpt lat="45.40183" lon="5.71836">
        <ele>406</ele>
        <time>2013-06-14T09:47:41Z</time>
      </trkpt>
      <trkpt lat="45.40191" lon="5.71846">
        <ele>406</ele>
        <time>2013-06-14T09:47:47Z</time>
      </trkpt>
      <trkpt lat="45.40194" lon="5.7185">
        <ele>406</ele>
        <time>2013-06-14T09:47:49Z</time>
      </trkpt>
      <trkpt lat="45.40199" lon="5.71862">
        <ele>406</ele>
        <time>2013-06-14T09:47:56Z</time>
      </trkpt>
      <trkpt lat="45.4021" lon="5.7188">
        <ele>406</ele>
        <time>2013-06-14T09:48:11Z</time>
      </trkpt>
      <trkpt lat="45.40223" lon="5.719">
        <ele>406</ele>
        <time>2013-06-14T09:48:25Z</time>
      </trkpt>
      <trkpt lat="45.40239" lon="5.71916">
        <ele>405</ele>
        <time>2013-06-14T09:48:35Z</time>
      </trkpt>
      <trkpt lat="45.40243" lon="5.71922">
        <ele>406</ele>
        <time>2013-06-14T09:48:39Z</time>
      </trkpt>
      <trkpt lat="45.40256" lon="5.71936">
        <ele>405</ele>
        <time>2013-06-14T09:48:49Z</time>
      </trkpt>
      <trkpt lat="45.40257" lon="5.71939">
        <ele>406</ele>
        <time>2013-06-14T09:48:51Z</time>
      </trkpt>
      <trkpt lat="45.40259" lon="5.71943">
        <ele>406</ele>
        <time>2013-06-14T09:48:54Z</time>
      </trkpt>
      <trkpt lat="45.40265" lon="5.71951">
        <ele>405</ele>
        <time>2013-06-14T09:49:00Z</time>
      </trkpt>
      <trkpt lat="45.40293" lon="5.71984">
        <ele>405</ele>
        <time>2013-06-14T09:49:24Z</time>
      </trkpt>
      <trkpt lat="45.403" lon="5.71991">
        <ele>405</ele>
        <time>2013-06-14T09:49:30Z</time>
      </trkpt>
      <trkpt lat="45.40301" lon="5.71994">
        <ele>405</ele>
        <time>2013-06-14T09:49:32Z</time>
      </trkpt>
      <trkpt lat="45.40335" lon="5.72038">
        <ele>405</ele>
        <time>2013-06-14T09:50:03Z</time>
      </trkpt>
      <trkpt lat="45.40372" lon="5.72083">
        <ele>405</ele>
        <time>2013-06-14T09:50:36Z</time>
      </trkpt>
      <trkpt lat="45.40378" lon="5.72093">
        <ele>405</ele>
        <time>2013-06-14T09:50:56Z</time>
      </trkpt>
      <trkpt lat="45.40378" lon="5.72093">
        <ele>406</ele>
        <time>2013-06-14T09:51:10Z</time>
      </trkpt>
      <trkpt lat="45.40379" lon="5.72098">
        <ele>405</ele>
        <time>2013-06-14T09:51:14Z</time>
      </trkpt>
      <trkpt lat="45.40374" lon="5.72107">
        <ele>405</ele>
        <time>2013-06-14T09:51:19Z</time>
      </trkpt>
      <trkpt lat="45.40373" lon="5.7211">
        <ele>405</ele>
        <time>2013-06-14T09:51:21Z</time>
      </trkpt>
      <trkpt lat="45.40374" lon="5.72117">
        <ele>405</ele>
        <time>2013-06-14T09:51:25Z</time>
      </trkpt>
      <trkpt lat="45.40376" lon="5.72121">
        <ele>405</ele>
        <time>2013-06-14T09:51:27Z</time>
      </trkpt>
      <trkpt lat="45.40408" lon="5.7216">
        <ele>405</ele>
        <time>2013-06-14T09:51:55Z</time>
      </trkpt>
      <trkpt lat="45.40438" lon="5.72199">
        <ele>404</ele>
        <time>2013-06-14T09:52:24Z</time>
      </trkpt>
      <trkpt lat="45.40474" lon="5.72244">
        <ele>404</ele>
        <time>2013-06-14T09:52:56Z</time>
      </trkpt>
      <trkpt lat="45.4051" lon="5.72289">
        <ele>405</ele>
        <time>2013-06-14T09:53:29Z</time>
      </trkpt>
      <trkpt lat="45.40545" lon="5.72338">
        <ele>404</ele>
        <time>2013-06-14T09:54:02Z</time>
      </trkpt>
      <trkpt lat="45.40549" lon="5.72344">
        <ele>404</ele>
        <time>2013-06-14T09:54:06Z</time>
      </trkpt>
      <trkpt lat="45.40555" lon="5.7235">
        <ele>404</ele>
        <time>2013-06-14T09:54:11Z</time>
      </trkpt>
      <trkpt lat="45.40558" lon="5.72354">
        <ele>404</ele>
        <time>2013-06-14T09:54:14Z</time>
      </trkpt>
      <trkpt lat="45.40559" lon="5.72362">
        <ele>404</ele>
        <time>2013-06-14T09:54:18Z</time>
      </trkpt>
      <trkpt lat="45.40574" lon="5.72377">
        <ele>404</ele>
        <time>2013-06-14T09:54:30Z</time>
      </trkpt>
      <trkpt lat="45.40589" lon="5.72389">
        <ele>404</ele>
        <time>2013-06-14T09:54:40Z</time>
      </trkpt>
      <trkpt lat="45.4059" lon="5.72391">
        <ele>404</ele>
        <time>2013-06-14T09:54:41Z</time>
      </trkpt>
      <trkpt lat="45.40592" lon="5.72397">
        <ele>404</ele>
        <time>2013-06-14T09:54:45Z</time>
      </trkpt>
      <trkpt lat="45.40595" lon="5.72403">
        <ele>404</ele>
        <time>2013-06-14T09:54:49Z</time>
      </trkpt>
      <trkpt lat="45.406" lon="5.72404">
        <ele>404</ele>
        <time>2013-06-14T09:54:51Z</time>
      </trkpt>
      <trkpt lat="45.40609" lon="5.72413">
        <ele>404</ele>
        <time>2013-06-14T09:54:58Z</time>
      </trkpt>
      <trkpt lat="45.40613" lon="5.72416">
        <ele>404</ele>
        <time>2013-06-14T09:55:00Z</time>
      </trkpt>
      <trkpt lat="45.40614" lon="5.72424">
        <ele>404</ele>
        <time>2013-06-14T09:55:04Z</time>
      </trkpt>
      <trkpt lat="45.40618" lon="5.72433">
        <ele>404</ele>
        <time>2013-06-14T09:55:09Z</time>
      </trkpt>
      <trkpt lat="45.40631" lon="5.72451">
        <ele>404</ele>
        <time>2013-06-14T09:55:22Z</time>
      </trkpt>
      <trkpt lat="45.40632" lon="5.72458">
        <ele>404</ele>
        <time>2013-06-14T09:55:27Z</time>
      </trkpt>
      <trkpt lat="45.40646" lon="5.72464">
        <ele>404</ele>
        <time>2013-06-14T09:55:34Z</time>
      </trkpt>
      <trkpt lat="45.40649" lon="5.7247">
        <ele>404</ele>
        <time>2013-06-14T09:55:38Z</time>
      </trkpt>
      <trkpt lat="45.40652" lon="5.72476">
        <ele>403</ele>
        <time>2013-06-14T09:55:42Z</time>
      </trkpt>
      <trkpt lat="45.40653" lon="5.72483">
        <ele>403</ele>
        <time>2013-06-14T09:55:46Z</time>
      </trkpt>
      <trkpt lat="45.40656" lon="5.72486">
        <ele>403</ele>
        <time>2013-06-14T09:55:48Z</time>
      </trkpt>
      <trkpt lat="45.40666" lon="5.72489">
        <ele>403</ele>
        <time>2013-06-14T09:55:52Z</time>
      </trkpt>
      <trkpt lat="45.40667" lon="5.72495">
        <ele>403</ele>
        <time>2013-06-14T09:55:56Z</time>
      </trkpt>
      <trkpt lat="45.40668" lon="5.72508">
        <ele>403</ele>
        <time>2013-06-14T09:56:01Z</time>
      </trkpt>
      <trkpt lat="45.40676" lon="5.72519">
        <ele>403</ele>
        <time>2013-06-14T09:56:10Z</time>
      </trkpt>
      <trkpt lat="45.40684" lon="5.72533">
        <ele>403</ele>
        <time>2013-06-14T09:56:18Z</time>
      </trkpt>
      <trkpt lat="45.40686" lon="5.72537">
        <ele>403</ele>
        <time>2013-06-14T09:56:21Z</time>
      </trkpt>
      <trkpt lat="45.4069" lon="5.7254">
        <ele>403</ele>
        <time>2013-06-14T09:56:24Z</time>
      </trkpt>
      <trkpt lat="45.40705" lon="5.72574">
        <ele>404</ele>
        <time>2013-06-14T09:56:46Z</time>
      </trkpt>
      <trkpt lat="45.40724" lon="5.72618">
        <ele>404</ele>
        <time>2013-06-14T09:57:13Z</time>
      </trkpt>
      <trkpt lat="45.40729" lon="5.72626">
        <ele>403</ele>
        <time>2013-06-14T09:57:18Z</time>
      </trkpt>
      <trkpt lat="45.4073" lon="5.72631">
        <ele>403</ele>
        <time>2013-06-14T09:57:21Z</time>
      </trkpt>
      <trkpt lat="45.40745" lon="5.72661">
        <ele>403</ele>
        <time>2013-06-14T09:57:40Z</time>
      </trkpt>
      <trkpt lat="45.4076" lon="5.72694">
        <ele>403</ele>
        <time>2013-06-14T09:58:00Z</time>
      </trkpt>
      <trkpt lat="45.40763" lon="5.72698">
        <ele>403</ele>
        <time>2013-06-14T09:58:02Z</time>
      </trkpt>
      <trkpt lat="45.40775" lon="5.7272">
        <ele>404</ele>
        <time>2013-06-14T09:58:21Z</time>
      </trkpt>
      <trkpt lat="45.40782" lon="5.7274">
        <ele>404</ele>
        <time>2013-06-14T09:58:32Z</time>
      </trkpt>
      <trkpt lat="45.40801" lon="5.72773">
        <ele>404</ele>
        <time>2013-06-14T09:58:52Z</time>
      </trkpt>
      <trkpt lat="45.40804" lon="5.72782">
        <ele>405</ele>
        <time>2013-06-14T09:58:59Z</time>
      </trkpt>
      <trkpt lat="45.40807" lon="5.72793">
        <ele>404</ele>
        <time>2013-06-14T09:59:10Z</time>
      </trkpt>
      <trkpt lat="45.40823" lon="5.72781">
        <ele>405</ele>
        <time>2013-06-14T09:59:22Z</time>
      </trkpt>
      <trkpt lat="45.40829" lon="5.72787">
        <ele>404</ele>
        <time>2013-06-14T09:59:25Z</time>
      </trkpt>
      <trkpt lat="45.40832" lon="5.7279">
        <ele>404</ele>
        <time>2013-06-14T09:59:27Z</time>
      </trkpt>
      <trkpt lat="45.40843" lon="5.72831">
        <ele>404</ele>
        <time>2013-06-14T09:59:50Z</time>
      </trkpt>
      <trkpt lat="45.40857" lon="5.7287">
        <ele>403</ele>
        <time>2013-06-14T10:00:14Z</time>
      </trkpt>
      <trkpt lat="45.40874" lon="5.72918">
        <ele>403</ele>
        <time>2013-06-14T10:00:40Z</time>
      </trkpt>
      <trkpt lat="45.40893" lon="5.72978">
        <ele>404</ele>
        <time>2013-06-14T10:01:11Z</time>
      </trkpt>
      <trkpt lat="45.40913" lon="5.73035">
        <ele>404</ele>
        <time>2013-06-14T10:01:42Z</time>
      </trkpt>
      <trkpt lat="45.40935" lon="5.73098">
        <ele>404</ele>
        <time>2013-06-14T10:02:17Z</time>
      </trkpt>
      <trkpt lat="45.40959" lon="5.73163">
        <ele>404</ele>
        <time>2013-06-14T10:02:54Z</time>
      </trkpt>
      <trkpt lat="45.40976" lon="5.73215">
        <ele>404</ele>
        <time>2013-06-14T10:03:24Z</time>
      </trkpt>
      <trkpt lat="45.40977" lon="5.73218">
        <ele>404</ele>
        <time>2013-06-14T10:03:26Z</time>
      </trkpt>
      <trkpt lat="45.4098" lon="5.73222">
        <ele>403</ele>
        <time>2013-06-14T10:03:30Z</time>
      </trkpt>
      <trkpt lat="45.40981" lon="5.73225">
        <ele>403</ele>
        <time>2013-06-14T10:03:32Z</time>
      </trkpt>
      <trkpt lat="45.40996" lon="5.73258">
        <ele>403</ele>
        <time>2013-06-14T10:03:53Z</time>
      </trkpt>
      <trkpt lat="45.41023" lon="5.73296">
        <ele>403</ele>
        <time>2013-06-14T10:04:21Z</time>
      </trkpt>
      <trkpt lat="45.41042" lon="5.7332">
        <ele>403</ele>
        <time>2013-06-14T10:04:37Z</time>
      </trkpt>
      <trkpt lat="45.41062" lon="5.73356">
        <ele>403</ele>
        <time>2013-06-14T10:05:02Z</time>
      </trkpt>
      <trkpt lat="45.41065" lon="5.7336">
        <ele>404</ele>
        <time>2013-06-14T10:05:05Z</time>
      </trkpt>
      <trkpt lat="45.41085" lon="5.73387">
        <ele>403</ele>
        <time>2013-06-14T10:05:25Z</time>
      </trkpt>
      <trkpt lat="45.41108" lon="5.73427">
        <ele>403</ele>
        <time>2013-06-14T10:05:51Z</time>
      </trkpt>
      <trkpt lat="45.41109" lon="5.73429">
        <ele>402</ele>
        <time>2013-06-14T10:05:53Z</time>
      </trkpt>
      <trkpt lat="45.41122" lon="5.73449">
        <ele>403</ele>
        <time>2013-06-14T10:06:09Z</time>
      </trkpt>
      <trkpt lat="45.41138" lon="5.73472">
        <ele>403</ele>
        <time>2013-06-14T10:06:25Z</time>
      </trkpt>
      <trkpt lat="45.41163" lon="5.7351">
        <ele>402</ele>
        <time>2013-06-14T10:06:51Z</time>
      </trkpt>
      <trkpt lat="45.41179" lon="5.73537">
        <ele>402</ele>
        <time>2013-06-14T10:07:08Z</time>
      </trkpt>
      <trkpt lat="45.41208" lon="5.73583">
        <ele>402</ele>
        <time>2013-06-14T10:07:36Z</time>
      </trkpt>
      <trkpt lat="45.41238" lon="5.73623">
        <ele>402</ele>
        <time>2013-06-14T10:08:04Z</time>
      </trkpt>
      <trkpt lat="45.41239" lon="5.73627">
        <ele>403</ele>
        <time>2013-06-14T10:08:06Z</time>
      </trkpt>
      <trkpt lat="45.41269" lon="5.73674">
        <ele>401</ele>
        <time>2013-06-14T10:08:36Z</time>
      </trkpt>
      <trkpt lat="45.41297" lon="5.73711">
        <ele>401</ele>
        <time>2013-06-14T10:09:01Z</time>
      </trkpt>
      <trkpt lat="45.41321" lon="5.73739">
        <ele>401</ele>
        <time>2013-06-14T10:09:24Z</time>
      </trkpt>
      <trkpt lat="45.41321" lon="5.73741">
        <ele>401</ele>
        <time>2013-06-14T10:09:25Z</time>
      </trkpt>
      <trkpt lat="45.41332" lon="5.7375">
        <ele>401</ele>
        <time>2013-06-14T10:09:32Z</time>
      </trkpt>
      <trkpt lat="45.41354" lon="5.7377">
        <ele>401</ele>
        <time>2013-06-14T10:09:48Z</time>
      </trkpt>
      <trkpt lat="45.41368" lon="5.73783">
        <ele>401</ele>
        <time>2013-06-14T10:10:11Z</time>
      </trkpt>
      <trkpt lat="45.41369" lon="5.73782">
        <ele>401</ele>
        <time>2013-06-14T10:10:41Z</time>
      </trkpt>
      <trkpt lat="45.41369" lon="5.73781">
        <ele>401</ele>
        <time>2013-06-14T10:11:12Z</time>
      </trkpt>
      <trkpt lat="45.4137" lon="5.7379">
        <ele>401</ele>
        <time>2013-06-14T10:11:19Z</time>
      </trkpt>
      <trkpt lat="45.41354" lon="5.73815">
        <ele>402</ele>
        <time>2013-06-14T10:12:22Z</time>
      </trkpt>
      <trkpt lat="45.41387" lon="5.73834">
        <ele>401</ele>
        <time>2013-06-14T10:12:47Z</time>
      </trkpt>
      <trkpt lat="45.41393" lon="5.73842">
        <ele>401</ele>
        <time>2013-06-14T10:13:04Z</time>
      </trkpt>
      <trkpt lat="45.41382" lon="5.73834">
        <ele>401</ele>
        <time>2013-06-14T10:13:12Z</time>
      </trkpt>
      <trkpt lat="45.41367" lon="5.73863">
        <ele>401</ele>
        <time>2013-06-14T10:13:30Z</time>
      </trkpt>
      <trkpt lat="45.4136" lon="5.73876">
        <ele>400</ele>
        <time>2013-06-14T10:13:37Z</time>
      </trkpt>
      <trkpt lat="45.41345" lon="5.739">
        <ele>400</ele>
        <time>2013-06-14T10:13:52Z</time>
      </trkpt>
      <trkpt lat="45.41334" lon="5.73923">
        <ele>401</ele>
        <time>2013-06-14T10:14:01Z</time>
      </trkpt>
      <trkpt lat="45.41332" lon="5.73927">
        <ele>400</ele>
        <time>2013-06-14T10:14:06Z</time>
      </trkpt>
      <trkpt lat="45.41326" lon="5.73938">
        <ele>400</ele>
        <time>2013-06-14T10:14:12Z</time>
      </trkpt>
      <trkpt lat="45.41323" lon="5.73946">
        <ele>400</ele>
        <time>2013-06-14T10:14:15Z</time>
      </trkpt>
      <trkpt lat="45.4132" lon="5.73951">
        <ele>401</ele>
        <time>2013-06-14T10:14:18Z</time>
      </trkpt>
      <trkpt lat="45.41306" lon="5.73978">
        <ele>400</ele>
        <time>2013-06-14T10:14:33Z</time>
      </trkpt>
      <trkpt lat="45.41297" lon="5.73993">
        <ele>401</ele>
        <time>2013-06-14T10:14:45Z</time>
      </trkpt>
      <trkpt lat="45.41295" lon="5.73997">
        <ele>401</ele>
        <time>2013-06-14T10:14:48Z</time>
      </trkpt>
      <trkpt lat="45.41292" lon="5.74">
        <ele>401</ele>
        <time>2013-06-14T10:14:51Z</time>
      </trkpt>
      <trkpt lat="45.41292" lon="5.74007">
        <ele>401</ele>
        <time>2013-06-14T10:14:54Z</time>
      </trkpt>
      <trkpt lat="45.41288" lon="5.74018">
        <ele>401</ele>
        <time>2013-06-14T10:14:59Z</time>
      </trkpt>
      <trkpt lat="45.41288" lon="5.74029">
        <ele>401</ele>
        <time>2013-06-14T10:15:04Z</time>
      </trkpt>
      <trkpt lat="45.41292" lon="5.7403">
        <ele>401</ele>
        <time>2013-06-14T10:15:07Z</time>
      </trkpt>
      <trkpt lat="45.41296" lon="5.74036">
        <ele>400</ele>
        <time>2013-06-14T10:15:12Z</time>
      </trkpt>
      <trkpt lat="45.41302" lon="5.74039">
        <ele>400</ele>
        <time>2013-06-14T10:15:16Z</time>
      </trkpt>
      <trkpt lat="45.41317" lon="5.74049">
        <ele>400</ele>
        <time>2013-06-14T10:15:27Z</time>
      </trkpt>
      <trkpt lat="45.41322" lon="5.7406">
        <ele>400</ele>
        <time>2013-06-14T10:15:31Z</time>
      </trkpt>
      <trkpt lat="45.41327" lon="5.7407">
        <ele>400</ele>
        <time>2013-06-14T10:15:37Z</time>
      </trkpt>
      <trkpt lat="45.4134" lon="5.74082">
        <ele>400</ele>
        <time>2013-06-14T10:15:47Z</time>
      </trkpt>
      <trkpt lat="45.41349" lon="5.74089">
        <ele>400</ele>
        <time>2013-06-14T10:15:53Z</time>
      </trkpt>
      <trkpt lat="45.41355" lon="5.74096">
        <ele>400</ele>
        <time>2013-06-14T10:15:59Z</time>
      </trkpt>
      <trkpt lat="45.41357" lon="5.74098">
        <ele>399</ele>
        <time>2013-06-14T10:16:01Z</time>
      </trkpt>
      <trkpt lat="45.41368" lon="5.74107">
        <ele>399</ele>
        <time>2013-06-14T10:16:09Z</time>
      </trkpt>
      <trkpt lat="45.41376" lon="5.74118">
        <ele>400</ele>
        <time>2013-06-14T10:16:15Z</time>
      </trkpt>
      <trkpt lat="45.41384" lon="5.74124">
        <ele>399</ele>
        <time>2013-06-14T10:16:21Z</time>
      </trkpt>
      <trkpt lat="45.41387" lon="5.74131">
        <ele>399</ele>
        <time>2013-06-14T10:16:25Z</time>
      </trkpt>
      <trkpt lat="45.41407" lon="5.74144">
        <ele>399</ele>
        <time>2013-06-14T10:16:37Z</time>
      </trkpt>
      <trkpt lat="45.41409" lon="5.74147">
        <ele>399</ele>
        <time>2013-06-14T10:16:39Z</time>
      </trkpt>
      <trkpt lat="45.4141" lon="5.74168">
        <ele>399</ele>
        <time>2013-06-14T10:16:48Z</time>
      </trkpt>
      <trkpt lat="45.41408" lon="5.74176">
        <ele>399</ele>
        <time>2013-06-14T10:16:55Z</time>
      </trkpt>
      <trkpt lat="45.41404" lon="5.74191">
        <ele>399</ele>
        <time>2013-06-14T10:17:02Z</time>
      </trkpt>
      <trkpt lat="45.41401" lon="5.74227">
        <ele>399</ele>
        <time>2013-06-14T10:17:17Z</time>
      </trkpt>
      <trkpt lat="45.41399" lon="5.74238">
        <ele>399</ele>
        <time>2013-06-14T10:17:22Z</time>
      </trkpt>
      <trkpt lat="45.41398" lon="5.7426">
        <ele>399</ele>
        <time>2013-06-14T10:17:35Z</time>
      </trkpt>
      <trkpt lat="45.41396" lon="5.74273">
        <ele>400</ele>
        <time>2013-06-14T10:17:44Z</time>
      </trkpt>
      <trkpt lat="45.4139" lon="5.74287">
        <ele>400</ele>
        <time>2013-06-14T10:17:50Z</time>
      </trkpt>
      <trkpt lat="45.41391" lon="5.74289">
        <ele>400</ele>
        <time>2013-06-14T10:17:57Z</time>
      </trkpt>
      <trkpt lat="45.41383" lon="5.74286">
        <ele>400</ele>
        <time>2013-06-14T10:18:04Z</time>
      </trkpt>
      <trkpt lat="45.41363" lon="5.74278">
        <ele>400</ele>
        <time>2013-06-14T10:18:18Z</time>
      </trkpt>
      <trkpt lat="45.41342" lon="5.74272">
        <ele>400</ele>
        <time>2013-06-14T10:18:31Z</time>
      </trkpt>
      <trkpt lat="45.41339" lon="5.74274">
        <ele>401</ele>
        <time>2013-06-14T10:18:33Z</time>
      </trkpt>
      <trkpt lat="45.4133" lon="5.74281">
        <ele>401</ele>
        <time>2013-06-14T10:18:39Z</time>
      </trkpt>
      <trkpt lat="45.41329" lon="5.74283">
        <ele>401</ele>
        <time>2013-06-14T10:18:41Z</time>
      </trkpt>
      <trkpt lat="45.41331" lon="5.74306">
        <ele>401</ele>
        <time>2013-06-14T10:18:50Z</time>
      </trkpt>
      <trkpt lat="45.4133" lon="5.74314">
        <ele>401</ele>
        <time>2013-06-14T10:18:58Z</time>
      </trkpt>
      <trkpt lat="45.41352" lon="5.74325">
        <ele>401</ele>
        <time>2013-06-14T10:19:13Z</time>
      </trkpt>
      <trkpt lat="45.41358" lon="5.74331">
        <ele>401</ele>
        <time>2013-06-14T10:19:25Z</time>
      </trkpt>
      <trkpt lat="45.4136" lon="5.74333">
        <ele>401</ele>
        <time>2013-06-14T10:19:38Z</time>
      </trkpt>
      <trkpt lat="45.41361" lon="5.74334">
        <ele>401</ele>
        <time>2013-06-14T10:20:14Z</time>
      </trkpt>
      <trkpt lat="45.4139" lon="5.74337">
        <ele>401</ele>
        <time>2013-06-14T10:20:47Z</time>
      </trkpt>
      <trkpt lat="45.41434" lon="5.74344">
        <ele>401</ele>
        <time>2013-06-14T10:21:14Z</time>
      </trkpt>
      <trkpt lat="45.41464" lon="5.74351">
        <ele>400</ele>
        <time>2013-06-14T10:21:35Z</time>
      </trkpt>
      <trkpt lat="45.41473" lon="5.74355">
        <ele>400</ele>
        <time>2013-06-14T10:21:41Z</time>
      </trkpt>
      <trkpt lat="45.4152" lon="5.74367">
        <ele>400</ele>
        <time>2013-06-14T10:22:12Z</time>
      </trkpt>
      <trkpt lat="45.41555" lon="5.74385">
        <ele>400</ele>
        <time>2013-06-14T10:22:37Z</time>
      </trkpt>
      <trkpt lat="45.41585" lon="5.74425">
        <ele>400</ele>
        <time>2013-06-14T10:23:05Z</time>
      </trkpt>
      <trkpt lat="45.41607" lon="5.74471">
        <ele>399</ele>
        <time>2013-06-14T10:23:32Z</time>
      </trkpt>
      <trkpt lat="45.41627" lon="5.74516">
        <ele>399</ele>
        <time>2013-06-14T10:23:58Z</time>
      </trkpt>
      <trkpt lat="45.41629" lon="5.74523">
        <ele>399</ele>
        <time>2013-06-14T10:24:02Z</time>
      </trkpt>
      <trkpt lat="45.41631" lon="5.74532">
        <ele>399</ele>
        <time>2013-06-14T10:24:06Z</time>
      </trkpt>
      <trkpt lat="45.41635" lon="5.74543">
        <ele>398</ele>
        <time>2013-06-14T10:24:12Z</time>
      </trkpt>
      <trkpt lat="45.4165" lon="5.74573">
        <ele>398</ele>
        <time>2013-06-14T10:24:30Z</time>
      </trkpt>
      <trkpt lat="45.41651" lon="5.74577">
        <ele>398</ele>
        <time>2013-06-14T10:24:32Z</time>
      </trkpt>
      <trkpt lat="45.41653" lon="5.74582">
        <ele>398</ele>
        <time>2013-06-14T10:24:35Z</time>
      </trkpt>
      <trkpt lat="45.41657" lon="5.74588">
        <ele>398</ele>
        <time>2013-06-14T10:24:39Z</time>
      </trkpt>
      <trkpt lat="45.41662" lon="5.74595">
        <ele>398</ele>
        <time>2013-06-14T10:24:44Z</time>
      </trkpt>
      <trkpt lat="45.41664" lon="5.74597">
        <ele>398</ele>
        <time>2013-06-14T10:24:46Z</time>
      </trkpt>
      <trkpt lat="45.41672" lon="5.74611">
        <ele>398</ele>
        <time>2013-06-14T10:24:54Z</time>
      </trkpt>
      <trkpt lat="45.41676" lon="5.74621">
        <ele>398</ele>
        <time>2013-06-14T10:25:00Z</time>
      </trkpt>
      <trkpt lat="45.41702" lon="5.74675">
        <ele>398</ele>
        <time>2013-06-14T10:25:32Z</time>
      </trkpt>
      <trkpt lat="45.41703" lon="5.74679">
        <ele>398</ele>
        <time>2013-06-14T10:25:34Z</time>
      </trkpt>
      <trkpt lat="45.41715" lon="5.74698">
        <ele>398</ele>
        <time>2013-06-14T10:25:45Z</time>
      </trkpt>
      <trkpt lat="45.41718" lon="5.74705">
        <ele>398</ele>
        <time>2013-06-14T10:25:49Z</time>
      </trkpt>
      <trkpt lat="45.41721" lon="5.74711">
        <ele>398</ele>
        <time>2013-06-14T10:25:53Z</time>
      </trkpt>
      <trkpt lat="45.41748" lon="5.74763">
        <ele>397</ele>
        <time>2013-06-14T10:26:24Z</time>
      </trkpt>
      <trkpt lat="45.41751" lon="5.74768">
        <ele>397</ele>
        <time>2013-06-14T10:26:27Z</time>
      </trkpt>
      <trkpt lat="45.41761" lon="5.74797">
        <ele>397</ele>
        <time>2013-06-14T10:26:42Z</time>
      </trkpt>
      <trkpt lat="45.4178" lon="5.74837">
        <ele>397</ele>
        <time>2013-06-14T10:27:05Z</time>
      </trkpt>
      <trkpt lat="45.41781" lon="5.74838">
        <ele>397</ele>
        <time>2013-06-14T10:27:06Z</time>
      </trkpt>
      <trkpt lat="45.41784" lon="5.74843">
        <ele>396</ele>
        <time>2013-06-14T10:27:09Z</time>
      </trkpt>
      <trkpt lat="45.41789" lon="5.7485">
        <ele>397</ele>
        <time>2013-06-14T10:27:16Z</time>
      </trkpt>
      <trkpt lat="45.41796" lon="5.7486">
        <ele>396</ele>
        <time>2013-06-14T10:27:22Z</time>
      </trkpt>
      <trkpt lat="45.41807" lon="5.74873">
        <ele>397</ele>
        <time>2013-06-14T10:27:30Z</time>
      </trkpt>
      <trkpt lat="45.41833" lon="5.74896">
        <ele>396</ele>
        <time>2013-06-14T10:27:51Z</time>
      </trkpt>
      <trkpt lat="45.41841" lon="5.74902">
        <ele>396</ele>
        <time>2013-06-14T10:27:57Z</time>
      </trkpt>
      <trkpt lat="45.4186" lon="5.74913">
        <ele>396</ele>
        <time>2013-06-14T10:28:11Z</time>
      </trkpt>
      <trkpt lat="45.41864" lon="5.74918">
        <ele>396</ele>
        <time>2013-06-14T10:28:15Z</time>
      </trkpt>
      <trkpt lat="45.41869" lon="5.74923">
        <ele>396</ele>
        <time>2013-06-14T10:28:19Z</time>
      </trkpt>
      <trkpt lat="45.41872" lon="5.74937">
        <ele>395</ele>
        <time>2013-06-14T10:28:27Z</time>
      </trkpt>
      <trkpt lat="45.41868" lon="5.74957">
        <ele>395</ele>
        <time>2013-06-14T10:28:37Z</time>
      </trkpt>
      <trkpt lat="45.41867" lon="5.74963">
        <ele>395</ele>
        <time>2013-06-14T10:28:41Z</time>
      </trkpt>
      <trkpt lat="45.41864" lon="5.75004">
        <ele>394</ele>
        <time>2013-06-14T10:29:01Z</time>
      </trkpt>
      <trkpt lat="45.41865" lon="5.75017">
        <ele>394</ele>
        <time>2013-06-14T10:29:07Z</time>
      </trkpt>
      <trkpt lat="45.41902" lon="5.75042">
        <ele>394</ele>
        <time>2013-06-14T10:29:34Z</time>
      </trkpt>
      <trkpt lat="45.41939" lon="5.75061">
        <ele>394</ele>
        <time>2013-06-14T10:29:55Z</time>
      </trkpt>
      <trkpt lat="45.41977" lon="5.75086">
        <ele>395</ele>
        <time>2013-06-14T10:30:24Z</time>
      </trkpt>
      <trkpt lat="45.42009" lon="5.75102">
        <ele>395</ele>
        <time>2013-06-14T10:30:49Z</time>
      </trkpt>
      <trkpt lat="45.42018" lon="5.75105">
        <ele>395</ele>
        <time>2013-06-14T10:30:55Z</time>
      </trkpt>
      <trkpt lat="45.42046" lon="5.75124">
        <ele>395</ele>
        <time>2013-06-14T10:31:17Z</time>
      </trkpt>
      <trkpt lat="45.42049" lon="5.75125">
        <ele>395</ele>
        <time>2013-06-14T10:31:19Z</time>
      </trkpt>
      <trkpt lat="45.42078" lon="5.75147">
        <ele>397</ele>
        <time>2013-06-14T10:31:43Z</time>
      </trkpt>
      <trkpt lat="45.421" lon="5.75168">
        <ele>398</ele>
        <time>2013-06-14T10:32:04Z</time>
      </trkpt>
      <trkpt lat="45.42103" lon="5.7517">
        <ele>398</ele>
        <time>2013-06-14T10:32:06Z</time>
      </trkpt>
      <trkpt lat="45.42131" lon="5.75193">
        <ele>398</ele>
        <time>2013-06-14T10:32:30Z</time>
      </trkpt>
      <trkpt lat="45.42158" lon="5.75211">
        <ele>397</ele>
        <time>2013-06-14T10:32:50Z</time>
      </trkpt>
      <trkpt lat="45.42184" lon="5.75231">
        <ele>398</ele>
        <time>2013-06-14T10:33:11Z</time>
      </trkpt>
      <trkpt lat="45.42205" lon="5.75253">
        <ele>398</ele>
        <time>2013-06-14T10:33:30Z</time>
      </trkpt>
      <trkpt lat="45.42237" lon="5.75271">
        <ele>397</ele>
        <time>2013-06-14T10:33:53Z</time>
      </trkpt>
      <trkpt lat="45.42241" lon="5.75274">
        <ele>398</ele>
        <time>2013-06-14T10:33:56Z</time>
      </trkpt>
      <trkpt lat="45.42248" lon="5.75276">
        <ele>397</ele>
        <time>2013-06-14T10:34:01Z</time>
      </trkpt>
      <trkpt lat="45.42277" lon="5.75288">
        <ele>397</ele>
        <time>2013-06-14T10:34:23Z</time>
      </trkpt>
      <trkpt lat="45.42282" lon="5.75289">
        <ele>397</ele>
        <time>2013-06-14T10:34:27Z</time>
      </trkpt>
      <trkpt lat="45.42307" lon="5.75293">
        <ele>398</ele>
        <time>2013-06-14T10:34:44Z</time>
      </trkpt>
      <trkpt lat="45.42318" lon="5.75295">
        <ele>398</ele>
        <time>2013-06-14T10:34:52Z</time>
      </trkpt>
      <trkpt lat="45.42344" lon="5.75297">
        <ele>399</ele>
        <time>2013-06-14T10:35:11Z</time>
      </trkpt>
      <trkpt lat="45.42348" lon="5.75298">
        <ele>398</ele>
        <time>2013-06-14T10:35:15Z</time>
      </trkpt>
      <trkpt lat="45.42352" lon="5.75299">
        <ele>398</ele>
        <time>2013-06-14T10:35:18Z</time>
      </trkpt>
      <trkpt lat="45.42366" lon="5.75302">
        <ele>399</ele>
        <time>2013-06-14T10:35:28Z</time>
      </trkpt>
      <trkpt lat="45.42381" lon="5.75308">
        <ele>398</ele>
        <time>2013-06-14T10:35:39Z</time>
      </trkpt>
      <trkpt lat="45.42423" lon="5.75344">
        <ele>398</ele>
        <time>2013-06-14T10:36:13Z</time>
      </trkpt>
      <trkpt lat="45.42448" lon="5.75361">
        <ele>399</ele>
        <time>2013-06-14T10:36:31Z</time>
      </trkpt>
      <trkpt lat="45.42492" lon="5.7539">
        <ele>399</ele>
        <time>2013-06-14T10:37:03Z</time>
      </trkpt>
      <trkpt lat="45.42529" lon="5.75416">
        <ele>399</ele>
        <time>2013-06-14T10:37:33Z</time>
      </trkpt>
      <trkpt lat="45.42534" lon="5.7542">
        <ele>399</ele>
        <time>2013-06-14T10:37:59Z</time>
      </trkpt>
      <trkpt lat="45.4254" lon="5.75427">
        <ele>399</ele>
        <time>2013-06-14T10:38:37Z</time>
      </trkpt>
      <trkpt lat="45.4255" lon="5.75431">
        <ele>399</ele>
        <time>2013-06-14T10:38:54Z</time>
      </trkpt>
      <trkpt lat="45.42557" lon="5.75444">
        <ele>399</ele>
        <time>2013-06-14T10:39:03Z</time>
      </trkpt>
      <trkpt lat="45.42573" lon="5.75456">
        <ele>399</ele>
        <time>2013-06-14T10:39:19Z</time>
      </trkpt>
      <trkpt lat="45.42586" lon="5.75461">
        <ele>399</ele>
        <time>2013-06-14T10:39:30Z</time>
      </trkpt>
      <trkpt lat="45.42591" lon="5.7546">
        <ele>399</ele>
        <time>2013-06-14T10:39:51Z</time>
      </trkpt>
      <trkpt lat="45.42591" lon="5.7546">
        <ele>399</ele>
        <time>2013-06-14T10:39:57Z</time>
      </trkpt>
      <trkpt lat="45.42635" lon="5.75471">
        <ele>399</ele>
        <time>2013-06-14T10:40:30Z</time>
      </trkpt>
      <trkpt lat="45.42659" lon="5.75476">
        <ele>400</ele>
        <time>2013-06-14T10:40:53Z</time>
      </trkpt>
      <trkpt lat="45.42711" lon="5.75487">
        <ele>400</ele>
        <time>2013-06-14T10:41:29Z</time>
      </trkpt>
      <trkpt lat="45.42748" lon="5.75493">
        <ele>400</ele>
        <time>2013-06-14T10:41:53Z</time>
      </trkpt>
      <trkpt lat="45.42753" lon="5.75492">
        <ele>400</ele>
        <time>2013-06-14T10:42:13Z</time>
      </trkpt>
      <trkpt lat="45.42761" lon="5.75497">
        <ele>400</ele>
        <time>2013-06-14T10:42:59Z</time>
      </trkpt>
      <trkpt lat="45.42764" lon="5.7556">
        <ele>401</ele>
        <time>2013-06-14T10:43:32Z</time>
      </trkpt>
      <trkpt lat="45.42764" lon="5.75583">
        <ele>401</ele>
        <time>2013-06-14T10:43:59Z</time>
      </trkpt>
      <trkpt lat="45.42764" lon="5.75584">
        <ele>401</ele>
        <time>2013-06-14T10:44:05Z</time>
      </trkpt>
      <trkpt lat="45.42765" lon="5.75604">
        <ele>401</ele>
        <time>2013-06-14T10:44:27Z</time>
      </trkpt>
      <trkpt lat="45.42764" lon="5.75614">
        <ele>401</ele>
        <time>2013-06-14T10:44:42Z</time>
      </trkpt>
      <trkpt lat="45.42792" lon="5.75629">
        <ele>401</ele>
        <time>2013-06-14T10:45:03Z</time>
      </trkpt>
      <trkpt lat="45.4282" lon="5.75643">
        <ele>401</ele>
        <time>2013-06-14T10:45:24Z</time>
      </trkpt>
      <trkpt lat="45.42824" lon="5.75646">
        <ele>401</ele>
        <time>2013-06-14T10:45:32Z</time>
      </trkpt>
      <trkpt lat="45.42848" lon="5.75654">
        <ele>401</ele>
        <time>2013-06-14T10:45:49Z</time>
      </trkpt>
      <trkpt lat="45.42857" lon="5.7566">
        <ele>402</ele>
        <time>2013-06-14T10:45:56Z</time>
      </trkpt>
      <trkpt lat="45.42863" lon="5.75665">
        <ele>402</ele>
        <time>2013-06-14T10:46:01Z</time>
      </trkpt>
      <trkpt lat="45.42884" lon="5.75676">
        <ele>402</ele>
        <time>2013-06-14T10:46:19Z</time>
      </trkpt>
      <trkpt lat="45.4291" lon="5.75687">
        <ele>403</ele>
        <time>2013-06-14T10:46:36Z</time>
      </trkpt>
      <trkpt lat="45.42917" lon="5.7569">
        <ele>403</ele>
        <time>2013-06-14T10:46:41Z</time>
      </trkpt>
      <trkpt lat="45.42921" lon="5.75692">
        <ele>403</ele>
        <time>2013-06-14T10:46:44Z</time>
      </trkpt>
      <trkpt lat="45.42927" lon="5.75707">
        <ele>403</ele>
        <time>2013-06-14T10:46:52Z</time>
      </trkpt>
      <trkpt lat="45.42927" lon="5.75729">
        <ele>404</ele>
        <time>2013-06-14T10:47:03Z</time>
      </trkpt>
      <trkpt lat="45.42922" lon="5.75751">
        <ele>404</ele>
        <time>2013-06-14T10:47:12Z</time>
      </trkpt>
      <trkpt lat="45.42917" lon="5.75773">
        <ele>404</ele>
        <time>2013-06-14T10:47:23Z</time>
      </trkpt>
      <trkpt lat="45.42917" lon="5.75782">
        <ele>404</ele>
        <time>2013-06-14T10:47:27Z</time>
      </trkpt>
      <trkpt lat="45.42916" lon="5.75793">
        <ele>404</ele>
        <time>2013-06-14T10:47:33Z</time>
      </trkpt>
      <trkpt lat="45.42907" lon="5.75803">
        <ele>403</ele>
        <time>2013-06-14T10:47:41Z</time>
      </trkpt>
      <trkpt lat="45.42903" lon="5.75837">
        <ele>403</ele>
        <time>2013-06-14T10:47:59Z</time>
      </trkpt>
      <trkpt lat="45.42903" lon="5.75849">
        <ele>402</ele>
        <time>2013-06-14T10:48:20Z</time>
      </trkpt>
      <trkpt lat="45.42902" lon="5.75857">
        <ele>403</ele>
        <time>2013-06-14T10:48:25Z</time>
      </trkpt>
      <trkpt lat="45.42898" lon="5.75884">
        <ele>403</ele>
        <time>2013-06-14T10:48:38Z</time>
      </trkpt>
      <trkpt lat="45.42896" lon="5.75911">
        <ele>402</ele>
        <time>2013-06-14T10:48:51Z</time>
      </trkpt>
      <trkpt lat="45.42894" lon="5.75917">
        <ele>402</ele>
        <time>2013-06-14T10:48:54Z</time>
      </trkpt>
      <trkpt lat="45.42891" lon="5.75937">
        <ele>403</ele>
        <time>2013-06-14T10:49:02Z</time>
      </trkpt>
      <trkpt lat="45.42885" lon="5.75976">
        <ele>402</ele>
        <time>2013-06-14T10:49:21Z</time>
      </trkpt>
      <trkpt lat="45.42888" lon="5.75985">
        <ele>402</ele>
        <time>2013-06-14T10:49:29Z</time>
      </trkpt>
      <trkpt lat="45.42886" lon="5.75997">
        <ele>402</ele>
        <time>2013-06-14T10:49:34Z</time>
      </trkpt>
      <trkpt lat="45.42878" lon="5.76049">
        <ele>402</ele>
        <time>2013-06-14T10:49:57Z</time>
      </trkpt>
      <trkpt lat="45.42879" lon="5.76049">
        <ele>402</ele>
        <time>2013-06-14T10:50:18Z</time>
      </trkpt>
      <trkpt lat="45.4288" lon="5.7605">
        <ele>402</ele>
        <time>2013-06-14T10:50:35Z</time>
      </trkpt>
      <trkpt lat="45.42873" lon="5.7609">
        <ele>401</ele>
        <time>2013-06-14T10:50:54Z</time>
      </trkpt>
      <trkpt lat="45.42868" lon="5.76128">
        <ele>401</ele>
        <time>2013-06-14T10:51:12Z</time>
      </trkpt>
      <trkpt lat="45.42866" lon="5.76137">
        <ele>401</ele>
        <time>2013-06-14T10:51:17Z</time>
      </trkpt>
      <trkpt lat="45.42867" lon="5.76144">
        <ele>401</ele>
        <time>2013-06-14T10:51:21Z</time>
      </trkpt>
      <trkpt lat="45.42859" lon="5.76178">
        <ele>401</ele>
        <time>2013-06-14T10:51:37Z</time>
      </trkpt>
      <trkpt lat="45.42858" lon="5.76185">
        <ele>401</ele>
        <time>2013-06-14T10:51:47Z</time>
      </trkpt>
      <trkpt lat="45.42857" lon="5.76182">
        <ele>401</ele>
        <time>2013-06-14T10:52:15Z</time>
      </trkpt>
      <trkpt lat="45.42857" lon="5.76182">
        <ele>401</ele>
        <time>2013-06-14T10:52:44Z</time>
      </trkpt>
      <trkpt lat="45.42852" lon="5.76218">
        <ele>402</ele>
        <time>2013-06-14T10:53:10Z</time>
      </trkpt>
      <trkpt lat="45.4285" lon="5.76233">
        <ele>402</ele>
        <time>2013-06-14T10:53:48Z</time>
      </trkpt>
      <trkpt lat="45.42848" lon="5.76231">
        <ele>402</ele>
        <time>2013-06-14T10:54:02Z</time>
      </trkpt>
      <trkpt lat="45.42847" lon="5.76232">
        <ele>402</ele>
        <time>2013-06-14T10:54:03Z</time>
      </trkpt>
      <trkpt lat="45.42875" lon="5.76262">
        <ele>403</ele>
        <time>2013-06-14T10:54:31Z</time>
      </trkpt>
      <trkpt lat="45.42931" lon="5.76304">
        <ele>404</ele>
        <time>2013-06-14T10:55:14Z</time>
      </trkpt>
      <trkpt lat="45.42975" lon="5.76337">
        <ele>404</ele>
        <time>2013-06-14T10:55:47Z</time>
      </trkpt>
      <trkpt lat="45.4299" lon="5.76349">
        <ele>404</ele>
        <time>2013-06-14T10:56:15Z</time>
      </trkpt>
      <trkpt lat="45.43023" lon="5.76373">
        <ele>405</ele>
        <time>2013-06-14T10:56:39Z</time>
      </trkpt>
      <trkpt lat="45.43071" lon="5.76407">
        <ele>406</ele>
        <time>2013-06-14T10:57:15Z</time>
      </trkpt>
      <trkpt lat="45.43106" lon="5.7643">
        <ele>406</ele>
        <time>2013-06-14T10:57:43Z</time>
      </trkpt>
      <trkpt lat="45.4315" lon="5.76454">
        <ele>406</ele>
        <time>2013-06-14T10:58:14Z</time>
      </trkpt>
      <trkpt lat="45.432" lon="5.76482">
        <ele>408</ele>
        <time>2013-06-14T10:58:49Z</time>
      </trkpt>
      <trkpt lat="45.43237" lon="5.76493">
        <ele>407</ele>
        <time>2013-06-14T10:59:15Z</time>
      </trkpt>
      <trkpt lat="45.43239" lon="5.76499">
        <ele>407</ele>
        <time>2013-06-14T10:59:18Z</time>
      </trkpt>
      <trkpt lat="45.43237" lon="5.76512">
        <ele>408</ele>
        <time>2013-06-14T10:59:24Z</time>
      </trkpt>
      <trkpt lat="45.43236" lon="5.76523">
        <ele>408</ele>
        <time>2013-06-14T11:00:02Z</time>
      </trkpt>
      <trkpt lat="45.43232" lon="5.76527">
        <ele>408</ele>
        <time>2013-06-14T11:00:42Z</time>
      </trkpt>
      <trkpt lat="45.43234" lon="5.76533">
        <ele>408</ele>
        <time>2013-06-14T11:01:15Z</time>
      </trkpt>
      <trkpt lat="45.43233" lon="5.76533">
        <ele>409</ele>
        <time>2013-06-14T11:01:39Z</time>
      </trkpt>
      <trkpt lat="45.43226" lon="5.76606">
        <ele>409</ele>
        <time>2013-06-14T11:02:16Z</time>
      </trkpt>
      <trkpt lat="45.43226" lon="5.76612">
        <ele>409</ele>
        <time>2013-06-14T11:02:43Z</time>
      </trkpt>
      <trkpt lat="45.43222" lon="5.76636">
        <ele>409</ele>
        <time>2013-06-14T11:03:04Z</time>
      </trkpt>
      <trkpt lat="45.43219" lon="5.76701">
        <ele>410</ele>
        <time>2013-06-14T11:03:35Z</time>
      </trkpt>
      <trkpt lat="45.4322" lon="5.76703">
        <ele>410</ele>
        <time>2013-06-14T11:03:37Z</time>
      </trkpt>
      <trkpt lat="45.43249" lon="5.76722">
        <ele>410</ele>
        <time>2013-06-14T11:04:02Z</time>
      </trkpt>
      <trkpt lat="45.43277" lon="5.7675">
        <ele>411</ele>
        <time>2013-06-14T11:04:27Z</time>
      </trkpt>
      <trkpt lat="45.4331" lon="5.76783">
        <ele>412</ele>
        <time>2013-06-14T11:04:56Z</time>
      </trkpt>
      <trkpt lat="45.43347" lon="5.76815">
        <ele>412</ele>
        <time>2013-06-14T11:05:24Z</time>
      </trkpt>
      <trkpt lat="45.43351" lon="5.76824">
        <ele>412</ele>
        <time>2013-06-14T11:05:30Z</time>
      </trkpt>
      <trkpt lat="45.43377" lon="5.76863">
        <ele>412</ele>
        <time>2013-06-14T11:05:56Z</time>
      </trkpt>
      <trkpt lat="45.43399" lon="5.76898">
        <ele>412</ele>
        <time>2013-06-14T11:06:18Z</time>
      </trkpt>
      <trkpt lat="45.43412" lon="5.76917">
        <ele>413</ele>
        <time>2013-06-14T11:06:33Z</time>
      </trkpt>
      <trkpt lat="45.43413" lon="5.76921">
        <ele>413</ele>
        <time>2013-06-14T11:06:36Z</time>
      </trkpt>
      <trkpt lat="45.43441" lon="5.76953">
        <ele>413</ele>
        <time>2013-06-14T11:06:59Z</time>
      </trkpt>
      <trkpt lat="45.43482" lon="5.77015">
        <ele>414</ele>
        <time>2013-06-14T11:07:41Z</time>
      </trkpt>
      <trkpt lat="45.43514" lon="5.77055">
        <ele>414</ele>
        <time>2013-06-14T11:08:11Z</time>
      </trkpt>
      <trkpt lat="45.43557" lon="5.77102">
        <ele>415</ele>
        <time>2013-06-14T11:08:48Z</time>
      </trkpt>
      <trkpt lat="45.43595" lon="5.77152">
        <ele>415</ele>
        <time>2013-06-14T11:09:23Z</time>
      </trkpt>
      <trkpt lat="45.43617" lon="5.77189">
        <ele>416</ele>
        <time>2013-06-14T11:09:46Z</time>
      </trkpt>
      <trkpt lat="45.43618" lon="5.77194">
        <ele>416</ele>
        <time>2013-06-14T11:09:49Z</time>
      </trkpt>
      <trkpt lat="45.43648" lon="5.77242">
        <ele>416</ele>
        <time>2013-06-14T11:10:19Z</time>
      </trkpt>
      <trkpt lat="45.4366" lon="5.7726">
        <ele>417</ele>
        <time>2013-06-14T11:10:32Z</time>
      </trkpt>
      <trkpt lat="45.4367" lon="5.77269">
        <ele>416</ele>
        <time>2013-06-14T11:10:39Z</time>
      </trkpt>
      <trkpt lat="45.43675" lon="5.77271">
        <ele>416</ele>
        <time>2013-06-14T11:10:43Z</time>
      </trkpt>
      <trkpt lat="45.43696" lon="5.77282">
        <ele>416</ele>
        <time>2013-06-14T11:10:58Z</time>
      </trkpt>
      <trkpt lat="45.43697" lon="5.77281">
        <ele>416</ele>
        <time>2013-06-14T11:10:59Z</time>
      </trkpt>
      <trkpt lat="45.43714" lon="5.77279">
        <ele>416</ele>
        <time>2013-06-14T11:11:10Z</time>
      </trkpt>
      <trkpt lat="45.43718" lon="5.77281">
        <ele>416</ele>
        <time>2013-06-14T11:11:13Z</time>
      </trkpt>
      <trkpt lat="45.43745" lon="5.77279">
        <ele>416</ele>
        <time>2013-06-14T11:11:27Z</time>
      </trkpt>
      <trkpt lat="45.43767" lon="5.77278">
        <ele>415</ele>
        <time>2013-06-14T11:11:44Z</time>
      </trkpt>
      <trkpt lat="45.43787" lon="5.77276">
        <ele>415</ele>
        <time>2013-06-14T11:11:59Z</time>
      </trkpt>
      <trkpt lat="45.43792" lon="5.77275">
        <ele>415</ele>
        <time>2013-06-14T11:12:03Z</time>
      </trkpt>
      <trkpt lat="45.43796" lon="5.77278">
        <ele>416</ele>
        <time>2013-06-14T11:12:05Z</time>
      </trkpt>
      <trkpt lat="45.43817" lon="5.77282">
        <ele>416</ele>
        <time>2013-06-14T11:12:20Z</time>
      </trkpt>
      <trkpt lat="45.43821" lon="5.77285">
        <ele>416</ele>
        <time>2013-06-14T11:12:24Z</time>
      </trkpt>
      <trkpt lat="45.43837" lon="5.77292">
        <ele>416</ele>
        <time>2013-06-14T11:12:40Z</time>
      </trkpt>
      <trkpt lat="45.43859" lon="5.77302">
        <ele>416</ele>
        <time>2013-06-14T11:12:58Z</time>
      </trkpt>
      <trkpt lat="45.43882" lon="5.77326">
        <ele>415</ele>
        <time>2013-06-14T11:13:17Z</time>
      </trkpt>
      <trkpt lat="45.43881" lon="5.7735">
        <ele>415</ele>
        <time>2013-06-14T11:13:28Z</time>
      </trkpt>
      <trkpt lat="45.43881" lon="5.77361">
        <ele>416</ele>
        <time>2013-06-14T11:13:43Z</time>
      </trkpt>
      <trkpt lat="45.43879" lon="5.77364">
        <ele>416</ele>
        <time>2013-06-14T11:13:46Z</time>
      </trkpt>
      <trkpt lat="45.43879" lon="5.77369">
        <ele>416</ele>
        <time>2013-06-14T11:13:49Z</time>
      </trkpt>
      <trkpt lat="45.43883" lon="5.7738">
        <ele>416</ele>
        <time>2013-06-14T11:13:56Z</time>
      </trkpt>
      <trkpt lat="45.43885" lon="5.77383">
        <ele>416</ele>
        <time>2013-06-14T11:13:58Z</time>
      </trkpt>
      <trkpt lat="45.43885" lon="5.77387">
        <ele>416</ele>
        <time>2013-06-14T11:14:02Z</time>
      </trkpt>
      <trkpt lat="45.43886" lon="5.77391">
        <ele>416</ele>
        <time>2013-06-14T11:14:04Z</time>
      </trkpt>
      <trkpt lat="45.43891" lon="5.77407">
        <ele>416</ele>
        <time>2013-06-14T11:14:12Z</time>
      </trkpt>
      <trkpt lat="45.43901" lon="5.77444">
        <ele>416</ele>
        <time>2013-06-14T11:14:32Z</time>
      </trkpt>
      <trkpt lat="45.43907" lon="5.77467">
        <ele>416</ele>
        <time>2013-06-14T11:14:43Z</time>
      </trkpt>
      <trkpt lat="45.43908" lon="5.77481">
        <ele>415</ele>
        <time>2013-06-14T11:14:52Z</time>
      </trkpt>
      <trkpt lat="45.4391" lon="5.77484">
        <ele>415</ele>
        <time>2013-06-14T11:14:54Z</time>
      </trkpt>
      <trkpt lat="45.43916" lon="5.77491">
        <ele>415</ele>
        <time>2013-06-14T11:14:58Z</time>
      </trkpt>
      <trkpt lat="45.43922" lon="5.77504">
        <ele>415</ele>
        <time>2013-06-14T11:15:04Z</time>
      </trkpt>
      <trkpt lat="45.43935" lon="5.77527">
        <ele>415</ele>
        <time>2013-06-14T11:15:16Z</time>
      </trkpt>
      <trkpt lat="45.43935" lon="5.77532">
        <ele>415</ele>
        <time>2013-06-14T11:15:18Z</time>
      </trkpt>
      <trkpt lat="45.43936" lon="5.77539">
        <ele>415</ele>
        <time>2013-06-14T11:15:22Z</time>
      </trkpt>
      <trkpt lat="45.43937" lon="5.77542">
        <ele>416</ele>
        <time>2013-06-14T11:15:24Z</time>
      </trkpt>
      <trkpt lat="45.43945" lon="5.77557">
        <ele>416</ele>
        <time>2013-06-14T11:15:32Z</time>
      </trkpt>
      <trkpt lat="45.43955" lon="5.77582">
        <ele>417</ele>
        <time>2013-06-14T11:15:47Z</time>
      </trkpt>
      <trkpt lat="45.43956" lon="5.77589">
        <ele>418</ele>
        <time>2013-06-14T11:15:52Z</time>
      </trkpt>
      <trkpt lat="45.43956" lon="5.77595">
        <ele>419</ele>
        <time>2013-06-14T11:15:56Z</time>
      </trkpt>
      <trkpt lat="45.43958" lon="5.77602">
        <ele>419</ele>
        <time>2013-06-14T11:16:01Z</time>
      </trkpt>
      <trkpt lat="45.43959" lon="5.77606">
        <ele>419</ele>
        <time>2013-06-14T11:16:04Z</time>
      </trkpt>
      <trkpt lat="45.4397" lon="5.77625">
        <ele>419</ele>
        <time>2013-06-14T11:16:17Z</time>
      </trkpt>
      <trkpt lat="45.43985" lon="5.77648">
        <ele>419</ele>
        <time>2013-06-14T11:16:33Z</time>
      </trkpt>
      <trkpt lat="45.43986" lon="5.77651">
        <ele>419</ele>
        <time>2013-06-14T11:16:37Z</time>
      </trkpt>
      <trkpt lat="45.44004" lon="5.77681">
        <ele>419</ele>
        <time>2013-06-14T11:16:54Z</time>
      </trkpt>
      <trkpt lat="45.44009" lon="5.77694">
        <ele>419</ele>
        <time>2013-06-14T11:17:01Z</time>
      </trkpt>
      <trkpt lat="45.44014" lon="5.77695">
        <ele>419</ele>
        <time>2013-06-14T11:17:04Z</time>
      </trkpt>
      <trkpt lat="45.44022" lon="5.77709">
        <ele>419</ele>
        <time>2013-06-14T11:17:12Z</time>
      </trkpt>
      <trkpt lat="45.44036" lon="5.77755">
        <ele>420</ele>
        <time>2013-06-14T11:17:36Z</time>
      </trkpt>
      <trkpt lat="45.44049" lon="5.77798">
        <ele>420</ele>
        <time>2013-06-14T11:17:59Z</time>
      </trkpt>
      <trkpt lat="45.44051" lon="5.77803">
        <ele>420</ele>
        <time>2013-06-14T11:18:03Z</time>
      </trkpt>
      <trkpt lat="45.44055" lon="5.77817">
        <ele>420</ele>
        <time>2013-06-14T11:18:10Z</time>
      </trkpt>
      <trkpt lat="45.44056" lon="5.77819">
        <ele>421</ele>
        <time>2013-06-14T11:18:12Z</time>
      </trkpt>
      <trkpt lat="45.44059" lon="5.77824">
        <ele>421</ele>
        <time>2013-06-14T11:18:16Z</time>
      </trkpt>
      <trkpt lat="45.44065" lon="5.77846">
        <ele>421</ele>
        <time>2013-06-14T11:18:27Z</time>
      </trkpt>
      <trkpt lat="45.44069" lon="5.77859">
        <ele>421</ele>
        <time>2013-06-14T11:18:33Z</time>
      </trkpt>
      <trkpt lat="45.44072" lon="5.77866">
        <ele>421</ele>
        <time>2013-06-14T11:18:37Z</time>
      </trkpt>
      <trkpt lat="45.44073" lon="5.77868">
        <ele>421</ele>
        <time>2013-06-14T11:18:39Z</time>
      </trkpt>
      <trkpt lat="45.44077" lon="5.77886">
        <ele>422</ele>
        <time>2013-06-14T11:18:51Z</time>
      </trkpt>
      <trkpt lat="45.4408" lon="5.77892">
        <ele>421</ele>
        <time>2013-06-14T11:18:54Z</time>
      </trkpt>
      <trkpt lat="45.44087" lon="5.77933">
        <ele>423</ele>
        <time>2013-06-14T11:19:14Z</time>
      </trkpt>
      <trkpt lat="45.44093" lon="5.77945">
        <ele>422</ele>
        <time>2013-06-14T11:19:23Z</time>
      </trkpt>
      <trkpt lat="45.44096" lon="5.7795">
        <ele>422</ele>
        <time>2013-06-14T11:19:26Z</time>
      </trkpt>
      <trkpt lat="45.44097" lon="5.7796">
        <ele>423</ele>
        <time>2013-06-14T11:19:31Z</time>
      </trkpt>
      <trkpt lat="45.44107" lon="5.77989">
        <ele>423</ele>
        <time>2013-06-14T11:19:46Z</time>
      </trkpt>
      <trkpt lat="45.44108" lon="5.77998">
        <ele>422</ele>
        <time>2013-06-14T11:19:52Z</time>
      </trkpt>
      <trkpt lat="45.44111" lon="5.78018">
        <ele>423</ele>
        <time>2013-06-14T11:20:00Z</time>
      </trkpt>
      <trkpt lat="45.44117" lon="5.78038">
        <ele>423</ele>
        <time>2013-06-14T11:20:11Z</time>
      </trkpt>
      <trkpt lat="45.4412" lon="5.7805">
        <ele>423</ele>
        <time>2013-06-14T11:20:18Z</time>
      </trkpt>
      <trkpt lat="45.44123" lon="5.78065">
        <ele>424</ele>
        <time>2013-06-14T11:20:24Z</time>
      </trkpt>
      <trkpt lat="45.44123" lon="5.78068">
        <ele>423</ele>
        <time>2013-06-14T11:20:26Z</time>
      </trkpt>
      <trkpt lat="45.44126" lon="5.78074">
        <ele>424</ele>
        <time>2013-06-14T11:20:30Z</time>
      </trkpt>
      <trkpt lat="45.44129" lon="5.7808">
        <ele>423</ele>
        <time>2013-06-14T11:20:34Z</time>
      </trkpt>
      <trkpt lat="45.4413" lon="5.78086">
        <ele>424</ele>
        <time>2013-06-14T11:20:37Z</time>
      </trkpt>
      <trkpt lat="45.44134" lon="5.781">
        <ele>424</ele>
        <time>2013-06-14T11:20:43Z</time>
      </trkpt>
      <trkpt lat="45.44136" lon="5.78128">
        <ele>424</ele>
        <time>2013-06-14T11:20:59Z</time>
      </trkpt>
      <trkpt lat="45.44138" lon="5.78138">
        <ele>424</ele>
        <time>2013-06-14T11:21:03Z</time>
      </trkpt>
      <trkpt lat="45.4414" lon="5.78141">
        <ele>424</ele>
        <time>2013-06-14T11:21:05Z</time>
      </trkpt>
      <trkpt lat="45.44142" lon="5.78144">
        <ele>424</ele>
        <time>2013-06-14T11:21:07Z</time>
      </trkpt>
      <trkpt lat="45.44143" lon="5.78149">
        <ele>425</ele>
        <time>2013-06-14T11:21:10Z</time>
      </trkpt>
      <trkpt lat="45.44146" lon="5.78165">
        <ele>425</ele>
        <time>2013-06-14T11:21:21Z</time>
      </trkpt>
      <trkpt lat="45.4415" lon="5.78175">
        <ele>425</ele>
        <time>2013-06-14T11:21:27Z</time>
      </trkpt>
      <trkpt lat="45.44157" lon="5.78175">
        <ele>424</ele>
        <time>2013-06-14T11:21:47Z</time>
      </trkpt>
      <trkpt lat="45.4416" lon="5.78177">
        <ele>424</ele>
        <time>2013-06-14T11:22:23Z</time>
      </trkpt>
      <trkpt lat="45.44164" lon="5.78192">
        <ele>424</ele>
        <time>2013-06-14T11:22:34Z</time>
      </trkpt>
      <trkpt lat="45.44177" lon="5.78224">
        <ele>423</ele>
        <time>2013-06-14T11:22:54Z</time>
      </trkpt>
      <trkpt lat="45.44184" lon="5.78238">
        <ele>423</ele>
        <time>2013-06-14T11:23:03Z</time>
      </trkpt>
      <trkpt lat="45.44186" lon="5.78243">
        <ele>423</ele>
        <time>2013-06-14T11:23:09Z</time>
      </trkpt>
      <trkpt lat="45.44185" lon="5.78243">
        <ele>423</ele>
        <time>2013-06-14T11:23:12Z</time>
      </trkpt>
      <trkpt lat="45.44197" lon="5.78249">
        <ele>423</ele>
        <time>2013-06-14T11:23:30Z</time>
      </trkpt>
      <trkpt lat="45.44201" lon="5.78247">
        <ele>423</ele>
        <time>2013-06-14T11:23:37Z</time>
      </trkpt>
      <trkpt lat="45.44225" lon="5.78262">
        <ele>424</ele>
        <time>2013-06-14T11:24:01Z</time>
      </trkpt>
      <trkpt lat="45.44264" lon="5.78275">
        <ele>425</ele>
        <time>2013-06-14T11:24:22Z</time>
      </trkpt>
      <trkpt lat="45.44294" lon="5.7826">
        <ele>426</ele>
        <time>2013-06-14T11:24:42Z</time>
      </trkpt>
      <trkpt lat="45.44299" lon="5.78258">
        <ele>426</ele>
        <time>2013-06-14T11:24:46Z</time>
      </trkpt>
      <trkpt lat="45.44308" lon="5.78246">
        <ele>426</ele>
        <time>2013-06-14T11:24:59Z</time>
      </trkpt>
      <trkpt lat="45.44323" lon="5.78257">
        <ele>426</ele>
        <time>2013-06-14T11:25:02Z</time>
      </trkpt>
      <trkpt lat="45.44346" lon="5.78246">
        <ele>426</ele>
        <time>2013-06-14T11:25:23Z</time>
      </trkpt>
      <trkpt lat="45.44352" lon="5.78241">
        <ele>426</ele>
        <time>2013-06-14T11:25:29Z</time>
      </trkpt>
      <trkpt lat="45.4436" lon="5.78242">
        <ele>426</ele>
        <time>2013-06-14T11:25:36Z</time>
      </trkpt>
      <trkpt lat="45.44387" lon="5.78255">
        <ele>426</ele>
        <time>2013-06-14T11:25:57Z</time>
      </trkpt>
      <trkpt lat="45.44415" lon="5.78265">
        <ele>426</ele>
        <time>2013-06-14T11:26:10Z</time>
      </trkpt>
      <trkpt lat="45.44423" lon="5.78258">
        <ele>426</ele>
        <time>2013-06-14T11:26:14Z</time>
      </trkpt>
      <trkpt lat="45.44434" lon="5.78263">
        <ele>426</ele>
        <time>2013-06-14T11:26:22Z</time>
      </trkpt>
      <trkpt lat="45.44465" lon="5.78288">
        <ele>428</ele>
        <time>2013-06-14T11:26:49Z</time>
      </trkpt>
      <trkpt lat="45.44486" lon="5.78301">
        <ele>428</ele>
        <time>2013-06-14T11:27:02Z</time>
      </trkpt>
      <trkpt lat="45.44488" lon="5.783">
        <ele>428</ele>
        <time>2013-06-14T11:27:04Z</time>
      </trkpt>
      <trkpt lat="45.44514" lon="5.78314">
        <ele>429</ele>
        <time>2013-06-14T11:27:26Z</time>
      </trkpt>
      <trkpt lat="45.44538" lon="5.78336">
        <ele>430</ele>
        <time>2013-06-14T11:27:42Z</time>
      </trkpt>
      <trkpt lat="45.44555" lon="5.78341">
        <ele>432</ele>
        <time>2013-06-14T11:28:01Z</time>
      </trkpt>
      <trkpt lat="45.44586" lon="5.78365">
        <ele>433</ele>
        <time>2013-06-14T11:28:19Z</time>
      </trkpt>
      <trkpt lat="45.44605" lon="5.78381">
        <ele>435</ele>
        <time>2013-06-14T11:28:37Z</time>
      </trkpt>
      <trkpt lat="45.44617" lon="5.78398">
        <ele>436</ele>
        <time>2013-06-14T11:28:47Z</time>
      </trkpt>
      <trkpt lat="45.4463" lon="5.78414">
        <ele>436</ele>
        <time>2013-06-14T11:28:59Z</time>
      </trkpt>
      <trkpt lat="45.44684" lon="5.78514">
        <ele>433</ele>
        <time>2013-06-14T11:39:09Z</time>
      </trkpt>
      <trkpt lat="45.4469" lon="5.78537">
        <ele>433</ele>
        <time>2013-06-14T11:39:21Z</time>
      </trkpt>
      <trkpt lat="45.44709" lon="5.78564">
        <ele>434</ele>
        <time>2013-06-14T11:39:40Z</time>
      </trkpt>
      <trkpt lat="45.4472" lon="5.78572">
        <ele>435</ele>
        <time>2013-06-14T11:39:49Z</time>
      </trkpt>
      <trkpt lat="45.44737" lon="5.7858">
        <ele>436</ele>
        <time>2013-06-14T11:40:06Z</time>
      </trkpt>
      <trkpt lat="45.44743" lon="5.78582">
        <ele>437</ele>
        <time>2013-06-14T11:40:11Z</time>
      </trkpt>
      <trkpt lat="45.44777" lon="5.78589">
        <ele>440</ele>
        <time>2013-06-14T11:40:30Z</time>
      </trkpt>
      <trkpt lat="45.44804" lon="5.78606">
        <ele>444</ele>
        <time>2013-06-14T11:40:50Z</time>
      </trkpt>
      <trkpt lat="45.44811" lon="5.78621">
        <ele>445</ele>
        <time>2013-06-14T11:40:59Z</time>
      </trkpt>
      <trkpt lat="45.4482" lon="5.78625">
        <ele>446</ele>
        <time>2013-06-14T11:41:05Z</time>
      </trkpt>
      <trkpt lat="45.44836" lon="5.78637">
        <ele>448</ele>
        <time>2013-06-14T11:41:34Z</time>
      </trkpt>
      <trkpt lat="45.4483" lon="5.78645">
        <ele>448</ele>
        <time>2013-06-14T11:42:35Z</time>
      </trkpt>
      <trkpt lat="45.44841" lon="5.78644">
        <ele>449</ele>
        <time>2013-06-14T11:43:12Z</time>
      </trkpt>
      <trkpt lat="45.44866" lon="5.78655">
        <ele>449</ele>
        <time>2013-06-14T11:43:55Z</time>
      </trkpt>
      <trkpt lat="45.44875" lon="5.78676">
        <ele>452</ele>
        <time>2013-06-14T11:44:13Z</time>
      </trkpt>
      <trkpt lat="45.44875" lon="5.78683">
        <ele>452</ele>
        <time>2013-06-14T11:44:14Z</time>
      </trkpt>
      <trkpt lat="45.44876" lon="5.78693">
        <ele>454</ele>
        <time>2013-06-14T11:44:17Z</time>
      </trkpt>
      <trkpt lat="45.44895" lon="5.78698">
        <ele>457</ele>
        <time>2013-06-14T11:44:46Z</time>
      </trkpt>
      <trkpt lat="45.44904" lon="5.78729">
        <ele>460</ele>
        <time>2013-06-14T11:45:07Z</time>
      </trkpt>
      <trkpt lat="45.4495" lon="5.78844">
        <ele>500</ele>
        <time>2013-06-14T11:52:29Z</time>
      </trkpt>
      <trkpt lat="45.44981" lon="5.78912">
        <ele>502</ele>
        <time>2013-06-14T11:53:04Z</time>
      </trkpt>
      <trkpt lat="45.44991" lon="5.7893">
        <ele>506</ele>
        <time>2013-06-14T11:53:23Z</time>
      </trkpt>
      <trkpt lat="45.45022" lon="5.78965">
        <ele>507</ele>
        <time>2013-06-14T11:53:48Z</time>
      </trkpt>
      <trkpt lat="45.45036" lon="5.79009">
        <ele>511</ele>
        <time>2013-06-14T11:54:16Z</time>
      </trkpt>
      <trkpt lat="45.45046" lon="5.79041">
        <ele>513</ele>
        <time>2013-06-14T11:54:38Z</time>
      </trkpt>
      <trkpt lat="45.45064" lon="5.79082">
        <ele>516</ele>
        <time>2013-06-14T11:54:59Z</time>
      </trkpt>
      <trkpt lat="45.45054" lon="5.79089">
        <ele>520</ele>
        <time>2013-06-14T11:55:28Z</time>
      </trkpt>
      <trkpt lat="45.45066" lon="5.79097">
        <ele>521</ele>
        <time>2013-06-14T11:55:43Z</time>
      </trkpt>
      <trkpt lat="45.451" lon="5.79092">
        <ele>524</ele>
        <time>2013-06-14T11:56:14Z</time>
      </trkpt>
      <trkpt lat="45.45171" lon="5.79123">
        <ele>526</ele>
        <time>2013-06-14T11:56:47Z</time>
      </trkpt>
      <trkpt lat="45.45204" lon="5.79129">
        <ele>529</ele>
        <time>2013-06-14T11:57:16Z</time>
      </trkpt>
      <trkpt lat="45.45223" lon="5.79128">
        <ele>530</ele>
        <time>2013-06-14T11:57:57Z</time>
      </trkpt>
      <trkpt lat="45.45244" lon="5.79112">
        <ele>532</ele>
        <time>2013-06-14T11:58:25Z</time>
      </trkpt>
      <trkpt lat="45.4528" lon="5.7912">
        <ele>535</ele>
        <time>2013-06-14T11:58:54Z</time>
      </trkpt>
      <trkpt lat="45.45287" lon="5.79124">
        <ele>536</ele>
        <time>2013-06-14T11:59:02Z</time>
      </trkpt>
      <trkpt lat="45.45291" lon="5.79125">
        <ele>537</ele>
        <time>2013-06-14T11:59:06Z</time>
      </trkpt>
      <trkpt lat="45.4532" lon="5.7916">
        <ele>539</ele>
        <time>2013-06-14T11:59:26Z</time>
      </trkpt>
      <trkpt lat="45.45347" lon="5.79226">
        <ele>539</ele>
        <time>2013-06-14T11:59:36Z</time>
      </trkpt>
      <trkpt lat="45.45344" lon="5.79269">
        <ele>541</ele>
        <time>2013-06-14T11:59:56Z</time>
      </trkpt>
      <trkpt lat="45.45343" lon="5.79275">
        <ele>541</ele>
        <time>2013-06-14T12:00:00Z</time>
      </trkpt>
      <trkpt lat="45.45342" lon="5.79277">
        <ele>542</ele>
        <time>2013-06-14T12:00:02Z</time>
      </trkpt>
      <trkpt lat="45.45343" lon="5.79292">
        <ele>542</ele>
        <time>2013-06-14T12:00:10Z</time>
      </trkpt>
      <trkpt lat="45.45358" lon="5.79338">
        <ele>544</ele>
        <time>2013-06-14T12:00:32Z</time>
      </trkpt>
      <trkpt lat="45.45365" lon="5.79351">
        <ele>544</ele>
        <time>2013-06-14T12:00:36Z</time>
      </trkpt>
      <trkpt lat="45.45373" lon="5.79383">
        <ele>546</ele>
        <time>2013-06-14T12:00:58Z</time>
      </trkpt>
      <trkpt lat="45.45372" lon="5.79392">
        <ele>546</ele>
        <time>2013-06-14T12:01:02Z</time>
      </trkpt>
      <trkpt lat="45.45372" lon="5.79396">
        <ele>546</ele>
        <time>2013-06-14T12:01:04Z</time>
      </trkpt>
      <trkpt lat="45.45388" lon="5.79427">
        <ele>547</ele>
        <time>2013-06-14T12:01:24Z</time>
      </trkpt>
      <trkpt lat="45.45395" lon="5.79448">
        <ele>548</ele>
        <time>2013-06-14T12:01:35Z</time>
      </trkpt>
      <trkpt lat="45.454" lon="5.7946">
        <ele>548</ele>
        <time>2013-06-14T12:01:42Z</time>
      </trkpt>
      <trkpt lat="45.45424" lon="5.79521">
        <ele>550</ele>
        <time>2013-06-14T12:02:07Z</time>
      </trkpt>
      <trkpt lat="45.45426" lon="5.79534">
        <ele>550</ele>
        <time>2013-06-14T12:02:14Z</time>
      </trkpt>
      <trkpt lat="45.45428" lon="5.7954">
        <ele>550</ele>
        <time>2013-06-14T12:02:17Z</time>
      </trkpt>
      <trkpt lat="45.45429" lon="5.79602">
        <ele>551</ele>
        <time>2013-06-14T12:02:51Z</time>
      </trkpt>
      <trkpt lat="45.45417" lon="5.79656">
        <ele>553</ele>
        <time>2013-06-14T12:03:19Z</time>
      </trkpt>
      <trkpt lat="45.45414" lon="5.79664">
        <ele>553</ele>
        <time>2013-06-14T12:03:23Z</time>
      </trkpt>
      <trkpt lat="45.45412" lon="5.79673">
        <ele>553</ele>
        <time>2013-06-14T12:03:28Z</time>
      </trkpt>
      <trkpt lat="45.45412" lon="5.79681">
        <ele>553</ele>
        <time>2013-06-14T12:03:32Z</time>
      </trkpt>
      <trkpt lat="45.45391" lon="5.7972">
        <ele>554</ele>
        <time>2013-06-14T12:03:55Z</time>
      </trkpt>
      <trkpt lat="45.45375" lon="5.79743">
        <ele>555</ele>
        <time>2013-06-14T12:04:11Z</time>
      </trkpt>
      <trkpt lat="45.4537" lon="5.79747">
        <ele>555</ele>
        <time>2013-06-14T12:04:15Z</time>
      </trkpt>
      <trkpt lat="45.45335" lon="5.79805">
        <ele>557</ele>
        <time>2013-06-14T12:04:51Z</time>
      </trkpt>
      <trkpt lat="45.45308" lon="5.79861">
        <ele>560</ele>
        <time>2013-06-14T12:05:26Z</time>
      </trkpt>
      <trkpt lat="45.45291" lon="5.79935">
        <ele>561</ele>
        <time>2013-06-14T12:06:06Z</time>
      </trkpt>
      <trkpt lat="45.4529" lon="5.79965">
        <ele>562</ele>
        <time>2013-06-14T12:06:21Z</time>
      </trkpt>
      <trkpt lat="45.45289" lon="5.79991">
        <ele>562</ele>
        <time>2013-06-14T12:06:33Z</time>
      </trkpt>
      <trkpt lat="45.45303" lon="5.80063">
        <ele>563</ele>
        <time>2013-06-14T12:07:10Z</time>
      </trkpt>
      <trkpt lat="45.45318" lon="5.80109">
        <ele>564</ele>
        <time>2013-06-14T12:07:36Z</time>
      </trkpt>
      <trkpt lat="45.45351" lon="5.80159">
        <ele>566</ele>
        <time>2013-06-14T12:08:09Z</time>
      </trkpt>
      <trkpt lat="45.45358" lon="5.80166">
        <ele>566</ele>
        <time>2013-06-14T12:08:16Z</time>
      </trkpt>
      <trkpt lat="45.45398" lon="5.8021">
        <ele>568</ele>
        <time>2013-06-14T12:08:50Z</time>
      </trkpt>
      <trkpt lat="45.45398" lon="5.80211">
        <ele>567</ele>
        <time>2013-06-14T12:08:51Z</time>
      </trkpt>
      <trkpt lat="45.45405" lon="5.8023">
        <ele>566</ele>
        <time>2013-06-14T12:09:15Z</time>
      </trkpt>
      <trkpt lat="45.45406" lon="5.80245">
        <ele>566</ele>
        <time>2013-06-14T12:09:54Z</time>
      </trkpt>
      <trkpt lat="45.45418" lon="5.80285">
        <ele>570</ele>
        <time>2013-06-14T12:10:24Z</time>
      </trkpt>
      <trkpt lat="45.45436" lon="5.80314">
        <ele>572</ele>
        <time>2013-06-14T12:10:36Z</time>
      </trkpt>
      <trkpt lat="45.45448" lon="5.80329">
        <ele>573</ele>
        <time>2013-06-14T12:10:42Z</time>
      </trkpt>
      <trkpt lat="45.45469" lon="5.8035">
        <ele>575</ele>
        <time>2013-06-14T12:11:13Z</time>
      </trkpt>
      <trkpt lat="45.45456" lon="5.80356">
        <ele>575</ele>
        <time>2013-06-14T12:12:11Z</time>
      </trkpt>
      <trkpt lat="45.45456" lon="5.80352">
        <ele>576</ele>
        <time>2013-06-14T12:13:05Z</time>
      </trkpt>
      <trkpt lat="45.45454" lon="5.80347">
        <ele>576</ele>
        <time>2013-06-14T12:14:12Z</time>
      </trkpt>
      <trkpt lat="45.45454" lon="5.80347">
        <ele>576</ele>
        <time>2013-06-14T12:14:13Z</time>
      </trkpt>
      <trkpt lat="45.45454" lon="5.80347">
        <ele>588</ele>
        <time>2013-06-14T12:54:04Z</time>
      </trkpt>
      <trkpt lat="45.45454" lon="5.80347">
        <ele>575</ele>
        <time>2013-06-14T12:54:05Z</time>
      </trkpt>
      <trkpt lat="45.45456" lon="5.80369">
        <ele>575</ele>
        <time>2013-06-14T12:54:12Z</time>
      </trkpt>
      <trkpt lat="45.4547" lon="5.80361">
        <ele>576</ele>
        <time>2013-06-14T12:54:42Z</time>
      </trkpt>
      <trkpt lat="45.45481" lon="5.8037">
        <ele>580</ele>
        <time>2013-06-14T12:54:55Z</time>
      </trkpt>
      <trkpt lat="45.45485" lon="5.80374">
        <ele>580</ele>
        <time>2013-06-14T12:54:58Z</time>
      </trkpt>
      <trkpt lat="45.45499" lon="5.8038">
        <ele>584</ele>
        <time>2013-06-14T12:55:11Z</time>
      </trkpt>
      <trkpt lat="45.45507" lon="5.80385">
        <ele>586</ele>
        <time>2013-06-14T12:55:21Z</time>
      </trkpt>
      <trkpt lat="45.45521" lon="5.804">
        <ele>588</ele>
        <time>2013-06-14T12:55:36Z</time>
      </trkpt>
      <trkpt lat="45.4553" lon="5.80409">
        <ele>588</ele>
        <time>2013-06-14T12:55:44Z</time>
      </trkpt>
      <trkpt lat="45.45534" lon="5.80417">
        <ele>588</ele>
        <time>2013-06-14T12:55:48Z</time>
      </trkpt>
      <trkpt lat="45.45538" lon="5.80419">
        <ele>588</ele>
        <time>2013-06-14T12:55:51Z</time>
      </trkpt>
      <trkpt lat="45.45561" lon="5.80438">
        <ele>589</ele>
        <time>2013-06-14T12:56:10Z</time>
      </trkpt>
      <trkpt lat="45.45562" lon="5.8044">
        <ele>589</ele>
        <time>2013-06-14T12:56:12Z</time>
      </trkpt>
      <trkpt lat="45.45586" lon="5.80466">
        <ele>591</ele>
        <time>2013-06-14T12:56:37Z</time>
      </trkpt>
      <trkpt lat="45.45606" lon="5.80485">
        <ele>594</ele>
        <time>2013-06-14T12:56:53Z</time>
      </trkpt>
      <trkpt lat="45.45616" lon="5.80496">
        <ele>596</ele>
        <time>2013-06-14T12:57:05Z</time>
      </trkpt>
      <trkpt lat="45.45635" lon="5.80511">
        <ele>600</ele>
        <time>2013-06-14T12:57:20Z</time>
      </trkpt>
      <trkpt lat="45.45652" lon="5.80524">
        <ele>603</ele>
        <time>2013-06-14T12:57:37Z</time>
      </trkpt>
      <trkpt lat="45.45661" lon="5.80535">
        <ele>604</ele>
        <time>2013-06-14T12:57:47Z</time>
      </trkpt>
      <trkpt lat="45.45691" lon="5.80567">
        <ele>608</ele>
        <time>2013-06-14T12:58:18Z</time>
      </trkpt>
      <trkpt lat="45.45712" lon="5.80593">
        <ele>611</ele>
        <time>2013-06-14T12:58:39Z</time>
      </trkpt>
      <trkpt lat="45.45718" lon="5.80617">
        <ele>611</ele>
        <time>2013-06-14T12:59:00Z</time>
      </trkpt>
      <trkpt lat="45.45721" lon="5.80644">
        <ele>611</ele>
        <time>2013-06-14T12:59:19Z</time>
      </trkpt>
      <trkpt lat="45.45727" lon="5.80696">
        <ele>609</ele>
        <time>2013-06-14T12:59:47Z</time>
      </trkpt>
      <trkpt lat="45.4573" lon="5.80714">
        <ele>608</ele>
        <time>2013-06-14T12:59:57Z</time>
      </trkpt>
      <trkpt lat="45.45735" lon="5.80729">
        <ele>607</ele>
        <time>2013-06-14T13:00:04Z</time>
      </trkpt>
      <trkpt lat="45.45739" lon="5.80732">
        <ele>606</ele>
        <time>2013-06-14T13:00:07Z</time>
      </trkpt>
      <trkpt lat="45.45743" lon="5.8074">
        <ele>605</ele>
        <time>2013-06-14T13:00:14Z</time>
      </trkpt>
      <trkpt lat="45.45749" lon="5.80748">
        <ele>604</ele>
        <time>2013-06-14T13:00:21Z</time>
      </trkpt>
      <trkpt lat="45.45768" lon="5.80782">
        <ele>604</ele>
        <time>2013-06-14T13:00:40Z</time>
      </trkpt>
      <trkpt lat="45.45787" lon="5.80796">
        <ele>604</ele>
        <time>2013-06-14T13:00:54Z</time>
      </trkpt>
      <trkpt lat="45.45788" lon="5.80798">
        <ele>605</ele>
        <time>2013-06-14T13:00:56Z</time>
      </trkpt>
      <trkpt lat="45.45791" lon="5.80811">
        <ele>605</ele>
        <time>2013-06-14T13:01:03Z</time>
      </trkpt>
      <trkpt lat="45.45816" lon="5.80859">
        <ele>606</ele>
        <time>2013-06-14T13:01:32Z</time>
      </trkpt>
      <trkpt lat="45.45852" lon="5.80864">
        <ele>608</ele>
        <time>2013-06-14T13:01:53Z</time>
      </trkpt>
      <trkpt lat="45.4587" lon="5.80874">
        <ele>607</ele>
        <time>2013-06-14T13:02:07Z</time>
      </trkpt>
      <trkpt lat="45.45888" lon="5.80897">
        <ele>605</ele>
        <time>2013-06-14T13:02:28Z</time>
      </trkpt>
      <trkpt lat="45.45906" lon="5.80913">
        <ele>604</ele>
        <time>2013-06-14T13:02:42Z</time>
      </trkpt>
      <trkpt lat="45.45906" lon="5.80915">
        <ele>604</ele>
        <time>2013-06-14T13:02:43Z</time>
      </trkpt>
      <trkpt lat="45.45914" lon="5.80926">
        <ele>604</ele>
        <time>2013-06-14T13:02:49Z</time>
      </trkpt>
      <trkpt lat="45.45917" lon="5.80929">
        <ele>604</ele>
        <time>2013-06-14T13:02:52Z</time>
      </trkpt>
      <trkpt lat="45.4592" lon="5.80934">
        <ele>604</ele>
        <time>2013-06-14T13:02:55Z</time>
      </trkpt>
      <trkpt lat="45.45922" lon="5.80937">
        <ele>604</ele>
        <time>2013-06-14T13:02:58Z</time>
      </trkpt>
      <trkpt lat="45.45947" lon="5.80963">
        <ele>603</ele>
        <time>2013-06-14T13:03:24Z</time>
      </trkpt>
      <trkpt lat="45.45974" lon="5.80998">
        <ele>601</ele>
        <time>2013-06-14T13:03:47Z</time>
      </trkpt>
      <trkpt lat="45.45978" lon="5.81017">
        <ele>600</ele>
        <time>2013-06-14T13:03:57Z</time>
      </trkpt>
      <trkpt lat="45.45978" lon="5.8102">
        <ele>600</ele>
        <time>2013-06-14T13:03:59Z</time>
      </trkpt>
      <trkpt lat="45.45981" lon="5.81026">
        <ele>599</ele>
        <time>2013-06-14T13:04:03Z</time>
      </trkpt>
      <trkpt lat="45.45984" lon="5.81041">
        <ele>598</ele>
        <time>2013-06-14T13:04:13Z</time>
      </trkpt>
      <trkpt lat="45.45984" lon="5.81059">
        <ele>597</ele>
        <time>2013-06-14T13:04:28Z</time>
      </trkpt>
      <trkpt lat="45.45979" lon="5.81108">
        <ele>596</ele>
        <time>2013-06-14T13:04:50Z</time>
      </trkpt>
      <trkpt lat="45.45974" lon="5.81157">
        <ele>595</ele>
        <time>2013-06-14T13:05:14Z</time>
      </trkpt>
      <trkpt lat="45.45968" lon="5.81221">
        <ele>595</ele>
        <time>2013-06-14T13:05:44Z</time>
      </trkpt>
      <trkpt lat="45.45959" lon="5.81237">
        <ele>596</ele>
        <time>2013-06-14T13:05:55Z</time>
      </trkpt>
      <trkpt lat="45.45948" lon="5.81241">
        <ele>596</ele>
        <time>2013-06-14T13:06:04Z</time>
      </trkpt>
      <trkpt lat="45.45946" lon="5.81243">
        <ele>597</ele>
        <time>2013-06-14T13:06:06Z</time>
      </trkpt>
      <trkpt lat="45.45934" lon="5.8126">
        <ele>598</ele>
        <time>2013-06-14T13:06:21Z</time>
      </trkpt>
      <trkpt lat="45.45895" lon="5.81281">
        <ele>600</ele>
        <time>2013-06-14T13:06:51Z</time>
      </trkpt>
      <trkpt lat="45.45844" lon="5.81294">
        <ele>602</ele>
        <time>2013-06-14T13:07:30Z</time>
      </trkpt>
      <trkpt lat="45.45817" lon="5.81304">
        <ele>605</ele>
        <time>2013-06-14T13:07:50Z</time>
      </trkpt>
      <trkpt lat="45.45803" lon="5.81339">
        <ele>605</ele>
        <time>2013-06-14T13:08:04Z</time>
      </trkpt>
      <trkpt lat="45.45797" lon="5.81342">
        <ele>605</ele>
        <time>2013-06-14T13:08:10Z</time>
      </trkpt>
      <trkpt lat="45.45795" lon="5.81343">
        <ele>605</ele>
        <time>2013-06-14T13:08:12Z</time>
      </trkpt>
      <trkpt lat="45.45766" lon="5.81341">
        <ele>602</ele>
        <time>2013-06-14T13:08:38Z</time>
      </trkpt>
      <trkpt lat="45.45758" lon="5.81342">
        <ele>602</ele>
        <time>2013-06-14T13:08:45Z</time>
      </trkpt>
      <trkpt lat="45.45731" lon="5.8135">
        <ele>602</ele>
        <time>2013-06-14T13:09:07Z</time>
      </trkpt>
      <trkpt lat="45.45703" lon="5.8134">
        <ele>602</ele>
        <time>2013-06-14T13:09:31Z</time>
      </trkpt>
      <trkpt lat="45.45696" lon="5.81335">
        <ele>603</ele>
        <time>2013-06-14T13:09:37Z</time>
      </trkpt>
      <trkpt lat="45.45691" lon="5.81334">
        <ele>603</ele>
        <time>2013-06-14T13:09:41Z</time>
      </trkpt>
      <trkpt lat="45.45688" lon="5.81338">
        <ele>602</ele>
        <time>2013-06-14T13:09:47Z</time>
      </trkpt>
      <trkpt lat="45.45687" lon="5.8136">
        <ele>603</ele>
        <time>2013-06-14T13:10:02Z</time>
      </trkpt>
      <trkpt lat="45.45687" lon="5.81404">
        <ele>605</ele>
        <time>2013-06-14T13:10:29Z</time>
      </trkpt>
      <trkpt lat="45.45686" lon="5.8142">
        <ele>606</ele>
        <time>2013-06-14T13:10:38Z</time>
      </trkpt>
      <trkpt lat="45.45666" lon="5.81456">
        <ele>608</ele>
        <time>2013-06-14T13:10:55Z</time>
      </trkpt>
      <trkpt lat="45.45661" lon="5.81462">
        <ele>608</ele>
        <time>2013-06-14T13:11:01Z</time>
      </trkpt>
      <trkpt lat="45.45652" lon="5.8148">
        <ele>610</ele>
        <time>2013-06-14T13:11:15Z</time>
      </trkpt>
      <trkpt lat="45.45649" lon="5.81513">
        <ele>613</ele>
        <time>2013-06-14T13:11:31Z</time>
      </trkpt>
      <trkpt lat="45.45644" lon="5.81528">
        <ele>617</ele>
        <time>2013-06-14T13:11:41Z</time>
      </trkpt>
      <trkpt lat="45.4564" lon="5.81545">
        <ele>620</ele>
        <time>2013-06-14T13:11:49Z</time>
      </trkpt>
      <trkpt lat="45.4564" lon="5.81551">
        <ele>620</ele>
        <time>2013-06-14T13:12:45Z</time>
      </trkpt>
      <trkpt lat="45.45643" lon="5.81549">
        <ele>621</ele>
        <time>2013-06-14T13:14:14Z</time>
      </trkpt>
      <trkpt lat="45.45645" lon="5.81554">
        <ele>623</ele>
        <time>2013-06-14T13:14:18Z</time>
      </trkpt>
      <trkpt lat="45.45643" lon="5.81559">
        <ele>625</ele>
        <time>2013-06-14T13:14:22Z</time>
      </trkpt>
      <trkpt lat="45.45646" lon="5.81568">
        <ele>627</ele>
        <time>2013-06-14T13:14:32Z</time>
      </trkpt>
      <trkpt lat="45.45649" lon="5.81572">
        <ele>629</ele>
        <time>2013-06-14T13:14:40Z</time>
      </trkpt>
      <trkpt lat="45.45662" lon="5.81586">
        <ele>633</ele>
        <time>2013-06-14T13:14:53Z</time>
      </trkpt>
      <trkpt lat="45.45668" lon="5.81592">
        <ele>635</ele>
        <time>2013-06-14T13:15:14Z</time>
      </trkpt>
      <trkpt lat="45.45668" lon="5.81592">
        <ele>635</ele>
        <time>2013-06-14T13:15:22Z</time>
      </trkpt>
      <trkpt lat="45.45674" lon="5.81599">
        <ele>638</ele>
        <time>2013-06-14T13:15:34Z</time>
      </trkpt>
      <trkpt lat="45.45676" lon="5.81601">
        <ele>638</ele>
        <time>2013-06-14T13:15:37Z</time>
      </trkpt>
      <trkpt lat="45.45682" lon="5.81603">
        <ele>640</ele>
        <time>2013-06-14T13:16:05Z</time>
      </trkpt>
      <trkpt lat="45.4569" lon="5.81607">
        <ele>644</ele>
        <time>2013-06-14T13:16:22Z</time>
      </trkpt>
      <trkpt lat="45.45691" lon="5.81608">
        <ele>644</ele>
        <time>2013-06-14T13:16:23Z</time>
      </trkpt>
      <trkpt lat="45.45697" lon="5.81618">
        <ele>647</ele>
        <time>2013-06-14T13:16:34Z</time>
      </trkpt>
      <trkpt lat="45.45706" lon="5.81624">
        <ele>650</ele>
        <time>2013-06-14T13:16:56Z</time>
      </trkpt>
      <trkpt lat="45.45713" lon="5.81639">
        <ele>653</ele>
        <time>2013-06-14T13:17:23Z</time>
      </trkpt>
      <trkpt lat="45.45717" lon="5.8165">
        <ele>656</ele>
        <time>2013-06-14T13:18:09Z</time>
      </trkpt>
      <trkpt lat="45.45732" lon="5.81657">
        <ele>659</ele>
        <time>2013-06-14T13:18:21Z</time>
      </trkpt>
      <trkpt lat="45.45749" lon="5.8167">
        <ele>662</ele>
        <time>2013-06-14T13:18:34Z</time>
      </trkpt>
      <trkpt lat="45.45757" lon="5.81679">
        <ele>665</ele>
        <time>2013-06-14T13:18:49Z</time>
      </trkpt>
      <trkpt lat="45.45764" lon="5.81695">
        <ele>668</ele>
        <time>2013-06-14T13:18:58Z</time>
      </trkpt>
      <trkpt lat="45.45782" lon="5.8172">
        <ele>672</ele>
        <time>2013-06-14T13:19:17Z</time>
      </trkpt>
      <trkpt lat="45.45782" lon="5.81733">
        <ele>675</ele>
        <time>2013-06-14T13:19:27Z</time>
      </trkpt>
      <trkpt lat="45.45781" lon="5.81738">
        <ele>675</ele>
        <time>2013-06-14T13:19:29Z</time>
      </trkpt>
      <trkpt lat="45.4578" lon="5.81749">
        <ele>678</ele>
        <time>2013-06-14T13:19:36Z</time>
      </trkpt>
      <trkpt lat="45.45789" lon="5.81766">
        <ele>681</ele>
        <time>2013-06-14T13:19:48Z</time>
      </trkpt>
      <trkpt lat="45.45792" lon="5.81772">
        <ele>683</ele>
        <time>2013-06-14T13:19:52Z</time>
      </trkpt>
      <trkpt lat="45.45794" lon="5.81775">
        <ele>683</ele>
        <time>2013-06-14T13:19:54Z</time>
      </trkpt>
      <trkpt lat="45.45802" lon="5.81794">
        <ele>687</ele>
        <time>2013-06-14T13:20:08Z</time>
      </trkpt>
      <trkpt lat="45.45804" lon="5.81798">
        <ele>687</ele>
        <time>2013-06-14T13:20:12Z</time>
      </trkpt>
      <trkpt lat="45.45821" lon="5.81821">
        <ele>691</ele>
        <time>2013-06-14T13:20:29Z</time>
      </trkpt>
      <trkpt lat="45.45827" lon="5.81831">
        <ele>693</ele>
        <time>2013-06-14T13:20:39Z</time>
      </trkpt>
      <trkpt lat="45.45844" lon="5.81858">
        <ele>694</ele>
        <time>2013-06-14T13:21:01Z</time>
      </trkpt>
      <trkpt lat="45.45867" lon="5.81878">
        <ele>697</ele>
        <time>2013-06-14T13:21:20Z</time>
      </trkpt>
      <trkpt lat="45.45888" lon="5.81886">
        <ele>698</ele>
        <time>2013-06-14T13:21:34Z</time>
      </trkpt>
      <trkpt lat="45.45895" lon="5.81886">
        <ele>698</ele>
        <time>2013-06-14T13:21:38Z</time>
      </trkpt>
      <trkpt lat="45.45901" lon="5.81888">
        <ele>699</ele>
        <time>2013-06-14T13:21:43Z</time>
      </trkpt>
      <trkpt lat="45.45903" lon="5.81892">
        <ele>700</ele>
        <time>2013-06-14T13:21:47Z</time>
      </trkpt>
      <trkpt lat="45.45911" lon="5.81914">
        <ele>701</ele>
        <time>2013-06-14T13:22:01Z</time>
      </trkpt>
      <trkpt lat="45.45913" lon="5.81917">
        <ele>701</ele>
        <time>2013-06-14T13:22:03Z</time>
      </trkpt>
      <trkpt lat="45.45924" lon="5.81927">
        <ele>702</ele>
        <time>2013-06-14T13:22:11Z</time>
      </trkpt>
      <trkpt lat="45.4593" lon="5.81933">
        <ele>702</ele>
        <time>2013-06-14T13:22:17Z</time>
      </trkpt>
      <trkpt lat="45.4595" lon="5.81947">
        <ele>704</ele>
        <time>2013-06-14T13:22:33Z</time>
      </trkpt>
      <trkpt lat="45.45978" lon="5.81971">
        <ele>708</ele>
        <time>2013-06-14T13:22:57Z</time>
      </trkpt>
      <trkpt lat="45.46002" lon="5.81994">
        <ele>710</ele>
        <time>2013-06-14T13:23:18Z</time>
      </trkpt>
      <trkpt lat="45.46015" lon="5.82012">
        <ele>712</ele>
        <time>2013-06-14T13:23:33Z</time>
      </trkpt>
      <trkpt lat="45.46022" lon="5.82014">
        <ele>712</ele>
        <time>2013-06-14T13:23:37Z</time>
      </trkpt>
      <trkpt lat="45.46028" lon="5.8202">
        <ele>713</ele>
        <time>2013-06-14T13:23:43Z</time>
      </trkpt>
      <trkpt lat="45.4603" lon="5.82023">
        <ele>713</ele>
        <time>2013-06-14T13:23:47Z</time>
      </trkpt>
      <trkpt lat="45.46057" lon="5.82042">
        <ele>716</ele>
        <time>2013-06-14T13:24:09Z</time>
      </trkpt>
      <trkpt lat="45.46079" lon="5.8206">
        <ele>720</ele>
        <time>2013-06-14T13:24:32Z</time>
      </trkpt>
      <trkpt lat="45.46083" lon="5.82061">
        <ele>720</ele>
        <time>2013-06-14T13:24:35Z</time>
      </trkpt>
      <trkpt lat="45.46108" lon="5.8207">
        <ele>723</ele>
        <time>2013-06-14T13:24:52Z</time>
      </trkpt>
      <trkpt lat="45.46135" lon="5.82085">
        <ele>725</ele>
        <time>2013-06-14T13:25:14Z</time>
      </trkpt>
      <trkpt lat="45.4614" lon="5.82086">
        <ele>725</ele>
        <time>2013-06-14T13:25:17Z</time>
      </trkpt>
      <trkpt lat="45.46143" lon="5.8209">
        <ele>726</ele>
        <time>2013-06-14T13:25:20Z</time>
      </trkpt>
      <trkpt lat="45.4617" lon="5.82109">
        <ele>730</ele>
        <time>2013-06-14T13:25:45Z</time>
      </trkpt>
      <trkpt lat="45.46179" lon="5.82118">
        <ele>731</ele>
        <time>2013-06-14T13:25:54Z</time>
      </trkpt>
      <trkpt lat="45.46194" lon="5.8213">
        <ele>732</ele>
        <time>2013-06-14T13:26:08Z</time>
      </trkpt>
      <trkpt lat="45.462" lon="5.82133">
        <ele>732</ele>
        <time>2013-06-14T13:26:12Z</time>
      </trkpt>
      <trkpt lat="45.46203" lon="5.82135">
        <ele>733</ele>
        <time>2013-06-14T13:26:14Z</time>
      </trkpt>
      <trkpt lat="45.46222" lon="5.82154">
        <ele>735</ele>
        <time>2013-06-14T13:26:31Z</time>
      </trkpt>
      <trkpt lat="45.46228" lon="5.82159">
        <ele>735</ele>
        <time>2013-06-14T13:26:36Z</time>
      </trkpt>
      <trkpt lat="45.46232" lon="5.82165">
        <ele>736</ele>
        <time>2013-06-14T13:26:41Z</time>
      </trkpt>
      <trkpt lat="45.46257" lon="5.82189">
        <ele>739</ele>
        <time>2013-06-14T13:27:03Z</time>
      </trkpt>
      <trkpt lat="45.46264" lon="5.82194">
        <ele>739</ele>
        <time>2013-06-14T13:27:08Z</time>
      </trkpt>
      <trkpt lat="45.46271" lon="5.82201">
        <ele>740</ele>
        <time>2013-06-14T13:27:15Z</time>
      </trkpt>
      <trkpt lat="45.46273" lon="5.82206">
        <ele>740</ele>
        <time>2013-06-14T13:27:19Z</time>
      </trkpt>
      <trkpt lat="45.46275" lon="5.82212">
        <ele>741</ele>
        <time>2013-06-14T13:27:23Z</time>
      </trkpt>
      <trkpt lat="45.46298" lon="5.8224">
        <ele>744</ele>
        <time>2013-06-14T13:27:47Z</time>
      </trkpt>
      <trkpt lat="45.4632" lon="5.82262">
        <ele>746</ele>
        <time>2013-06-14T13:28:06Z</time>
      </trkpt>
      <trkpt lat="45.46321" lon="5.82267">
        <ele>747</ele>
        <time>2013-06-14T13:28:11Z</time>
      </trkpt>
      <trkpt lat="45.46325" lon="5.82269">
        <ele>747</ele>
        <time>2013-06-14T13:28:14Z</time>
      </trkpt>
      <trkpt lat="45.46333" lon="5.82277">
        <ele>748</ele>
        <time>2013-06-14T13:28:20Z</time>
      </trkpt>
      <trkpt lat="45.4634" lon="5.82293">
        <ele>749</ele>
        <time>2013-06-14T13:28:30Z</time>
      </trkpt>
      <trkpt lat="45.46345" lon="5.82296">
        <ele>749</ele>
        <time>2013-06-14T13:28:35Z</time>
      </trkpt>
      <trkpt lat="45.46365" lon="5.82322">
        <ele>753</ele>
        <time>2013-06-14T13:28:55Z</time>
      </trkpt>
      <trkpt lat="45.46371" lon="5.82336">
        <ele>753</ele>
        <time>2013-06-14T13:29:04Z</time>
      </trkpt>
      <trkpt lat="45.46374" lon="5.82343">
        <ele>754</ele>
        <time>2013-06-14T13:29:08Z</time>
      </trkpt>
      <trkpt lat="45.46391" lon="5.82374">
        <ele>757</ele>
        <time>2013-06-14T13:29:28Z</time>
      </trkpt>
      <trkpt lat="45.46395" lon="5.82378">
        <ele>758</ele>
        <time>2013-06-14T13:29:31Z</time>
      </trkpt>
      <trkpt lat="45.46405" lon="5.82395">
        <ele>759</ele>
        <time>2013-06-14T13:29:43Z</time>
      </trkpt>
      <trkpt lat="45.46406" lon="5.82401">
        <ele>760</ele>
        <time>2013-06-14T13:29:47Z</time>
      </trkpt>
      <trkpt lat="45.46407" lon="5.82413">
        <ele>762</ele>
        <time>2013-06-14T13:29:58Z</time>
      </trkpt>
      <trkpt lat="45.46387" lon="5.82407">
        <ele>765</ele>
        <time>2013-06-14T13:30:14Z</time>
      </trkpt>
      <trkpt lat="45.46383" lon="5.82404">
        <ele>765</ele>
        <time>2013-06-14T13:30:17Z</time>
      </trkpt>
      <trkpt lat="45.46374" lon="5.82402">
        <ele>765</ele>
        <time>2013-06-14T13:30:59Z</time>
      </trkpt>
      <trkpt lat="45.46396" lon="5.82412">
        <ele>762</ele>
        <time>2013-06-14T13:31:32Z</time>
      </trkpt>
      <trkpt lat="45.46407" lon="5.82424">
        <ele>763</ele>
        <time>2013-06-14T13:31:44Z</time>
      </trkpt>
      <trkpt lat="45.46411" lon="5.82442">
        <ele>764</ele>
        <time>2013-06-14T13:31:52Z</time>
      </trkpt>
      <trkpt lat="45.46412" lon="5.82477">
        <ele>767</ele>
        <time>2013-06-14T13:32:11Z</time>
      </trkpt>
      <trkpt lat="45.46394" lon="5.82497">
        <ele>769</ele>
        <time>2013-06-14T13:32:25Z</time>
      </trkpt>
      <trkpt lat="45.46373" lon="5.82507">
        <ele>773</ele>
        <time>2013-06-14T13:32:45Z</time>
      </trkpt>
      <trkpt lat="45.46358" lon="5.82505">
        <ele>774</ele>
        <time>2013-06-14T13:33:01Z</time>
      </trkpt>
      <trkpt lat="45.46336" lon="5.82495">
        <ele>777</ele>
        <time>2013-06-14T13:33:19Z</time>
      </trkpt>
      <trkpt lat="45.46324" lon="5.8248">
        <ele>780</ele>
        <time>2013-06-14T13:33:33Z</time>
      </trkpt>
      <trkpt lat="45.46307" lon="5.82479">
        <ele>783</ele>
        <time>2013-06-14T13:33:46Z</time>
      </trkpt>
      <trkpt lat="45.46282" lon="5.82458">
        <ele>786</ele>
        <time>2013-06-14T13:34:00Z</time>
      </trkpt>
      <trkpt lat="45.46274" lon="5.82447">
        <ele>789</ele>
        <time>2013-06-14T13:34:14Z</time>
      </trkpt>
      <trkpt lat="45.46272" lon="5.82443">
        <ele>790</ele>
        <time>2013-06-14T13:34:17Z</time>
      </trkpt>
      <trkpt lat="45.46259" lon="5.82424">
        <ele>794</ele>
        <time>2013-06-14T13:34:35Z</time>
      </trkpt>
      <trkpt lat="45.46239" lon="5.82416">
        <ele>797</ele>
        <time>2013-06-14T13:34:52Z</time>
      </trkpt>
      <trkpt lat="45.4622" lon="5.82414">
        <ele>800</ele>
        <time>2013-06-14T13:35:07Z</time>
      </trkpt>
      <trkpt lat="45.46205" lon="5.82408">
        <ele>802</ele>
        <time>2013-06-14T13:35:19Z</time>
      </trkpt>
      <trkpt lat="45.46198" lon="5.82406">
        <ele>803</ele>
        <time>2013-06-14T13:35:24Z</time>
      </trkpt>
      <trkpt lat="45.46193" lon="5.824">
        <ele>802</ele>
        <time>2013-06-14T13:35:30Z</time>
      </trkpt>
      <trkpt lat="45.46173" lon="5.82396">
        <ele>802</ele>
        <time>2013-06-14T13:35:42Z</time>
      </trkpt>
      <trkpt lat="45.46147" lon="5.82372">
        <ele>803</ele>
        <time>2013-06-14T13:36:07Z</time>
      </trkpt>
      <trkpt lat="45.46112" lon="5.82361">
        <ele>805</ele>
        <time>2013-06-14T13:36:39Z</time>
      </trkpt>
      <trkpt lat="45.46067" lon="5.8236">
        <ele>807</ele>
        <time>2013-06-14T13:37:12Z</time>
      </trkpt>
      <trkpt lat="45.46048" lon="5.82361">
        <ele>810</ele>
        <time>2013-06-14T13:37:33Z</time>
      </trkpt>
      <trkpt lat="45.46023" lon="5.82333">
        <ele>810</ele>
        <time>2013-06-14T13:37:59Z</time>
      </trkpt>
      <trkpt lat="45.45981" lon="5.82296">
        <ele>812</ele>
        <time>2013-06-14T13:38:33Z</time>
      </trkpt>
      <trkpt lat="45.45959" lon="5.82293">
        <ele>815</ele>
        <time>2013-06-14T13:38:52Z</time>
      </trkpt>
      <trkpt lat="45.45944" lon="5.82292">
        <ele>819</ele>
        <time>2013-06-14T13:39:04Z</time>
      </trkpt>
      <trkpt lat="45.45928" lon="5.82281">
        <ele>822</ele>
        <time>2013-06-14T13:39:16Z</time>
      </trkpt>
      <trkpt lat="45.45911" lon="5.82265">
        <ele>824</ele>
        <time>2013-06-14T13:39:33Z</time>
      </trkpt>
      <trkpt lat="45.45913" lon="5.82248">
        <ele>826</ele>
        <time>2013-06-14T13:40:50Z</time>
      </trkpt>
      <trkpt lat="45.45907" lon="5.82247">
        <ele>829</ele>
        <time>2013-06-14T13:41:11Z</time>
      </trkpt>
      <trkpt lat="45.45888" lon="5.8224">
        <ele>833</ele>
        <time>2013-06-14T13:41:27Z</time>
      </trkpt>
      <trkpt lat="45.45877" lon="5.82236">
        <ele>836</ele>
        <time>2013-06-14T13:41:41Z</time>
      </trkpt>
      <trkpt lat="45.45853" lon="5.82216">
        <ele>837</ele>
        <time>2013-06-14T13:42:03Z</time>
      </trkpt>
      <trkpt lat="45.45827" lon="5.82201">
        <ele>839</ele>
        <time>2013-06-14T13:42:27Z</time>
      </trkpt>
      <trkpt lat="45.45823" lon="5.822">
        <ele>840</ele>
        <time>2013-06-14T13:42:29Z</time>
      </trkpt>
      <trkpt lat="45.4581" lon="5.82194">
        <ele>842</ele>
        <time>2013-06-14T13:42:42Z</time>
      </trkpt>
      <trkpt lat="45.45807" lon="5.82186">
        <ele>842</ele>
        <time>2013-06-14T13:42:47Z</time>
      </trkpt>
      <trkpt lat="45.45803" lon="5.82183">
        <ele>843</ele>
        <time>2013-06-14T13:42:50Z</time>
      </trkpt>
      <trkpt lat="45.45791" lon="5.82171">
        <ele>845</ele>
        <time>2013-06-14T13:43:03Z</time>
      </trkpt>
      <trkpt lat="45.45786" lon="5.82166">
        <ele>847</ele>
        <time>2013-06-14T13:43:10Z</time>
      </trkpt>
      <trkpt lat="45.45778" lon="5.82161">
        <ele>847</ele>
        <time>2013-06-14T13:43:35Z</time>
      </trkpt>
      <trkpt lat="45.45775" lon="5.82156">
        <ele>847</ele>
        <time>2013-06-14T13:45:00Z</time>
      </trkpt>
      <trkpt lat="45.45771" lon="5.82159">
        <ele>848</ele>
        <time>2013-06-14T13:45:53Z</time>
      </trkpt>
      <trkpt lat="45.45743" lon="5.82144">
        <ele>851</ele>
        <time>2013-06-14T13:46:24Z</time>
      </trkpt>
      <trkpt lat="45.45731" lon="5.82141">
        <ele>855</ele>
        <time>2013-06-14T13:46:41Z</time>
      </trkpt>
      <trkpt lat="45.45713" lon="5.82135">
        <ele>858</ele>
        <time>2013-06-14T13:46:56Z</time>
      </trkpt>
      <trkpt lat="45.45696" lon="5.82125">
        <ele>861</ele>
        <time>2013-06-14T13:47:09Z</time>
      </trkpt>
      <trkpt lat="45.45654" lon="5.82091">
        <ele>862</ele>
        <time>2013-06-14T13:47:48Z</time>
      </trkpt>
      <trkpt lat="45.45621" lon="5.82062">
        <ele>864</ele>
        <time>2013-06-14T13:48:16Z</time>
      </trkpt>
      <trkpt lat="45.45604" lon="5.82051">
        <ele>867</ele>
        <time>2013-06-14T13:48:34Z</time>
      </trkpt>
      <trkpt lat="45.45569" lon="5.82042">
        <ele>870</ele>
        <time>2013-06-14T13:49:02Z</time>
      </trkpt>
      <trkpt lat="45.45546" lon="5.82025">
        <ele>871</ele>
        <time>2013-06-14T13:49:25Z</time>
      </trkpt>
      <trkpt lat="45.45529" lon="5.81999">
        <ele>873</ele>
        <time>2013-06-14T13:49:50Z</time>
      </trkpt>
      <trkpt lat="45.45509" lon="5.81979">
        <ele>876</ele>
        <time>2013-06-14T13:50:09Z</time>
      </trkpt>
      <trkpt lat="45.45486" lon="5.81967">
        <ele>879</ele>
        <time>2013-06-14T13:50:25Z</time>
      </trkpt>
      <trkpt lat="45.45468" lon="5.81961">
        <ele>882</ele>
        <time>2013-06-14T13:50:39Z</time>
      </trkpt>
      <trkpt lat="45.45456" lon="5.81947">
        <ele>885</ele>
        <time>2013-06-14T13:50:56Z</time>
      </trkpt>
      <trkpt lat="45.4544" lon="5.81938">
        <ele>888</ele>
        <time>2013-06-14T13:51:10Z</time>
      </trkpt>
      <trkpt lat="45.45433" lon="5.81927">
        <ele>891</ele>
        <time>2013-06-14T13:51:20Z</time>
      </trkpt>
      <trkpt lat="45.45424" lon="5.81912">
        <ele>895</ele>
        <time>2013-06-14T13:51:30Z</time>
      </trkpt>
      <trkpt lat="45.45397" lon="5.81888">
        <ele>898</ele>
        <time>2013-06-14T13:52:05Z</time>
      </trkpt>
      <trkpt lat="45.45369" lon="5.81868">
        <ele>899</ele>
        <time>2013-06-14T13:52:27Z</time>
      </trkpt>
      <trkpt lat="45.45359" lon="5.81854">
        <ele>898</ele>
        <time>2013-06-14T13:52:39Z</time>
      </trkpt>
      <trkpt lat="45.4533" lon="5.8183">
        <ele>900</ele>
        <time>2013-06-14T13:53:02Z</time>
      </trkpt>
      <trkpt lat="45.45317" lon="5.81817">
        <ele>903</ele>
        <time>2013-06-14T13:53:21Z</time>
      </trkpt>
      <trkpt lat="45.45311" lon="5.8181">
        <ele>904</ele>
        <time>2013-06-14T13:53:28Z</time>
      </trkpt>
      <trkpt lat="45.45289" lon="5.81791">
        <ele>908</ele>
        <time>2013-06-14T13:53:48Z</time>
      </trkpt>
      <trkpt lat="45.45279" lon="5.81779">
        <ele>911</ele>
        <time>2013-06-14T13:54:01Z</time>
      </trkpt>
      <trkpt lat="45.45276" lon="5.81777">
        <ele>911</ele>
        <time>2013-06-14T13:54:03Z</time>
      </trkpt>
      <trkpt lat="45.45251" lon="5.81761">
        <ele>913</ele>
        <time>2013-06-14T13:54:22Z</time>
      </trkpt>
      <trkpt lat="45.45232" lon="5.81768">
        <ele>914</ele>
        <time>2013-06-14T13:54:30Z</time>
      </trkpt>
      <trkpt lat="45.45222" lon="5.81775">
        <ele>918</ele>
        <time>2013-06-14T13:54:42Z</time>
      </trkpt>
      <trkpt lat="45.45222" lon="5.81776">
        <ele>918</ele>
        <time>2013-06-14T13:54:43Z</time>
      </trkpt>
      <trkpt lat="45.45211" lon="5.81791">
        <ele>918</ele>
        <time>2013-06-14T13:55:00Z</time>
      </trkpt>
      <trkpt lat="45.45209" lon="5.81818">
        <ele>918</ele>
        <time>2013-06-14T13:55:22Z</time>
      </trkpt>
      <trkpt lat="45.45205" lon="5.81818">
        <ele>919</ele>
        <time>2013-06-14T13:55:28Z</time>
      </trkpt>
      <trkpt lat="45.45205" lon="5.81807">
        <ele>919</ele>
        <time>2013-06-14T13:55:31Z</time>
      </trkpt>
      <trkpt lat="45.45177" lon="5.81776">
        <ele>921</ele>
        <time>2013-06-14T13:56:00Z</time>
      </trkpt>
      <trkpt lat="45.45156" lon="5.81751">
        <ele>923</ele>
        <time>2013-06-14T13:56:22Z</time>
      </trkpt>
      <trkpt lat="45.45153" lon="5.8175">
        <ele>923</ele>
        <time>2013-06-14T13:56:24Z</time>
      </trkpt>
      <trkpt lat="45.4513" lon="5.8173">
        <ele>925</ele>
        <time>2013-06-14T13:56:46Z</time>
      </trkpt>
      <trkpt lat="45.45098" lon="5.8169">
        <ele>928</ele>
        <time>2013-06-14T13:57:13Z</time>
      </trkpt>
      <trkpt lat="45.45066" lon="5.81668">
        <ele>932</ele>
        <time>2013-06-14T13:57:40Z</time>
      </trkpt>
      <trkpt lat="45.45031" lon="5.81652">
        <ele>935</ele>
        <time>2013-06-14T13:58:09Z</time>
      </trkpt>
      <trkpt lat="45.44999" lon="5.81638">
        <ele>938</ele>
        <time>2013-06-14T13:58:34Z</time>
      </trkpt>
      <trkpt lat="45.44976" lon="5.81624">
        <ele>939</ele>
        <time>2013-06-14T13:58:57Z</time>
      </trkpt>
      <trkpt lat="45.44976" lon="5.81628">
        <ele>939</ele>
        <time>2013-06-14T13:59:10Z</time>
      </trkpt>
      <trkpt lat="45.44966" lon="5.8162">
        <ele>940</ele>
        <time>2013-06-14T13:59:21Z</time>
      </trkpt>
      <trkpt lat="45.44937" lon="5.81603">
        <ele>944</ele>
        <time>2013-06-14T13:59:45Z</time>
      </trkpt>
      <trkpt lat="45.44903" lon="5.81579">
        <ele>947</ele>
        <time>2013-06-14T14:00:16Z</time>
      </trkpt>
      <trkpt lat="45.44899" lon="5.81576">
        <ele>948</ele>
        <time>2013-06-14T14:00:20Z</time>
      </trkpt>
      <trkpt lat="45.44895" lon="5.81573">
        <ele>948</ele>
        <time>2013-06-14T14:00:24Z</time>
      </trkpt>
      <trkpt lat="45.44868" lon="5.81567">
        <ele>948</ele>
        <time>2013-06-14T14:00:44Z</time>
      </trkpt>
      <trkpt lat="45.44822" lon="5.81551">
        <ele>950</ele>
        <time>2013-06-14T14:01:18Z</time>
      </trkpt>
      <trkpt lat="45.4481" lon="5.81546">
        <ele>950</ele>
        <time>2013-06-14T14:01:28Z</time>
      </trkpt>
      <trkpt lat="45.44778" lon="5.81522">
        <ele>952</ele>
        <time>2013-06-14T14:01:55Z</time>
      </trkpt>
      <trkpt lat="45.44734" lon="5.81474">
        <ele>953</ele>
        <time>2013-06-14T14:02:36Z</time>
      </trkpt>
      <trkpt lat="45.44695" lon="5.81425">
        <ele>954</ele>
        <time>2013-06-14T14:03:14Z</time>
      </trkpt>
      <trkpt lat="45.44657" lon="5.81378">
        <ele>955</ele>
        <time>2013-06-14T14:03:52Z</time>
      </trkpt>
      <trkpt lat="45.44625" lon="5.81339">
        <ele>956</ele>
        <time>2013-06-14T14:04:23Z</time>
      </trkpt>
      <trkpt lat="45.44576" lon="5.81296">
        <ele>957</ele>
        <time>2013-06-14T14:05:04Z</time>
      </trkpt>
      <trkpt lat="45.44515" lon="5.8125">
        <ele>958</ele>
        <time>2013-06-14T14:05:55Z</time>
      </trkpt>
      <trkpt lat="45.4445" lon="5.81207">
        <ele>959</ele>
        <time>2013-06-14T14:06:46Z</time>
      </trkpt>
      <trkpt lat="45.44399" lon="5.81163">
        <ele>959</ele>
        <time>2013-06-14T14:07:32Z</time>
      </trkpt>
      <trkpt lat="45.44371" lon="5.81137">
        <ele>959</ele>
        <time>2013-06-14T14:08:05Z</time>
      </trkpt>
      <trkpt lat="45.44343" lon="5.81114">
        <ele>958</ele>
        <time>2013-06-14T14:08:30Z</time>
      </trkpt>
      <trkpt lat="45.44305" lon="5.81093">
        <ele>956</ele>
        <time>2013-06-14T14:09:00Z</time>
      </trkpt>
      <trkpt lat="45.44273" lon="5.81079">
        <ele>954</ele>
        <time>2013-06-14T14:09:27Z</time>
      </trkpt>
      <trkpt lat="45.44254" lon="5.81064">
        <ele>952</ele>
        <time>2013-06-14T14:09:42Z</time>
      </trkpt>
      <trkpt lat="45.44232" lon="5.81065">
        <ele>949</ele>
        <time>2013-06-14T14:09:57Z</time>
      </trkpt>
      <trkpt lat="45.44219" lon="5.81071">
        <ele>949</ele>
        <time>2013-06-14T14:10:07Z</time>
      </trkpt>
      <trkpt lat="45.44211" lon="5.811">
        <ele>951</ele>
        <time>2013-06-14T14:10:24Z</time>
      </trkpt>
      <trkpt lat="45.44207" lon="5.81128">
        <ele>953</ele>
        <time>2013-06-14T14:10:38Z</time>
      </trkpt>
      <trkpt lat="45.44201" lon="5.81137">
        <ele>953</ele>
        <time>2013-06-14T14:10:45Z</time>
      </trkpt>
      <trkpt lat="45.44199" lon="5.8114">
        <ele>953</ele>
        <time>2013-06-14T14:10:47Z</time>
      </trkpt>
      <trkpt lat="45.44192" lon="5.81148">
        <ele>954</ele>
        <time>2013-06-14T14:10:53Z</time>
      </trkpt>
      <trkpt lat="45.4419" lon="5.81153">
        <ele>954</ele>
        <time>2013-06-14T14:10:57Z</time>
      </trkpt>
      <trkpt lat="45.44183" lon="5.81161">
        <ele>954</ele>
        <time>2013-06-14T14:11:01Z</time>
      </trkpt>
      <trkpt lat="45.44155" lon="5.81174">
        <ele>954</ele>
        <time>2013-06-14T14:11:24Z</time>
      </trkpt>
      <trkpt lat="45.44119" lon="5.81185">
        <ele>953</ele>
        <time>2013-06-14T14:11:54Z</time>
      </trkpt>
      <trkpt lat="45.44118" lon="5.81186">
        <ele>952</ele>
        <time>2013-06-14T14:11:55Z</time>
      </trkpt>
      <trkpt lat="45.44079" lon="5.81192">
        <ele>952</ele>
        <time>2013-06-14T14:12:27Z</time>
      </trkpt>
      <trkpt lat="45.4404" lon="5.81192">
        <ele>951</ele>
        <time>2013-06-14T14:13:00Z</time>
      </trkpt>
      <trkpt lat="45.43991" lon="5.81217">
        <ele>952</ele>
        <time>2013-06-14T14:13:42Z</time>
      </trkpt>
      <trkpt lat="45.43984" lon="5.81227">
        <ele>953</ele>
        <time>2013-06-14T14:13:50Z</time>
      </trkpt>
      <trkpt lat="45.43948" lon="5.81251">
        <ele>957</ele>
        <time>2013-06-14T14:14:18Z</time>
      </trkpt>
      <trkpt lat="45.43932" lon="5.81267">
        <ele>959</ele>
        <time>2013-06-14T14:14:33Z</time>
      </trkpt>
      <trkpt lat="45.43928" lon="5.81272">
        <ele>958</ele>
        <time>2013-06-14T14:14:37Z</time>
      </trkpt>
      <trkpt lat="45.4391" lon="5.81284">
        <ele>959</ele>
        <time>2013-06-14T14:14:50Z</time>
      </trkpt>
      <trkpt lat="45.43904" lon="5.81288">
        <ele>960</ele>
        <time>2013-06-14T14:14:55Z</time>
      </trkpt>
      <trkpt lat="45.439" lon="5.81295">
        <ele>960</ele>
        <time>2013-06-14T14:14:58Z</time>
      </trkpt>
      <trkpt lat="45.43883" lon="5.81296">
        <ele>960</ele>
        <time>2013-06-14T14:15:12Z</time>
      </trkpt>
      <trkpt lat="45.4387" lon="5.81307">
        <ele>960</ele>
        <time>2013-06-14T14:15:38Z</time>
      </trkpt>
      <trkpt lat="45.43862" lon="5.81303">
        <ele>960</ele>
        <time>2013-06-14T14:17:07Z</time>
      </trkpt>
      <trkpt lat="45.4388" lon="5.81329">
        <ele>959</ele>
        <time>2013-06-14T14:17:41Z</time>
      </trkpt>
      <trkpt lat="45.43873" lon="5.81325">
        <ele>959</ele>
        <time>2013-06-14T14:18:22Z</time>
      </trkpt>
      <trkpt lat="45.43818" lon="5.81303">
        <ele>961</ele>
        <time>2013-06-14T14:19:34Z</time>
      </trkpt>
      <trkpt lat="45.43803" lon="5.81294">
        <ele>963</ele>
        <time>2013-06-14T14:19:46Z</time>
      </trkpt>
      <trkpt lat="45.438" lon="5.81295">
        <ele>964</ele>
        <time>2013-06-14T14:19:49Z</time>
      </trkpt>
      <trkpt lat="45.43786" lon="5.81312">
        <ele>967</ele>
        <time>2013-06-14T14:20:10Z</time>
      </trkpt>
      <trkpt lat="45.43772" lon="5.81327">
        <ele>971</ele>
        <time>2013-06-14T14:20:28Z</time>
      </trkpt>
      <trkpt lat="45.43761" lon="5.8135">
        <ele>973</ele>
        <time>2013-06-14T14:20:44Z</time>
      </trkpt>
      <trkpt lat="45.4376" lon="5.81352">
        <ele>974</ele>
        <time>2013-06-14T14:20:45Z</time>
      </trkpt>
      <trkpt lat="45.43757" lon="5.81361">
        <ele>974</ele>
        <time>2013-06-14T14:20:48Z</time>
      </trkpt>
      <trkpt lat="45.43757" lon="5.81383">
        <ele>978</ele>
        <time>2013-06-14T14:21:04Z</time>
      </trkpt>
      <trkpt lat="45.43757" lon="5.81393">
        <ele>979</ele>
        <time>2013-06-14T14:21:09Z</time>
      </trkpt>
      <trkpt lat="45.43755" lon="5.81397">
        <ele>979</ele>
        <time>2013-06-14T14:21:12Z</time>
      </trkpt>
      <trkpt lat="45.43752" lon="5.81418">
        <ele>982</ele>
        <time>2013-06-14T14:21:29Z</time>
      </trkpt>
      <trkpt lat="45.43735" lon="5.81446">
        <ele>985</ele>
        <time>2013-06-14T14:21:57Z</time>
      </trkpt>
      <trkpt lat="45.43712" lon="5.81463">
        <ele>988</ele>
        <time>2013-06-14T14:22:16Z</time>
      </trkpt>
      <trkpt lat="45.43699" lon="5.81475">
        <ele>992</ele>
        <time>2013-06-14T14:22:28Z</time>
      </trkpt>
      <trkpt lat="45.43696" lon="5.81496">
        <ele>995</ele>
        <time>2013-06-14T14:22:41Z</time>
      </trkpt>
      <trkpt lat="45.43702" lon="5.81518">
        <ele>997</ele>
        <time>2013-06-14T14:22:53Z</time>
      </trkpt>
      <trkpt lat="45.43698" lon="5.81528">
        <ele>998</ele>
        <time>2013-06-14T14:22:55Z</time>
      </trkpt>
      <trkpt lat="45.43698" lon="5.8153">
        <ele>998</ele>
        <time>2013-06-14T14:22:56Z</time>
      </trkpt>
      <trkpt lat="45.43684" lon="5.81544">
        <ele>1002</ele>
        <time>2013-06-14T14:23:15Z</time>
      </trkpt>
      <trkpt lat="45.43667" lon="5.81547">
        <ele>999</ele>
        <time>2013-06-14T14:23:54Z</time>
      </trkpt>
      <trkpt lat="45.43654" lon="5.81546">
        <ele>996</ele>
        <time>2013-06-14T14:24:06Z</time>
      </trkpt>
      <trkpt lat="45.43646" lon="5.81564">
        <ele>993</ele>
        <time>2013-06-14T14:24:31Z</time>
      </trkpt>
      <trkpt lat="45.43646" lon="5.81576">
        <ele>989</ele>
        <time>2013-06-14T14:24:45Z</time>
      </trkpt>
      <trkpt lat="45.43647" lon="5.81584">
        <ele>986</ele>
        <time>2013-06-14T14:24:57Z</time>
      </trkpt>
      <trkpt lat="45.43651" lon="5.81598">
        <ele>983</ele>
        <time>2013-06-14T14:25:09Z</time>
      </trkpt>
      <trkpt lat="45.43652" lon="5.81615">
        <ele>979</ele>
        <time>2013-06-14T14:25:24Z</time>
      </trkpt>
      <trkpt lat="45.43657" lon="5.81634">
        <ele>976</ele>
        <time>2013-06-14T14:25:38Z</time>
      </trkpt>
      <trkpt lat="45.43657" lon="5.81652">
        <ele>973</ele>
        <time>2013-06-14T14:25:54Z</time>
      </trkpt>
      <trkpt lat="45.43662" lon="5.81669">
        <ele>970</ele>
        <time>2013-06-14T14:26:06Z</time>
      </trkpt>
      <trkpt lat="45.43681" lon="5.8174">
        <ele>970</ele>
        <time>2013-06-14T14:26:40Z</time>
      </trkpt>
      <trkpt lat="45.43696" lon="5.81766">
        <ele>971</ele>
        <time>2013-06-14T14:27:06Z</time>
      </trkpt>
      <trkpt lat="45.43679" lon="5.81778">
        <ele>968</ele>
        <time>2013-06-14T14:27:34Z</time>
      </trkpt>
      <trkpt lat="45.43667" lon="5.81768">
        <ele>967</ele>
        <time>2013-06-14T14:28:17Z</time>
      </trkpt>
      <trkpt lat="45.43633" lon="5.81772">
        <ele>964</ele>
        <time>2013-06-14T14:28:49Z</time>
      </trkpt>
      <trkpt lat="45.43618" lon="5.81773">
        <ele>963</ele>
        <time>2013-06-14T14:28:55Z</time>
      </trkpt>
      <trkpt lat="45.43609" lon="5.81769">
        <ele>960</ele>
        <time>2013-06-14T14:29:10Z</time>
      </trkpt>
      <trkpt lat="45.436" lon="5.81764">
        <ele>957</ele>
        <time>2013-06-14T14:29:20Z</time>
      </trkpt>
      <trkpt lat="45.43586" lon="5.8176">
        <ele>954</ele>
        <time>2013-06-14T14:29:29Z</time>
      </trkpt>
      <trkpt lat="45.4358" lon="5.81759">
        <ele>953</ele>
        <time>2013-06-14T14:29:34Z</time>
      </trkpt>
      <trkpt lat="45.43573" lon="5.81764">
        <ele>950</ele>
        <time>2013-06-14T14:30:18Z</time>
      </trkpt>
      <trkpt lat="45.43568" lon="5.81765">
        <ele>950</ele>
        <time>2013-06-14T14:30:23Z</time>
      </trkpt>
      <trkpt lat="45.43557" lon="5.8177">
        <ele>947</ele>
        <time>2013-06-14T14:30:35Z</time>
      </trkpt>
      <trkpt lat="45.43551" lon="5.81771">
        <ele>945</ele>
        <time>2013-06-14T14:30:42Z</time>
      </trkpt>
      <trkpt lat="45.43543" lon="5.81777">
        <ele>942</ele>
        <time>2013-06-14T14:31:04Z</time>
      </trkpt>
      <trkpt lat="45.43526" lon="5.81777">
        <ele>938</ele>
        <time>2013-06-14T14:31:30Z</time>
      </trkpt>
      <trkpt lat="45.43496" lon="5.81768">
        <ele>935</ele>
        <time>2013-06-14T14:31:50Z</time>
      </trkpt>
      <trkpt lat="45.43448" lon="5.81765">
        <ele>932</ele>
        <time>2013-06-14T14:32:20Z</time>
      </trkpt>
      <trkpt lat="45.43429" lon="5.81753">
        <ele>929</ele>
        <time>2013-06-14T14:32:40Z</time>
      </trkpt>
      <trkpt lat="45.43424" lon="5.81753">
        <ele>929</ele>
        <time>2013-06-14T14:32:53Z</time>
      </trkpt>
      <trkpt lat="45.43392" lon="5.81749">
        <ele>927</ele>
        <time>2013-06-14T14:33:22Z</time>
      </trkpt>
      <trkpt lat="45.43365" lon="5.81747">
        <ele>930</ele>
        <time>2013-06-14T14:33:41Z</time>
      </trkpt>
      <trkpt lat="45.43333" lon="5.8175">
        <ele>933</ele>
        <time>2013-06-14T14:33:54Z</time>
      </trkpt>
      <trkpt lat="45.43307" lon="5.81786">
        <ele>933</ele>
        <time>2013-06-14T14:34:32Z</time>
      </trkpt>
      <trkpt lat="45.43275" lon="5.81798">
        <ele>930</ele>
        <time>2013-06-14T14:34:56Z</time>
      </trkpt>
      <trkpt lat="45.43272" lon="5.81799">
        <ele>929</ele>
        <time>2013-06-14T14:35:00Z</time>
      </trkpt>
      <trkpt lat="45.43254" lon="5.818">
        <ele>925</ele>
        <time>2013-06-14T14:35:17Z</time>
      </trkpt>
      <trkpt lat="45.43248" lon="5.81796">
        <ele>926</ele>
        <time>2013-06-14T14:35:22Z</time>
      </trkpt>
      <trkpt lat="45.43221" lon="5.81802">
        <ele>925</ele>
        <time>2013-06-14T14:35:42Z</time>
      </trkpt>
      <trkpt lat="45.43213" lon="5.81816">
        <ele>924</ele>
        <time>2013-06-14T14:35:50Z</time>
      </trkpt>
      <trkpt lat="45.43205" lon="5.81834">
        <ele>922</ele>
        <time>2013-06-14T14:36:02Z</time>
      </trkpt>
      <trkpt lat="45.43199" lon="5.81848">
        <ele>921</ele>
        <time>2013-06-14T14:36:30Z</time>
      </trkpt>
      <trkpt lat="45.43204" lon="5.81848">
        <ele>920</ele>
        <time>2013-06-14T14:37:34Z</time>
      </trkpt>
      <trkpt lat="45.43211" lon="5.81859">
        <ele>922</ele>
        <time>2013-06-14T14:45:28Z</time>
      </trkpt>
      <trkpt lat="45.4321" lon="5.81861">
        <ele>922</ele>
        <time>2013-06-14T14:46:08Z</time>
      </trkpt>
      <trkpt lat="45.43206" lon="5.81859">
        <ele>921</ele>
        <time>2013-06-14T14:47:46Z</time>
      </trkpt>
      <trkpt lat="45.43212" lon="5.81875">
        <ele>921</ele>
        <time>2013-06-14T14:48:55Z</time>
      </trkpt>
      <trkpt lat="45.43212" lon="5.81857">
        <ele>920</ele>
        <time>2013-06-14T14:49:52Z</time>
      </trkpt>
      <trkpt lat="45.43217" lon="5.8188">
        <ele>916</ele>
        <time>2013-06-14T14:52:10Z</time>
      </trkpt>
      <trkpt lat="45.43211" lon="5.81887">
        <ele>914</ele>
        <time>2013-06-14T14:52:33Z</time>
      </trkpt>
      <trkpt lat="45.43207" lon="5.819">
        <ele>911</ele>
        <time>2013-06-14T14:53:01Z</time>
      </trkpt>
      <trkpt lat="45.43205" lon="5.81912">
        <ele>911</ele>
        <time>2013-06-14T14:53:53Z</time>
      </trkpt>
      <trkpt lat="45.43205" lon="5.81907">
        <ele>908</ele>
        <time>2013-06-14T14:55:16Z</time>
      </trkpt>
      <trkpt lat="45.43201" lon="5.81922">
        <ele>907</ele>
        <time>2013-06-14T14:56:03Z</time>
      </trkpt>
      <trkpt lat="45.43203" lon="5.81915">
        <ele>906</ele>
        <time>2013-06-14T14:56:39Z</time>
      </trkpt>
      <trkpt lat="45.43204" lon="5.81917">
        <ele>904</ele>
        <time>2013-06-14T14:57:24Z</time>
      </trkpt>
      <trkpt lat="45.43206" lon="5.81917">
        <ele>903</ele>
        <time>2013-06-14T14:58:02Z</time>
      </trkpt>
      <trkpt lat="45.43208" lon="5.81917">
        <ele>901</ele>
        <time>2013-06-14T14:59:15Z</time>
      </trkpt>
      <trkpt lat="45.43207" lon="5.81913">
        <ele>899</ele>
        <time>2013-06-14T14:59:58Z</time>
      </trkpt>
      <trkpt lat="45.43209" lon="5.81916">
        <ele>899</ele>
        <time>2013-06-14T15:00:11Z</time>
      </trkpt>
      <trkpt lat="45.43208" lon="5.8191">
        <ele>898</ele>
        <time>2013-06-14T15:00:49Z</time>
      </trkpt>
      <trkpt lat="45.43208" lon="5.8191">
        <ele>898</ele>
        <time>2013-06-14T15:01:07Z</time>
      </trkpt>
      <trkpt lat="45.43206" lon="5.81907">
        <ele>898</ele>
        <time>2013-06-14T15:01:33Z</time>
      </trkpt>
      <trkpt lat="45.43203" lon="5.81907">
        <ele>897</ele>
        <time>2013-06-14T15:02:11Z</time>
      </trkpt>
      <trkpt lat="45.43199" lon="5.81908">
        <ele>896</ele>
        <time>2013-06-14T15:02:23Z</time>
      </trkpt>
      <trkpt lat="45.43197" lon="5.81912">
        <ele>896</ele>
        <time>2013-06-14T15:02:47Z</time>
      </trkpt>
      <trkpt lat="45.43194" lon="5.81909">
        <ele>894</ele>
        <time>2013-06-14T15:04:44Z</time>
      </trkpt>
      <trkpt lat="45.43193" lon="5.81908">
        <ele>893</ele>
        <time>2013-06-14T15:06:33Z</time>
      </trkpt>
      <trkpt lat="45.43194" lon="5.8191">
        <ele>892</ele>
        <time>2013-06-14T15:07:48Z</time>
      </trkpt>
      <trkpt lat="45.43196" lon="5.81906">
        <ele>892</ele>
        <time>2013-06-14T15:08:20Z</time>
      </trkpt>
      <trkpt lat="45.43193" lon="5.81904">
        <ele>891</ele>
        <time>2013-06-14T15:08:55Z</time>
      </trkpt>
      <trkpt lat="45.43191" lon="5.81903">
        <ele>891</ele>
        <time>2013-06-14T15:09:57Z</time>
      </trkpt>
      <trkpt lat="45.4319" lon="5.81898">
        <ele>892</ele>
        <time>2013-06-14T15:10:38Z</time>
      </trkpt>
      <trkpt lat="45.43191" lon="5.81893">
        <ele>892</ele>
        <time>2013-06-14T15:11:39Z</time>
      </trkpt>
      <trkpt lat="45.43186" lon="5.81895">
        <ele>893</ele>
        <time>2013-06-14T15:13:23Z</time>
      </trkpt>
      <trkpt lat="45.43192" lon="5.81896">
        <ele>894</ele>
        <time>2013-06-14T15:14:33Z</time>
      </trkpt>
      <trkpt lat="45.43183" lon="5.819">
        <ele>893</ele>
        <time>2013-06-14T15:15:06Z</time>
      </trkpt>
      <trkpt lat="45.43168" lon="5.81908">
        <ele>890</ele>
        <time>2013-06-14T15:15:24Z</time>
      </trkpt>
      <trkpt lat="45.43135" lon="5.81936">
        <ele>889</ele>
        <time>2013-06-14T15:15:51Z</time>
      </trkpt>
      <trkpt lat="45.43117" lon="5.8195">
        <ele>887</ele>
        <time>2013-06-14T15:16:11Z</time>
      </trkpt>
      <trkpt lat="45.4311" lon="5.81955">
        <ele>886</ele>
        <time>2013-06-14T15:16:18Z</time>
      </trkpt>
      <trkpt lat="45.431" lon="5.81967">
        <ele>885</ele>
        <time>2013-06-14T15:16:28Z</time>
      </trkpt>
      <trkpt lat="45.43078" lon="5.8199">
        <ele>886</ele>
        <time>2013-06-14T15:16:48Z</time>
      </trkpt>
      <trkpt lat="45.43071" lon="5.82">
        <ele>886</ele>
        <time>2013-06-14T15:16:57Z</time>
      </trkpt>
      <trkpt lat="45.43058" lon="5.82025">
        <ele>886</ele>
        <time>2013-06-14T15:17:08Z</time>
      </trkpt>
      <trkpt lat="45.4305" lon="5.82036">
        <ele>886</ele>
        <time>2013-06-14T15:17:18Z</time>
      </trkpt>
      <trkpt lat="45.43031" lon="5.82059">
        <ele>887</ele>
        <time>2013-06-14T15:17:41Z</time>
      </trkpt>
      <trkpt lat="45.43021" lon="5.82072">
        <ele>884</ele>
        <time>2013-06-14T15:17:58Z</time>
      </trkpt>
      <trkpt lat="45.43015" lon="5.82082">
        <ele>880</ele>
        <time>2013-06-14T15:18:08Z</time>
      </trkpt>
      <trkpt lat="45.43007" lon="5.82088">
        <ele>879</ele>
        <time>2013-06-14T15:18:15Z</time>
      </trkpt>
      <trkpt lat="45.4299" lon="5.82086">
        <ele>878</ele>
        <time>2013-06-14T15:18:27Z</time>
      </trkpt>
      <trkpt lat="45.42973" lon="5.82093">
        <ele>875</ele>
        <time>2013-06-14T15:18:49Z</time>
      </trkpt>
      <trkpt lat="45.4296" lon="5.82092">
        <ele>872</ele>
        <time>2013-06-14T15:19:11Z</time>
      </trkpt>
      <trkpt lat="45.42955" lon="5.82106">
        <ele>869</ele>
        <time>2013-06-14T15:19:21Z</time>
      </trkpt>
      <trkpt lat="45.42942" lon="5.82124">
        <ele>866</ele>
        <time>2013-06-14T15:19:35Z</time>
      </trkpt>
      <trkpt lat="45.42927" lon="5.82147">
        <ele>866</ele>
        <time>2013-06-14T15:19:48Z</time>
      </trkpt>
      <trkpt lat="45.42918" lon="5.82162">
        <ele>863</ele>
        <time>2013-06-14T15:20:02Z</time>
      </trkpt>
      <trkpt lat="45.42916" lon="5.82171">
        <ele>863</ele>
        <time>2013-06-14T15:20:06Z</time>
      </trkpt>
      <trkpt lat="45.42915" lon="5.82193">
        <ele>861</ele>
        <time>2013-06-14T15:20:17Z</time>
      </trkpt>
      <trkpt lat="45.42915" lon="5.82197">
        <ele>861</ele>
        <time>2013-06-14T15:20:20Z</time>
      </trkpt>
      <trkpt lat="45.42917" lon="5.82209">
        <ele>859</ele>
        <time>2013-06-14T15:20:27Z</time>
      </trkpt>
      <trkpt lat="45.42921" lon="5.8223">
        <ele>855</ele>
        <time>2013-06-14T15:20:38Z</time>
      </trkpt>
      <trkpt lat="45.42923" lon="5.82239">
        <ele>854</ele>
        <time>2013-06-14T15:20:45Z</time>
      </trkpt>
      <trkpt lat="45.42926" lon="5.82263">
        <ele>851</ele>
        <time>2013-06-14T15:21:01Z</time>
      </trkpt>
      <trkpt lat="45.42926" lon="5.82265">
        <ele>850</ele>
        <time>2013-06-14T15:21:03Z</time>
      </trkpt>
      <trkpt lat="45.42924" lon="5.82272">
        <ele>850</ele>
        <time>2013-06-14T15:21:07Z</time>
      </trkpt>
      <trkpt lat="45.42922" lon="5.82276">
        <ele>849</ele>
        <time>2013-06-14T15:21:10Z</time>
      </trkpt>
      <trkpt lat="45.42921" lon="5.82285">
        <ele>848</ele>
        <time>2013-06-14T15:21:16Z</time>
      </trkpt>
      <trkpt lat="45.42912" lon="5.82306">
        <ele>845</ele>
        <time>2013-06-14T15:21:31Z</time>
      </trkpt>
      <trkpt lat="45.4291" lon="5.82315">
        <ele>844</ele>
        <time>2013-06-14T15:21:36Z</time>
      </trkpt>
      <trkpt lat="45.4291" lon="5.82319">
        <ele>844</ele>
        <time>2013-06-14T15:21:39Z</time>
      </trkpt>
      <trkpt lat="45.42905" lon="5.82344">
        <ele>841</ele>
        <time>2013-06-14T15:22:00Z</time>
      </trkpt>
      <trkpt lat="45.42916" lon="5.82369">
        <ele>837</ele>
        <time>2013-06-14T15:22:13Z</time>
      </trkpt>
      <trkpt lat="45.42916" lon="5.82367">
        <ele>837</ele>
        <time>2013-06-14T15:22:24Z</time>
      </trkpt>
      <trkpt lat="45.42918" lon="5.82427">
        <ele>848.312866</ele>
        <time>2013-06-14T15:35:15Z</time>
      </trkpt>
      <trkpt lat="45.42903" lon="5.82413">
        <ele>843.38916</ele>
        <time>2013-06-14T15:35:22Z</time>
      </trkpt>
      <trkpt lat="45.42903" lon="5.82394">
        <ele>826</ele>
        <time>2013-06-14T15:35:27Z</time>
      </trkpt>
      <trkpt lat="45.42903" lon="5.82379">
        <ele>826</ele>
        <time>2013-06-14T15:35:35Z</time>
      </trkpt>
      <trkpt lat="45.429" lon="5.82352">
        <ele>825</ele>
        <time>2013-06-14T15:35:46Z</time>
      </trkpt>
      <trkpt lat="45.42897" lon="5.82345">
        <ele>824</ele>
        <time>2013-06-14T15:35:50Z</time>
      </trkpt>
      <trkpt lat="45.42892" lon="5.82334">
        <ele>822</ele>
        <time>2013-06-14T15:35:58Z</time>
      </trkpt>
      <trkpt lat="45.42892" lon="5.82328">
        <ele>822</ele>
        <time>2013-06-14T15:36:02Z</time>
      </trkpt>
      <trkpt lat="45.4289" lon="5.82332">
        <ele>821</ele>
        <time>2013-06-14T15:36:05Z</time>
      </trkpt>
      <trkpt lat="45.42889" lon="5.82338">
        <ele>820</ele>
        <time>2013-06-14T15:36:08Z</time>
      </trkpt>
      <trkpt lat="45.4289" lon="5.82355">
        <ele>819</ele>
        <time>2013-06-14T15:36:17Z</time>
      </trkpt>
      <trkpt lat="45.42887" lon="5.82377">
        <ele>816</ele>
        <time>2013-06-14T15:36:30Z</time>
      </trkpt>
      <trkpt lat="45.42887" lon="5.82383">
        <ele>815</ele>
        <time>2013-06-14T15:36:36Z</time>
      </trkpt>
      <trkpt lat="45.42886" lon="5.82386">
        <ele>814</ele>
        <time>2013-06-14T15:36:38Z</time>
      </trkpt>
      <trkpt lat="45.42883" lon="5.82391">
        <ele>814</ele>
        <time>2013-06-14T15:36:41Z</time>
      </trkpt>
      <trkpt lat="45.4287" lon="5.8241">
        <ele>811</ele>
        <time>2013-06-14T15:36:51Z</time>
      </trkpt>
      <trkpt lat="45.42869" lon="5.82413">
        <ele>811</ele>
        <time>2013-06-14T15:36:54Z</time>
      </trkpt>
      <trkpt lat="45.42858" lon="5.82421">
        <ele>809</ele>
        <time>2013-06-14T15:37:05Z</time>
      </trkpt>
      <trkpt lat="45.42854" lon="5.82422">
        <ele>809</ele>
        <time>2013-06-14T15:37:07Z</time>
      </trkpt>
      <trkpt lat="45.42844" lon="5.8244">
        <ele>807</ele>
        <time>2013-06-14T15:37:15Z</time>
      </trkpt>
      <trkpt lat="45.42842" lon="5.82444">
        <ele>806</ele>
        <time>2013-06-14T15:37:18Z</time>
      </trkpt>
      <trkpt lat="45.42842" lon="5.82457">
        <ele>805</ele>
        <time>2013-06-14T15:37:26Z</time>
      </trkpt>
      <trkpt lat="45.4285" lon="5.82484">
        <ele>804</ele>
        <time>2013-06-14T15:37:38Z</time>
      </trkpt>
      <trkpt lat="45.4283" lon="5.82485">
        <ele>801</ele>
        <time>2013-06-14T15:37:51Z</time>
      </trkpt>
      <trkpt lat="45.4283" lon="5.82485">
        <ele>801</ele>
        <time>2013-06-14T15:37:52Z</time>
      </trkpt>
      <trkpt lat="45.42824" lon="5.8248">
        <ele>800</ele>
        <time>2013-06-14T15:37:57Z</time>
      </trkpt>
      <trkpt lat="45.42811" lon="5.82451">
        <ele>798</ele>
        <time>2013-06-14T15:38:13Z</time>
      </trkpt>
      <trkpt lat="45.42805" lon="5.82429">
        <ele>796</ele>
        <time>2013-06-14T15:38:28Z</time>
      </trkpt>
      <trkpt lat="45.428" lon="5.82417">
        <ele>793</ele>
        <time>2013-06-14T15:38:37Z</time>
      </trkpt>
      <trkpt lat="45.42801" lon="5.82413">
        <ele>792</ele>
        <time>2013-06-14T15:38:40Z</time>
      </trkpt>
      <trkpt lat="45.42797" lon="5.82404">
        <ele>789</ele>
        <time>2013-06-14T15:38:47Z</time>
      </trkpt>
      <trkpt lat="45.42788" lon="5.82401">
        <ele>786</ele>
        <time>2013-06-14T15:38:58Z</time>
      </trkpt>
      <trkpt lat="45.42784" lon="5.82399">
        <ele>784</ele>
        <time>2013-06-14T15:39:01Z</time>
      </trkpt>
      <trkpt lat="45.4277" lon="5.82406">
        <ele>781</ele>
        <time>2013-06-14T15:39:13Z</time>
      </trkpt>
      <trkpt lat="45.42761" lon="5.82414">
        <ele>778</ele>
        <time>2013-06-14T15:39:23Z</time>
      </trkpt>
      <trkpt lat="45.42749" lon="5.82425">
        <ele>774</ele>
        <time>2013-06-14T15:39:35Z</time>
      </trkpt>
      <trkpt lat="45.42737" lon="5.82442">
        <ele>772</ele>
        <time>2013-06-14T15:39:47Z</time>
      </trkpt>
      <trkpt lat="45.42724" lon="5.82456">
        <ele>768</ele>
        <time>2013-06-14T15:39:59Z</time>
      </trkpt>
      <trkpt lat="45.42717" lon="5.82464">
        <ele>765</ele>
        <time>2013-06-14T15:40:07Z</time>
      </trkpt>
      <trkpt lat="45.42706" lon="5.82468">
        <ele>762</ele>
        <time>2013-06-14T15:40:17Z</time>
      </trkpt>
      <trkpt lat="45.42702" lon="5.82465">
        <ele>761</ele>
        <time>2013-06-14T15:40:21Z</time>
      </trkpt>
      <trkpt lat="45.42693" lon="5.82449">
        <ele>758</ele>
        <time>2013-06-14T15:40:32Z</time>
      </trkpt>
      <trkpt lat="45.42686" lon="5.82432">
        <ele>755</ele>
        <time>2013-06-14T15:40:43Z</time>
      </trkpt>
      <trkpt lat="45.4268" lon="5.82414">
        <ele>751</ele>
        <time>2013-06-14T15:41:00Z</time>
      </trkpt>
      <trkpt lat="45.4267" lon="5.82404">
        <ele>750</ele>
        <time>2013-06-14T15:41:56Z</time>
      </trkpt>
      <trkpt lat="45.42667" lon="5.82399">
        <ele>748</ele>
        <time>2013-06-14T15:42:02Z</time>
      </trkpt>
      <trkpt lat="45.42658" lon="5.82396">
        <ele>744</ele>
        <time>2013-06-14T15:42:12Z</time>
      </trkpt>
      <trkpt lat="45.42649" lon="5.82404">
        <ele>741</ele>
        <time>2013-06-14T15:42:23Z</time>
      </trkpt>
      <trkpt lat="45.4264" lon="5.82414">
        <ele>738</ele>
        <time>2013-06-14T15:42:33Z</time>
      </trkpt>
      <trkpt lat="45.42635" lon="5.82417">
        <ele>737</ele>
        <time>2013-06-14T15:42:37Z</time>
      </trkpt>
      <trkpt lat="45.42627" lon="5.82432">
        <ele>734</ele>
        <time>2013-06-14T15:42:47Z</time>
      </trkpt>
      <trkpt lat="45.42626" lon="5.82442">
        <ele>732</ele>
        <time>2013-06-14T15:42:54Z</time>
      </trkpt>
      <trkpt lat="45.42626" lon="5.82445">
        <ele>732</ele>
        <time>2013-06-14T15:42:56Z</time>
      </trkpt>
      <trkpt lat="45.42625" lon="5.8246">
        <ele>729</ele>
        <time>2013-06-14T15:43:05Z</time>
      </trkpt>
      <trkpt lat="45.42627" lon="5.82479">
        <ele>725</ele>
        <time>2013-06-14T15:43:17Z</time>
      </trkpt>
      <trkpt lat="45.42631" lon="5.82496">
        <ele>722</ele>
        <time>2013-06-14T15:43:28Z</time>
      </trkpt>
      <trkpt lat="45.4263" lon="5.82507">
        <ele>720</ele>
        <time>2013-06-14T15:43:41Z</time>
      </trkpt>
      <trkpt lat="45.42632" lon="5.82537">
        <ele>716</ele>
        <time>2013-06-14T15:43:56Z</time>
      </trkpt>
      <trkpt lat="45.42638" lon="5.82571">
        <ele>713</ele>
        <time>2013-06-14T15:44:13Z</time>
      </trkpt>
      <trkpt lat="45.42641" lon="5.82588">
        <ele>711</ele>
        <time>2013-06-14T15:44:24Z</time>
      </trkpt>
      <trkpt lat="45.42642" lon="5.82607">
        <ele>707</ele>
        <time>2013-06-14T15:44:37Z</time>
      </trkpt>
      <trkpt lat="45.42643" lon="5.82623">
        <ele>704</ele>
        <time>2013-06-14T15:44:50Z</time>
      </trkpt>
      <trkpt lat="45.42648" lon="5.82641">
        <ele>700</ele>
        <time>2013-06-14T15:45:01Z</time>
      </trkpt>
      <trkpt lat="45.42645" lon="5.82654">
        <ele>698</ele>
        <time>2013-06-14T15:45:11Z</time>
      </trkpt>
      <trkpt lat="45.42637" lon="5.82684">
        <ele>695</ele>
        <time>2013-06-14T15:45:26Z</time>
      </trkpt>
      <trkpt lat="45.42637" lon="5.8272">
        <ele>691</ele>
        <time>2013-06-14T15:45:44Z</time>
      </trkpt>
      <trkpt lat="45.42638" lon="5.8275">
        <ele>688</ele>
        <time>2013-06-14T15:46:02Z</time>
      </trkpt>
      <trkpt lat="45.42638" lon="5.82753">
        <ele>688</ele>
        <time>2013-06-14T15:46:46Z</time>
      </trkpt>
      <trkpt lat="45.42638" lon="5.8275">
        <ele>689</ele>
        <time>2013-06-14T15:47:20Z</time>
      </trkpt>
      <trkpt lat="45.42636" lon="5.82754">
        <ele>689</ele>
        <time>2013-06-14T15:47:24Z</time>
      </trkpt>
      <trkpt lat="45.42611" lon="5.82768">
        <ele>686</ele>
        <time>2013-06-14T15:47:45Z</time>
      </trkpt>
      <trkpt lat="45.42607" lon="5.82774">
        <ele>684</ele>
        <time>2013-06-14T15:47:50Z</time>
      </trkpt>
      <trkpt lat="45.42609" lon="5.82782">
        <ele>683</ele>
        <time>2013-06-14T15:47:56Z</time>
      </trkpt>
      <trkpt lat="45.42628" lon="5.82775">
        <ele>680</ele>
        <time>2013-06-14T15:48:13Z</time>
      </trkpt>
      <trkpt lat="45.42641" lon="5.82771">
        <ele>677</ele>
        <time>2013-06-14T15:48:26Z</time>
      </trkpt>
      <trkpt lat="45.42657" lon="5.82783">
        <ele>674</ele>
        <time>2013-06-14T15:48:41Z</time>
      </trkpt>
      <trkpt lat="45.42667" lon="5.82809">
        <ele>671</ele>
        <time>2013-06-14T15:48:59Z</time>
      </trkpt>
      <trkpt lat="45.42674" lon="5.82838">
        <ele>668</ele>
        <time>2013-06-14T15:49:18Z</time>
      </trkpt>
      <trkpt lat="45.42669" lon="5.82895">
        <ele>667</ele>
        <time>2013-06-14T15:49:51Z</time>
      </trkpt>
      <trkpt lat="45.4268" lon="5.82924">
        <ele>666</ele>
        <time>2013-06-14T15:50:12Z</time>
      </trkpt>
      <trkpt lat="45.42686" lon="5.82932">
        <ele>665</ele>
        <time>2013-06-14T15:50:18Z</time>
      </trkpt>
      <trkpt lat="45.42691" lon="5.82939">
        <ele>664</ele>
        <time>2013-06-14T15:50:23Z</time>
      </trkpt>
      <trkpt lat="45.42698" lon="5.82951">
        <ele>664</ele>
        <time>2013-06-14T15:50:32Z</time>
      </trkpt>
      <trkpt lat="45.427" lon="5.82962">
        <ele>662</ele>
        <time>2013-06-14T15:50:39Z</time>
      </trkpt>
      <trkpt lat="45.42701" lon="5.82965">
        <ele>662</ele>
        <time>2013-06-14T15:50:41Z</time>
      </trkpt>
      <trkpt lat="45.42713" lon="5.82968">
        <ele>660</ele>
        <time>2013-06-14T15:50:58Z</time>
      </trkpt>
      <trkpt lat="45.42734" lon="5.82987">
        <ele>657</ele>
        <time>2013-06-14T15:51:17Z</time>
      </trkpt>
      <trkpt lat="45.42735" lon="5.82987">
        <ele>657</ele>
        <time>2013-06-14T15:51:18Z</time>
      </trkpt>
      <trkpt lat="45.42738" lon="5.83002">
        <ele>655</ele>
        <time>2013-06-14T15:51:28Z</time>
      </trkpt>
      <trkpt lat="45.42742" lon="5.8301">
        <ele>655</ele>
        <time>2013-06-14T15:51:32Z</time>
      </trkpt>
      <trkpt lat="45.42759" lon="5.83016">
        <ele>654</ele>
        <time>2013-06-14T15:51:50Z</time>
      </trkpt>
      <trkpt lat="45.4276" lon="5.83012">
        <ele>655</ele>
        <time>2013-06-14T15:52:00Z</time>
      </trkpt>
      <trkpt lat="45.42756" lon="5.83002">
        <ele>654</ele>
        <time>2013-06-14T15:52:19Z</time>
      </trkpt>
      <trkpt lat="45.42718" lon="5.83014">
        <ele>653</ele>
        <time>2013-06-14T15:52:37Z</time>
      </trkpt>
      <trkpt lat="45.4268" lon="5.83061">
        <ele>656</ele>
        <time>2013-06-14T15:53:00Z</time>
      </trkpt>
      <trkpt lat="45.42671" lon="5.83064">
        <ele>657</ele>
        <time>2013-06-14T15:53:07Z</time>
      </trkpt>
      <trkpt lat="45.42668" lon="5.8307">
        <ele>658</ele>
        <time>2013-06-14T15:53:12Z</time>
      </trkpt>
      <trkpt lat="45.42671" lon="5.83088">
        <ele>660</ele>
        <time>2013-06-14T15:53:31Z</time>
      </trkpt>
      <trkpt lat="45.42671" lon="5.83099">
        <ele>661</ele>
        <time>2013-06-14T15:53:35Z</time>
      </trkpt>
      <trkpt lat="45.4267" lon="5.83101">
        <ele>661</ele>
        <time>2013-06-14T15:53:37Z</time>
      </trkpt>
      <trkpt lat="45.42669" lon="5.83105">
        <ele>661</ele>
        <time>2013-06-14T15:53:39Z</time>
      </trkpt>
      <trkpt lat="45.42667" lon="5.83111">
        <ele>662</ele>
        <time>2013-06-14T15:53:42Z</time>
      </trkpt>
      <trkpt lat="45.42662" lon="5.83121">
        <ele>663</ele>
        <time>2013-06-14T15:53:48Z</time>
      </trkpt>
      <trkpt lat="45.42652" lon="5.83138">
        <ele>664</ele>
        <time>2013-06-14T15:53:59Z</time>
      </trkpt>
      <trkpt lat="45.42635" lon="5.83145">
        <ele>666</ele>
        <time>2013-06-14T15:54:12Z</time>
      </trkpt>
      <trkpt lat="45.42627" lon="5.8314">
        <ele>667</ele>
        <time>2013-06-14T15:54:18Z</time>
      </trkpt>
      <trkpt lat="45.42619" lon="5.83115">
        <ele>670</ele>
        <time>2013-06-14T15:54:32Z</time>
      </trkpt>
      <trkpt lat="45.42616" lon="5.83079">
        <ele>673</ele>
        <time>2013-06-14T15:54:54Z</time>
      </trkpt>
      <trkpt lat="45.42612" lon="5.83072">
        <ele>674</ele>
        <time>2013-06-14T15:55:01Z</time>
      </trkpt>
      <trkpt lat="45.42591" lon="5.83077">
        <ele>677</ele>
        <time>2013-06-14T15:55:22Z</time>
      </trkpt>
      <trkpt lat="45.42582" lon="5.83086">
        <ele>679</ele>
        <time>2013-06-14T15:55:35Z</time>
      </trkpt>
      <trkpt lat="45.4257" lon="5.83099">
        <ele>681</ele>
        <time>2013-06-14T15:55:59Z</time>
      </trkpt>
      <trkpt lat="45.42563" lon="5.83097">
        <ele>682</ele>
        <time>2013-06-14T15:56:48Z</time>
      </trkpt>
      <trkpt lat="45.42562" lon="5.83093">
        <ele>682</ele>
        <time>2013-06-14T15:56:53Z</time>
      </trkpt>
      <trkpt lat="45.42557" lon="5.831">
        <ele>681</ele>
        <time>2013-06-14T15:56:58Z</time>
      </trkpt>
      <trkpt lat="45.42529" lon="5.831">
        <ele>678</ele>
        <time>2013-06-14T15:57:20Z</time>
      </trkpt>
      <trkpt lat="45.42523" lon="5.83096">
        <ele>677</ele>
        <time>2013-06-14T15:57:24Z</time>
      </trkpt>
      <trkpt lat="45.42506" lon="5.83126">
        <ele>677</ele>
        <time>2013-06-14T15:57:47Z</time>
      </trkpt>
      <trkpt lat="45.42503" lon="5.83173">
        <ele>674</ele>
        <time>2013-06-14T15:58:13Z</time>
      </trkpt>
      <trkpt lat="45.425" lon="5.8319">
        <ele>672</ele>
        <time>2013-06-14T15:58:22Z</time>
      </trkpt>
      <trkpt lat="45.42493" lon="5.83203">
        <ele>670</ele>
        <time>2013-06-14T15:58:33Z</time>
      </trkpt>
      <trkpt lat="45.42489" lon="5.83207">
        <ele>669</ele>
        <time>2013-06-14T15:58:37Z</time>
      </trkpt>
      <trkpt lat="45.42464" lon="5.83219">
        <ele>667</ele>
        <time>2013-06-14T15:58:58Z</time>
      </trkpt>
      <trkpt lat="45.4245" lon="5.83228">
        <ele>666</ele>
        <time>2013-06-14T15:59:08Z</time>
      </trkpt>
      <trkpt lat="45.42433" lon="5.83252">
        <ele>663</ele>
        <time>2013-06-14T15:59:27Z</time>
      </trkpt>
      <trkpt lat="45.42432" lon="5.8327">
        <ele>663</ele>
        <time>2013-06-14T15:59:35Z</time>
      </trkpt>
      <trkpt lat="45.42428" lon="5.83292">
        <ele>662</ele>
        <time>2013-06-14T15:59:51Z</time>
      </trkpt>
      <trkpt lat="45.42428" lon="5.83293">
        <ele>662</ele>
        <time>2013-06-14T15:59:52Z</time>
      </trkpt>
      <trkpt lat="45.4242" lon="5.83318">
        <ele>660</ele>
        <time>2013-06-14T16:00:11Z</time>
      </trkpt>
      <trkpt lat="45.42399" lon="5.83326">
        <ele>660</ele>
        <time>2013-06-14T16:00:37Z</time>
      </trkpt>
      <trkpt lat="45.42358" lon="5.83365">
        <ele>659</ele>
        <time>2013-06-14T16:01:09Z</time>
      </trkpt>
      <trkpt lat="45.4233" lon="5.83403">
        <ele>657</ele>
        <time>2013-06-14T16:01:35Z</time>
      </trkpt>
      <trkpt lat="45.42297" lon="5.83434">
        <ele>655</ele>
        <time>2013-06-14T16:01:59Z</time>
      </trkpt>
      <trkpt lat="45.42285" lon="5.83468">
        <ele>652</ele>
        <time>2013-06-14T16:02:17Z</time>
      </trkpt>
      <trkpt lat="45.42263" lon="5.83496">
        <ele>651</ele>
        <time>2013-06-14T16:02:48Z</time>
      </trkpt>
      <trkpt lat="45.42241" lon="5.83507">
        <ele>649</ele>
        <time>2013-06-14T16:03:02Z</time>
      </trkpt>
      <trkpt lat="45.42233" lon="5.83516">
        <ele>649</ele>
        <time>2013-06-14T16:03:09Z</time>
      </trkpt>
      <trkpt lat="45.42224" lon="5.83525">
        <ele>648</ele>
        <time>2013-06-14T16:03:17Z</time>
      </trkpt>
      <trkpt lat="45.42213" lon="5.83553">
        <ele>648</ele>
        <time>2013-06-14T16:03:33Z</time>
      </trkpt>
      <trkpt lat="45.42207" lon="5.83564">
        <ele>648</ele>
        <time>2013-06-14T16:03:45Z</time>
      </trkpt>
      <trkpt lat="45.42189" lon="5.83581">
        <ele>649</ele>
        <time>2013-06-14T16:04:00Z</time>
      </trkpt>
      <trkpt lat="45.42178" lon="5.83588">
        <ele>649</ele>
        <time>2013-06-14T16:04:11Z</time>
      </trkpt>
      <trkpt lat="45.42151" lon="5.83598">
        <ele>650</ele>
        <time>2013-06-14T16:04:30Z</time>
      </trkpt>
      <trkpt lat="45.42147" lon="5.83602">
        <ele>650</ele>
        <time>2013-06-14T16:04:33Z</time>
      </trkpt>
      <trkpt lat="45.42122" lon="5.83646">
        <ele>652</ele>
        <time>2013-06-14T16:05:04Z</time>
      </trkpt>
      <trkpt lat="45.4212" lon="5.83653">
        <ele>652</ele>
        <time>2013-06-14T16:05:08Z</time>
      </trkpt>
      <trkpt lat="45.42115" lon="5.83658">
        <ele>651</ele>
        <time>2013-06-14T16:05:10Z</time>
      </trkpt>
      <trkpt lat="45.42096" lon="5.83678">
        <ele>652</ele>
        <time>2013-06-14T16:05:19Z</time>
      </trkpt>
      <trkpt lat="45.42096" lon="5.8368">
        <ele>652</ele>
        <time>2013-06-14T16:05:21Z</time>
      </trkpt>
      <trkpt lat="45.42085" lon="5.837">
        <ele>649</ele>
        <time>2013-06-14T16:05:39Z</time>
      </trkpt>
      <trkpt lat="45.42082" lon="5.83708">
        <ele>648</ele>
        <time>2013-06-14T16:05:44Z</time>
      </trkpt>
      <trkpt lat="45.42071" lon="5.83723">
        <ele>644</ele>
        <time>2013-06-14T16:05:57Z</time>
      </trkpt>
      <trkpt lat="45.42066" lon="5.83737">
        <ele>641</ele>
        <time>2013-06-14T16:06:06Z</time>
      </trkpt>
      <trkpt lat="45.42062" lon="5.83747">
        <ele>641</ele>
        <time>2013-06-14T16:06:14Z</time>
      </trkpt>
      <trkpt lat="45.42049" lon="5.83765">
        <ele>638</ele>
        <time>2013-06-14T16:06:38Z</time>
      </trkpt>
      <trkpt lat="45.42032" lon="5.83778">
        <ele>636</ele>
        <time>2013-06-14T16:06:51Z</time>
      </trkpt>
      <trkpt lat="45.42017" lon="5.83782">
        <ele>633</ele>
        <time>2013-06-14T16:07:03Z</time>
      </trkpt>
      <trkpt lat="45.42005" lon="5.83796">
        <ele>630</ele>
        <time>2013-06-14T16:07:22Z</time>
      </trkpt>
      <trkpt lat="45.42002" lon="5.83802">
        <ele>629</ele>
        <time>2013-06-14T16:07:26Z</time>
      </trkpt>
      <trkpt lat="45.41988" lon="5.83811">
        <ele>625</ele>
        <time>2013-06-14T16:07:40Z</time>
      </trkpt>
      <trkpt lat="45.41983" lon="5.83815">
        <ele>623</ele>
        <time>2013-06-14T16:07:47Z</time>
      </trkpt>
      <trkpt lat="45.41975" lon="5.83821">
        <ele>619</ele>
        <time>2013-06-14T16:07:59Z</time>
      </trkpt>
      <trkpt lat="45.41969" lon="5.83828">
        <ele>618</ele>
        <time>2013-06-14T16:08:06Z</time>
      </trkpt>
      <trkpt lat="45.41949" lon="5.8384">
        <ele>615</ele>
        <time>2013-06-14T16:08:20Z</time>
      </trkpt>
      <trkpt lat="45.41929" lon="5.83844">
        <ele>612</ele>
        <time>2013-06-14T16:08:38Z</time>
      </trkpt>
      <trkpt lat="45.41905" lon="5.83837">
        <ele>612</ele>
        <time>2013-06-14T16:08:59Z</time>
      </trkpt>
      <trkpt lat="45.41909" lon="5.83838">
        <ele>612</ele>
        <time>2013-06-14T16:09:34Z</time>
      </trkpt>
      <trkpt lat="45.41906" lon="5.83862">
        <ele>615</ele>
        <time>2013-06-14T16:10:25Z</time>
      </trkpt>
      <trkpt lat="45.41887" lon="5.83886">
        <ele>618</ele>
        <time>2013-06-14T16:10:40Z</time>
      </trkpt>
      <trkpt lat="45.41889" lon="5.83897">
        <ele>620</ele>
        <time>2013-06-14T16:10:48Z</time>
      </trkpt>
      <trkpt lat="45.41904" lon="5.83906">
        <ele>623</ele>
        <time>2013-06-14T16:10:59Z</time>
      </trkpt>
      <trkpt lat="45.4192" lon="5.83916">
        <ele>625</ele>
        <time>2013-06-14T16:11:14Z</time>
      </trkpt>
      <trkpt lat="45.41923" lon="5.8392">
        <ele>626</ele>
        <time>2013-06-14T16:11:18Z</time>
      </trkpt>
      <trkpt lat="45.41928" lon="5.83991">
        <ele>628</ele>
        <time>2013-06-14T16:11:31Z</time>
      </trkpt>
      <trkpt lat="45.41928" lon="5.84044">
        <ele>630</ele>
        <time>2013-06-14T16:11:56Z</time>
      </trkpt>
      <trkpt lat="45.41925" lon="5.84073">
        <ele>633</ele>
        <time>2013-06-14T16:12:17Z</time>
      </trkpt>
      <trkpt lat="45.41917" lon="5.84085">
        <ele>634</ele>
        <time>2013-06-14T16:12:23Z</time>
      </trkpt>
      <trkpt lat="45.41925" lon="5.84102">
        <ele>636</ele>
        <time>2013-06-14T16:12:31Z</time>
      </trkpt>
      <trkpt lat="45.41938" lon="5.84126">
        <ele>637</ele>
        <time>2013-06-14T16:12:48Z</time>
      </trkpt>
      <trkpt lat="45.41936" lon="5.84151">
        <ele>635</ele>
        <time>2013-06-14T16:13:09Z</time>
      </trkpt>
      <trkpt lat="45.41938" lon="5.84152">
        <ele>635</ele>
        <time>2013-06-14T16:13:10Z</time>
      </trkpt>
      <trkpt lat="45.41942" lon="5.84166">
        <ele>633</ele>
        <time>2013-06-14T16:13:21Z</time>
      </trkpt>
      <trkpt lat="45.41949" lon="5.84188">
        <ele>631</ele>
        <time>2013-06-14T16:13:45Z</time>
      </trkpt>
      <trkpt lat="45.41935" lon="5.84209">
        <ele>630</ele>
        <time>2013-06-14T16:13:58Z</time>
      </trkpt>
      <trkpt lat="45.4192" lon="5.84227">
        <ele>630</ele>
        <time>2013-06-14T16:14:15Z</time>
      </trkpt>
      <trkpt lat="45.4192" lon="5.84232">
        <ele>630</ele>
        <time>2013-06-14T16:14:17Z</time>
      </trkpt>
      <trkpt lat="45.41901" lon="5.84245">
        <ele>633</ele>
        <time>2013-06-14T16:14:31Z</time>
      </trkpt>
      <trkpt lat="45.4188" lon="5.84282">
        <ele>637</ele>
        <time>2013-06-14T16:14:49Z</time>
      </trkpt>
      <trkpt lat="45.41875" lon="5.84294">
        <ele>638</ele>
        <time>2013-06-14T16:15:01Z</time>
      </trkpt>
      <trkpt lat="45.41872" lon="5.84299">
        <ele>638</ele>
        <time>2013-06-14T16:15:05Z</time>
      </trkpt>
      <trkpt lat="45.41871" lon="5.84299">
        <ele>638</ele>
        <time>2013-06-14T16:15:07Z</time>
      </trkpt>
      <trkpt lat="45.41848" lon="5.84312">
        <ele>640</ele>
        <time>2013-06-14T16:15:40Z</time>
      </trkpt>
      <trkpt lat="45.41833" lon="5.84335">
        <ele>643</ele>
        <time>2013-06-14T16:16:01Z</time>
      </trkpt>
      <trkpt lat="45.41811" lon="5.84352">
        <ele>647</ele>
        <time>2013-06-14T16:16:24Z</time>
      </trkpt>
      <trkpt lat="45.41806" lon="5.84357">
        <ele>647</ele>
        <time>2013-06-14T16:16:29Z</time>
      </trkpt>
      <trkpt lat="45.41802" lon="5.8437">
        <ele>648</ele>
        <time>2013-06-14T16:16:37Z</time>
      </trkpt>
      <trkpt lat="45.41804" lon="5.8439">
        <ele>650</ele>
        <time>2013-06-14T16:16:49Z</time>
      </trkpt>
      <trkpt lat="45.41806" lon="5.84404">
        <ele>650</ele>
        <time>2013-06-14T16:16:57Z</time>
      </trkpt>
      <trkpt lat="45.41806" lon="5.84411">
        <ele>650</ele>
        <time>2013-06-14T16:17:01Z</time>
      </trkpt>
      <trkpt lat="45.41794" lon="5.84464">
        <ele>650</ele>
        <time>2013-06-14T16:17:30Z</time>
      </trkpt>
      <trkpt lat="45.41784" lon="5.84521">
        <ele>649</ele>
        <time>2013-06-14T16:18:01Z</time>
      </trkpt>
      <trkpt lat="45.41783" lon="5.84524">
        <ele>649</ele>
        <time>2013-06-14T16:18:03Z</time>
      </trkpt>
      <trkpt lat="45.41768" lon="5.84566">
        <ele>646</ele>
        <time>2013-06-14T16:18:28Z</time>
      </trkpt>
      <trkpt lat="45.41768" lon="5.84576">
        <ele>645</ele>
        <time>2013-06-14T16:18:36Z</time>
      </trkpt>
      <trkpt lat="45.41766" lon="5.84645">
        <ele>643</ele>
        <time>2013-06-14T16:19:08Z</time>
      </trkpt>
      <trkpt lat="45.41752" lon="5.84695">
        <ele>642</ele>
        <time>2013-06-14T16:19:36Z</time>
      </trkpt>
      <trkpt lat="45.41753" lon="5.84698">
        <ele>642</ele>
        <time>2013-06-14T16:19:37Z</time>
      </trkpt>
      <trkpt lat="45.41731" lon="5.84728">
        <ele>642</ele>
        <time>2013-06-14T16:20:00Z</time>
      </trkpt>
      <trkpt lat="45.41726" lon="5.84739">
        <ele>642</ele>
        <time>2013-06-14T16:20:07Z</time>
      </trkpt>
      <trkpt lat="45.41723" lon="5.84791">
        <ele>642</ele>
        <time>2013-06-14T16:20:32Z</time>
      </trkpt>
      <trkpt lat="45.41717" lon="5.84849">
        <ele>643</ele>
        <time>2013-06-14T16:21:00Z</time>
      </trkpt>
      <trkpt lat="45.41727" lon="5.84888">
        <ele>643</ele>
        <time>2013-06-14T16:21:23Z</time>
      </trkpt>
      <trkpt lat="45.41725" lon="5.84942">
        <ele>643</ele>
        <time>2013-06-14T16:21:51Z</time>
      </trkpt>
      <trkpt lat="45.41723" lon="5.84985">
        <ele>643</ele>
        <time>2013-06-14T16:22:18Z</time>
      </trkpt>
      <trkpt lat="45.41716" lon="5.85027">
        <ele>642</ele>
        <time>2013-06-14T16:22:53Z</time>
      </trkpt>
      <trkpt lat="45.4171" lon="5.85104">
        <ele>642</ele>
        <time>2013-06-14T16:23:32Z</time>
      </trkpt>
      <trkpt lat="45.41709" lon="5.85164">
        <ele>642</ele>
        <time>2013-06-14T16:24:04Z</time>
      </trkpt>
      <trkpt lat="45.41709" lon="5.85237">
        <ele>643</ele>
        <time>2013-06-14T16:24:44Z</time>
      </trkpt>
      <trkpt lat="45.41735" lon="5.85306">
        <ele>643</ele>
        <time>2013-06-14T16:25:25Z</time>
      </trkpt>
      <trkpt lat="45.41754" lon="5.85346">
        <ele>643</ele>
        <time>2013-06-14T16:25:51Z</time>
      </trkpt>
      <trkpt lat="45.41785" lon="5.85411">
        <ele>644</ele>
        <time>2013-06-14T16:26:33Z</time>
      </trkpt>
      <trkpt lat="45.41811" lon="5.85455">
        <ele>645</ele>
        <time>2013-06-14T16:27:02Z</time>
      </trkpt>
      <trkpt lat="45.41822" lon="5.85492">
        <ele>645</ele>
        <time>2013-06-14T16:27:24Z</time>
      </trkpt>
      <trkpt lat="45.4182" lon="5.85499">
        <ele>645</ele>
        <time>2013-06-14T16:27:28Z</time>
      </trkpt>
      <trkpt lat="45.4181" lon="5.85505">
        <ele>645</ele>
        <time>2013-06-14T16:27:36Z</time>
      </trkpt>
      <trkpt lat="45.41803" lon="5.855">
        <ele>644</ele>
        <time>2013-06-14T16:27:45Z</time>
      </trkpt>
      <trkpt lat="45.41795" lon="5.85502">
        <ele>644</ele>
        <time>2013-06-14T16:28:06Z</time>
      </trkpt>
      <trkpt lat="45.41803" lon="5.85499">
        <ele>644</ele>
        <time>2013-06-14T16:28:27Z</time>
      </trkpt>
      <trkpt lat="45.418" lon="5.85501">
        <ele>643</ele>
        <time>2013-06-14T16:29:29Z</time>
      </trkpt>
      <trkpt lat="45.41793" lon="5.85493">
        <ele>644</ele>
        <time>2013-06-14T16:29:43Z</time>
      </trkpt>
      <trkpt lat="45.41774" lon="5.8549">
        <ele>644</ele>
        <time>2013-06-14T16:30:12Z</time>
      </trkpt>
      <trkpt lat="45.41766" lon="5.85496">
        <ele>643</ele>
        <time>2013-06-14T16:31:34Z</time>
      </trkpt>
      <trkpt lat="45.41762" lon="5.85486">
        <ele>643</ele>
        <time>2013-06-14T16:33:04Z</time>
      </trkpt>
      <trkpt lat="45.41766" lon="5.8548">
        <ele>643</ele>
        <time>2013-06-14T16:33:54Z</time>
      </trkpt>
      <trkpt lat="45.41768" lon="5.85484">
        <ele>642</ele>
        <time>2013-06-14T16:36:23Z</time>
      </trkpt>
      <trkpt lat="45.41763" lon="5.85483">
        <ele>643</ele>
        <time>2013-06-14T16:36:27Z</time>
      </trkpt>
      <trkpt lat="45.41737" lon="5.85472">
        <ele>642</ele>
        <time>2013-06-14T16:36:47Z</time>
      </trkpt>
      <trkpt lat="45.41712" lon="5.85469">
        <ele>642</ele>
        <time>2013-06-14T16:37:03Z</time>
      </trkpt>
      <trkpt lat="45.41685" lon="5.85451">
        <ele>643</ele>
        <time>2013-06-14T16:37:24Z</time>
      </trkpt>
      <trkpt lat="45.41683" lon="5.85449">
        <ele>643</ele>
        <time>2013-06-14T16:37:25Z</time>
      </trkpt>
      <trkpt lat="45.41657" lon="5.85427">
        <ele>644</ele>
        <time>2013-06-14T16:37:46Z</time>
      </trkpt>
      <trkpt lat="45.41631" lon="5.8543">
        <ele>643</ele>
        <time>2013-06-14T16:38:05Z</time>
      </trkpt>
      <trkpt lat="45.41625" lon="5.85437">
        <ele>643</ele>
        <time>2013-06-14T16:38:13Z</time>
      </trkpt>
      <trkpt lat="45.41592" lon="5.85453">
        <ele>643</ele>
        <time>2013-06-14T16:38:34Z</time>
      </trkpt>
      <trkpt lat="45.41569" lon="5.85453">
        <ele>644</ele>
        <time>2013-06-14T16:38:51Z</time>
      </trkpt>
      <trkpt lat="45.41552" lon="5.85462">
        <ele>645</ele>
        <time>2013-06-14T16:39:09Z</time>
      </trkpt>
      <trkpt lat="45.41518" lon="5.85461">
        <ele>645</ele>
        <time>2013-06-14T16:39:34Z</time>
      </trkpt>
      <trkpt lat="45.4149" lon="5.85459">
        <ele>647</ele>
        <time>2013-06-14T16:39:55Z</time>
      </trkpt>
      <trkpt lat="45.41477" lon="5.85462">
        <ele>647</ele>
        <time>2013-06-14T16:40:03Z</time>
      </trkpt>
      <trkpt lat="45.41464" lon="5.85465">
        <ele>647</ele>
        <time>2013-06-14T16:40:12Z</time>
      </trkpt>
      <trkpt lat="45.41453" lon="5.85469">
        <ele>647</ele>
        <time>2013-06-14T16:40:22Z</time>
      </trkpt>
      <trkpt lat="45.41444" lon="5.85471">
        <ele>647</ele>
        <time>2013-06-14T16:40:29Z</time>
      </trkpt>
      <trkpt lat="45.41438" lon="5.85471">
        <ele>647</ele>
        <time>2013-06-14T16:40:32Z</time>
      </trkpt>
      <trkpt lat="45.41423" lon="5.85462">
        <ele>648</ele>
        <time>2013-06-14T16:40:45Z</time>
      </trkpt>
      <trkpt lat="45.41401" lon="5.85454">
        <ele>649</ele>
        <time>2013-06-14T16:41:04Z</time>
      </trkpt>
      <trkpt lat="45.41377" lon="5.85444">
        <ele>650</ele>
        <time>2013-06-14T16:41:21Z</time>
      </trkpt>
      <trkpt lat="45.41358" lon="5.85415">
        <ele>650</ele>
        <time>2013-06-14T16:41:43Z</time>
      </trkpt>
      <trkpt lat="45.41337" lon="5.85397">
        <ele>652</ele>
        <time>2013-06-14T16:41:59Z</time>
      </trkpt>
      <trkpt lat="45.4131" lon="5.85377">
        <ele>653</ele>
        <time>2013-06-14T16:42:20Z</time>
      </trkpt>
      <trkpt lat="45.41303" lon="5.85373">
        <ele>653</ele>
        <time>2013-06-14T16:42:25Z</time>
      </trkpt>
      <trkpt lat="45.41277" lon="5.85369">
        <ele>655</ele>
        <time>2013-06-14T16:42:42Z</time>
      </trkpt>
      <trkpt lat="45.41243" lon="5.85346">
        <ele>658</ele>
        <time>2013-06-14T16:43:13Z</time>
      </trkpt>
      <trkpt lat="45.41215" lon="5.8533">
        <ele>659</ele>
        <time>2013-06-14T16:43:37Z</time>
      </trkpt>
      <trkpt lat="45.41197" lon="5.85309">
        <ele>662</ele>
        <time>2013-06-14T16:43:55Z</time>
      </trkpt>
      <trkpt lat="45.41178" lon="5.85297">
        <ele>665</ele>
        <time>2013-06-14T16:44:13Z</time>
      </trkpt>
      <trkpt lat="45.41151" lon="5.85295">
        <ele>667</ele>
        <time>2013-06-14T16:44:31Z</time>
      </trkpt>
      <trkpt lat="45.41135" lon="5.85309">
        <ele>669</ele>
        <time>2013-06-14T16:44:42Z</time>
      </trkpt>
      <trkpt lat="45.41128" lon="5.85296">
        <ele>670</ele>
        <time>2013-06-14T16:44:50Z</time>
      </trkpt>
      <trkpt lat="45.41117" lon="5.85273">
        <ele>672</ele>
        <time>2013-06-14T16:45:05Z</time>
      </trkpt>
      <trkpt lat="45.41112" lon="5.85261">
        <ele>673</ele>
        <time>2013-06-14T16:45:11Z</time>
      </trkpt>
      <trkpt lat="45.41111" lon="5.85256">
        <ele>674</ele>
        <time>2013-06-14T16:45:13Z</time>
      </trkpt>
      <trkpt lat="45.41107" lon="5.85245">
        <ele>674</ele>
        <time>2013-06-14T16:45:19Z</time>
      </trkpt>
      <trkpt lat="45.41098" lon="5.85241">
        <ele>675</ele>
        <time>2013-06-14T16:45:27Z</time>
      </trkpt>
      <trkpt lat="45.41096" lon="5.85238">
        <ele>674</ele>
        <time>2013-06-14T16:45:30Z</time>
      </trkpt>
      <trkpt lat="45.41092" lon="5.85233">
        <ele>675</ele>
        <time>2013-06-14T16:45:33Z</time>
      </trkpt>
      <trkpt lat="45.41083" lon="5.85222">
        <ele>675</ele>
        <time>2013-06-14T16:45:44Z</time>
      </trkpt>
      <trkpt lat="45.41068" lon="5.85213">
        <ele>674</ele>
        <time>2013-06-14T16:45:57Z</time>
      </trkpt>
      <trkpt lat="45.41055" lon="5.85205">
        <ele>674</ele>
        <time>2013-06-14T16:46:08Z</time>
      </trkpt>
      <trkpt lat="45.41042" lon="5.85192">
        <ele>674</ele>
        <time>2013-06-14T16:46:24Z</time>
      </trkpt>
      <trkpt lat="45.41038" lon="5.85187">
        <ele>673</ele>
        <time>2013-06-14T16:46:45Z</time>
      </trkpt>
      <trkpt lat="45.41033" lon="5.85185">
        <ele>674</ele>
        <time>2013-06-14T16:47:47Z</time>
      </trkpt>
      <trkpt lat="45.41012" lon="5.85169">
        <ele>675</ele>
        <time>2013-06-14T16:48:30Z</time>
      </trkpt>
      <trkpt lat="45.41006" lon="5.85165">
        <ele>675</ele>
        <time>2013-06-14T16:48:35Z</time>
      </trkpt>
      <trkpt lat="45.41002" lon="5.85163">
        <ele>676</ele>
        <time>2013-06-14T16:48:37Z</time>
      </trkpt>
      <trkpt lat="45.40996" lon="5.85157">
        <ele>677</ele>
        <time>2013-06-14T16:48:43Z</time>
      </trkpt>
      <trkpt lat="45.4099" lon="5.85155">
        <ele>678</ele>
        <time>2013-06-14T16:48:48Z</time>
      </trkpt>
      <trkpt lat="45.40986" lon="5.85156">
        <ele>678</ele>
        <time>2013-06-14T16:48:52Z</time>
      </trkpt>
      <trkpt lat="45.4098" lon="5.85161">
        <ele>679</ele>
        <time>2013-06-14T16:48:56Z</time>
      </trkpt>
      <trkpt lat="45.40977" lon="5.85163">
        <ele>680</ele>
        <time>2013-06-14T16:48:58Z</time>
      </trkpt>
      <trkpt lat="45.40958" lon="5.85176">
        <ele>683</ele>
        <time>2013-06-14T16:49:18Z</time>
      </trkpt>
      <trkpt lat="45.40932" lon="5.85179">
        <ele>686</ele>
        <time>2013-06-14T16:49:39Z</time>
      </trkpt>
      <trkpt lat="45.40926" lon="5.85181">
        <ele>687</ele>
        <time>2013-06-14T16:49:44Z</time>
      </trkpt>
      <trkpt lat="45.40897" lon="5.8516">
        <ele>690</ele>
        <time>2013-06-14T16:50:08Z</time>
      </trkpt>
      <trkpt lat="45.40886" lon="5.85155">
        <ele>691</ele>
        <time>2013-06-14T16:50:19Z</time>
      </trkpt>
      <trkpt lat="45.40888" lon="5.85152">
        <ele>692</ele>
        <time>2013-06-14T16:50:23Z</time>
      </trkpt>
      <trkpt lat="45.40911" lon="5.85143">
        <ele>695</ele>
        <time>2013-06-14T16:50:48Z</time>
      </trkpt>
      <trkpt lat="45.40944" lon="5.85124">
        <ele>696</ele>
        <time>2013-06-14T16:51:14Z</time>
      </trkpt>
      <trkpt lat="45.40949" lon="5.85114">
        <ele>699</ele>
        <time>2013-06-14T16:51:26Z</time>
      </trkpt>
      <trkpt lat="45.40946" lon="5.85114">
        <ele>700</ele>
        <time>2013-06-14T16:51:30Z</time>
      </trkpt>
      <trkpt lat="45.40928" lon="5.85104">
        <ele>703</ele>
        <time>2013-06-14T16:51:47Z</time>
      </trkpt>
      <trkpt lat="45.40903" lon="5.85098">
        <ele>705</ele>
        <time>2013-06-14T16:52:06Z</time>
      </trkpt>
      <trkpt lat="45.40886" lon="5.85096">
        <ele>709</ele>
        <time>2013-06-14T16:52:21Z</time>
      </trkpt>
      <trkpt lat="45.40874" lon="5.8509">
        <ele>712</ele>
        <time>2013-06-14T16:52:36Z</time>
      </trkpt>
      <trkpt lat="45.40857" lon="5.85076">
        <ele>715</ele>
        <time>2013-06-14T16:52:53Z</time>
      </trkpt>
      <trkpt lat="45.40842" lon="5.85059">
        <ele>716</ele>
        <time>2013-06-14T16:53:07Z</time>
      </trkpt>
      <trkpt lat="45.4083" lon="5.85052">
        <ele>718</ele>
        <time>2013-06-14T16:53:17Z</time>
      </trkpt>
      <trkpt lat="45.40801" lon="5.85059">
        <ele>721</ele>
        <time>2013-06-14T16:53:37Z</time>
      </trkpt>
      <trkpt lat="45.408" lon="5.8506">
        <ele>721</ele>
        <time>2013-06-14T16:53:38Z</time>
      </trkpt>
      <trkpt lat="45.40798" lon="5.85055">
        <ele>722</ele>
        <time>2013-06-14T16:53:41Z</time>
      </trkpt>
      <trkpt lat="45.40784" lon="5.85046">
        <ele>725</ele>
        <time>2013-06-14T16:53:55Z</time>
      </trkpt>
      <trkpt lat="45.40783" lon="5.85038">
        <ele>726</ele>
        <time>2013-06-14T16:54:02Z</time>
      </trkpt>
      <trkpt lat="45.40774" lon="5.85025">
        <ele>730</ele>
        <time>2013-06-14T16:54:18Z</time>
      </trkpt>
      <trkpt lat="45.40767" lon="5.85016">
        <ele>731</ele>
        <time>2013-06-14T16:54:26Z</time>
      </trkpt>
      <trkpt lat="45.40761" lon="5.85001">
        <ele>733</ele>
        <time>2013-06-14T16:54:37Z</time>
      </trkpt>
      <trkpt lat="45.40731" lon="5.84962">
        <ele>736</ele>
        <time>2013-06-14T16:55:07Z</time>
      </trkpt>
      <trkpt lat="45.40703" lon="5.84933">
        <ele>737</ele>
        <time>2013-06-14T16:55:33Z</time>
      </trkpt>
      <trkpt lat="45.40685" lon="5.84911">
        <ele>739</ele>
        <time>2013-06-14T16:55:51Z</time>
      </trkpt>
      <trkpt lat="45.40683" lon="5.84896">
        <ele>741</ele>
        <time>2013-06-14T16:56:03Z</time>
      </trkpt>
      <trkpt lat="45.40677" lon="5.84889">
        <ele>742</ele>
        <time>2013-06-14T16:56:08Z</time>
      </trkpt>
      <trkpt lat="45.40664" lon="5.84867">
        <ele>745</ele>
        <time>2013-06-14T16:56:23Z</time>
      </trkpt>
      <trkpt lat="45.40636" lon="5.84838">
        <ele>748</ele>
        <time>2013-06-14T16:56:52Z</time>
      </trkpt>
      <trkpt lat="45.40602" lon="5.8482">
        <ele>749</ele>
        <time>2013-06-14T16:57:18Z</time>
      </trkpt>
      <trkpt lat="45.40592" lon="5.84816">
        <ele>751</ele>
        <time>2013-06-14T16:57:26Z</time>
      </trkpt>
      <trkpt lat="45.40585" lon="5.84813">
        <ele>753</ele>
        <time>2013-06-14T16:57:46Z</time>
      </trkpt>
      <trkpt lat="45.40583" lon="5.84811">
        <ele>753</ele>
        <time>2013-06-14T16:58:00Z</time>
      </trkpt>
      <trkpt lat="45.40582" lon="5.84801">
        <ele>754</ele>
        <time>2013-06-14T16:58:03Z</time>
      </trkpt>
      <trkpt lat="45.40581" lon="5.84798">
        <ele>756</ele>
        <time>2013-06-14T16:58:05Z</time>
      </trkpt>
      <trkpt lat="45.40572" lon="5.8479">
        <ele>758</ele>
        <time>2013-06-14T16:58:10Z</time>
      </trkpt>
      <trkpt lat="45.40574" lon="5.84781">
        <ele>760</ele>
        <time>2013-06-14T16:58:17Z</time>
      </trkpt>
      <trkpt lat="45.40586" lon="5.84769">
        <ele>763</ele>
        <time>2013-06-14T16:58:35Z</time>
      </trkpt>
      <trkpt lat="45.40591" lon="5.84753">
        <ele>766</ele>
        <time>2013-06-14T16:58:58Z</time>
      </trkpt>
      <trkpt lat="45.40597" lon="5.84722">
        <ele>769</ele>
        <time>2013-06-14T16:59:25Z</time>
      </trkpt>
      <trkpt lat="45.40588" lon="5.84674">
        <ele>772</ele>
        <time>2013-06-14T17:00:21Z</time>
      </trkpt>
      <trkpt lat="45.40593" lon="5.84662">
        <ele>775</ele>
        <time>2013-06-14T17:00:32Z</time>
      </trkpt>
      <trkpt lat="45.40592" lon="5.84652">
        <ele>778</ele>
        <time>2013-06-14T17:00:47Z</time>
      </trkpt>
      <trkpt lat="45.40591" lon="5.84642">
        <ele>782</ele>
        <time>2013-06-14T17:00:58Z</time>
      </trkpt>
      <trkpt lat="45.40575" lon="5.8462">
        <ele>785</ele>
        <time>2013-06-14T17:01:15Z</time>
      </trkpt>
      <trkpt lat="45.40554" lon="5.84599">
        <ele>788</ele>
        <time>2013-06-14T17:01:35Z</time>
      </trkpt>
      <trkpt lat="45.40545" lon="5.84591">
        <ele>791</ele>
        <time>2013-06-14T17:01:50Z</time>
      </trkpt>
      <trkpt lat="45.40523" lon="5.84537">
        <ele>793</ele>
        <time>2013-06-14T17:02:12Z</time>
      </trkpt>
      <trkpt lat="45.40515" lon="5.84538">
        <ele>793</ele>
        <time>2013-06-14T17:02:18Z</time>
      </trkpt>
      <trkpt lat="45.40489" lon="5.84552">
        <ele>794</ele>
        <time>2013-06-14T17:02:41Z</time>
      </trkpt>
      <trkpt lat="45.40461" lon="5.84556">
        <ele>794</ele>
        <time>2013-06-14T17:03:02Z</time>
      </trkpt>
      <trkpt lat="45.40435" lon="5.84551">
        <ele>794</ele>
        <time>2013-06-14T17:03:27Z</time>
      </trkpt>
      <trkpt lat="45.40406" lon="5.84555">
        <ele>795</ele>
        <time>2013-06-14T17:03:58Z</time>
      </trkpt>
      <trkpt lat="45.40394" lon="5.84578">
        <ele>798</ele>
        <time>2013-06-14T17:04:27Z</time>
      </trkpt>
      <trkpt lat="45.40378" lon="5.84577">
        <ele>801</ele>
        <time>2013-06-14T17:04:44Z</time>
      </trkpt>
      <trkpt lat="45.40366" lon="5.84581">
        <ele>804</ele>
        <time>2013-06-14T17:05:04Z</time>
      </trkpt>
      <trkpt lat="45.40348" lon="5.84596">
        <ele>806</ele>
        <time>2013-06-14T17:05:29Z</time>
      </trkpt>
      <trkpt lat="45.40344" lon="5.84606">
        <ele>806</ele>
        <time>2013-06-14T17:05:35Z</time>
      </trkpt>
      <trkpt lat="45.40316" lon="5.84611">
        <ele>810</ele>
        <time>2013-06-14T17:06:05Z</time>
      </trkpt>
      <trkpt lat="45.40298" lon="5.84634">
        <ele>817</ele>
        <time>2013-06-14T17:06:27Z</time>
      </trkpt>
      <trkpt lat="45.40266" lon="5.84663">
        <ele>818</ele>
        <time>2013-06-14T17:06:52Z</time>
      </trkpt>
      <trkpt lat="45.40232" lon="5.84668">
        <ele>821</ele>
        <time>2013-06-14T17:07:12Z</time>
      </trkpt>
      <trkpt lat="45.40208" lon="5.84669">
        <ele>824</ele>
        <time>2013-06-14T17:07:41Z</time>
      </trkpt>
      <trkpt lat="45.40165" lon="5.84637">
        <ele>834</ele>
        <time>2013-06-14T17:07:57Z</time>
      </trkpt>
      <trkpt lat="45.40121" lon="5.84624">
        <ele>840</ele>
        <time>2013-06-14T17:08:09Z</time>
      </trkpt>
      <trkpt lat="45.40097" lon="5.84607">
        <ele>844</ele>
        <time>2013-06-14T17:08:21Z</time>
      </trkpt>
      <trkpt lat="45.40077" lon="5.84584">
        <ele>847</ele>
        <time>2013-06-14T17:08:37Z</time>
      </trkpt>
      <trkpt lat="45.40053" lon="5.84556">
        <ele>851</ele>
        <time>2013-06-14T17:08:55Z</time>
      </trkpt>
      <trkpt lat="45.39993" lon="5.84549">
        <ele>855</ele>
        <time>2013-06-14T17:09:21Z</time>
      </trkpt>
      <trkpt lat="45.39952" lon="5.84535">
        <ele>858</ele>
        <time>2013-06-14T17:09:44Z</time>
      </trkpt>
      <trkpt lat="45.39922" lon="5.84526">
        <ele>859</ele>
        <time>2013-06-14T17:10:06Z</time>
      </trkpt>
      <trkpt lat="45.39888" lon="5.84516">
        <ele>861</ele>
        <time>2013-06-14T17:10:38Z</time>
      </trkpt>
      <trkpt lat="45.39857" lon="5.84506">
        <ele>863</ele>
        <time>2013-06-14T17:11:06Z</time>
      </trkpt>
      <trkpt lat="45.3983" lon="5.84489">
        <ele>865</ele>
        <time>2013-06-14T17:11:24Z</time>
      </trkpt>
      <trkpt lat="45.39793" lon="5.84478">
        <ele>867</ele>
        <time>2013-06-14T17:11:41Z</time>
      </trkpt>
      <trkpt lat="45.39762" lon="5.8447">
        <ele>869</ele>
        <time>2013-06-14T17:11:45Z</time>
      </trkpt>
      <trkpt lat="45.39734" lon="5.8446">
        <ele>871</ele>
        <time>2013-06-14T17:12:14Z</time>
      </trkpt>
      <trkpt lat="45.39701" lon="5.84473">
        <ele>870</ele>
        <time>2013-06-14T17:12:46Z</time>
      </trkpt>
      <trkpt lat="45.39674" lon="5.84484">
        <ele>870</ele>
        <time>2013-06-14T17:13:02Z</time>
      </trkpt>
      <trkpt lat="45.39646" lon="5.84486">
        <ele>870</ele>
        <time>2013-06-14T17:13:22Z</time>
      </trkpt>
      <trkpt lat="45.39601" lon="5.84499">
        <ele>868</ele>
        <time>2013-06-14T17:13:53Z</time>
      </trkpt>
      <trkpt lat="45.39565" lon="5.84502">
        <ele>868</ele>
        <time>2013-06-14T17:13:56Z</time>
      </trkpt>
      <trkpt lat="45.39522" lon="5.84505">
        <ele>870</ele>
        <time>2013-06-14T17:14:30Z</time>
      </trkpt>
      <trkpt lat="45.39495" lon="5.84508">
        <ele>872</ele>
        <time>2013-06-14T17:14:38Z</time>
      </trkpt>
      <trkpt lat="45.39473" lon="5.84517">
        <ele>873</ele>
        <time>2013-06-14T17:14:42Z</time>
      </trkpt>
      <trkpt lat="45.39465" lon="5.84515">
        <ele>844</ele>
        <time>2013-06-14T17:17:00Z</time>
      </trkpt>
      <trkpt lat="45.39444" lon="5.84524">
        <ele>846</ele>
        <time>2013-06-14T17:17:26Z</time>
      </trkpt>
      <trkpt lat="45.39415" lon="5.84534">
        <ele>847</ele>
        <time>2013-06-14T17:17:52Z</time>
      </trkpt>
      <trkpt lat="45.39403" lon="5.84525">
        <ele>848</ele>
        <time>2013-06-14T17:18:05Z</time>
      </trkpt>
      <trkpt lat="45.39373" lon="5.84484">
        <ele>847</ele>
        <time>2013-06-14T17:18:39Z</time>
      </trkpt>
      <trkpt lat="45.39352" lon="5.84499">
        <ele>847</ele>
        <time>2013-06-14T17:19:03Z</time>
      </trkpt>
      <trkpt lat="45.39344" lon="5.84538">
        <ele>850</ele>
        <time>2013-06-14T17:19:26Z</time>
      </trkpt>
      <trkpt lat="45.39344" lon="5.8454">
        <ele>850</ele>
        <time>2013-06-14T17:19:27Z</time>
      </trkpt>
      <trkpt lat="45.39319" lon="5.84572">
        <ele>852</ele>
        <time>2013-06-14T17:20:05Z</time>
      </trkpt>
      <trkpt lat="45.39293" lon="5.8457">
        <ele>852</ele>
        <time>2013-06-14T17:20:37Z</time>
      </trkpt>
      <trkpt lat="45.39255" lon="5.84565">
        <ele>853</ele>
        <time>2013-06-14T17:21:09Z</time>
      </trkpt>
      <trkpt lat="45.39234" lon="5.8457">
        <ele>855</ele>
        <time>2013-06-14T17:21:25Z</time>
      </trkpt>
      <trkpt lat="45.39233" lon="5.84569">
        <ele>855</ele>
        <time>2013-06-14T17:21:26Z</time>
      </trkpt>
      <trkpt lat="45.39214" lon="5.84571">
        <ele>854</ele>
        <time>2013-06-14T17:21:43Z</time>
      </trkpt>
      <trkpt lat="45.39204" lon="5.84572">
        <ele>852</ele>
        <time>2013-06-14T17:21:56Z</time>
      </trkpt>
      <trkpt lat="45.39198" lon="5.84578">
        <ele>851</ele>
        <time>2013-06-14T17:22:00Z</time>
      </trkpt>
      <trkpt lat="45.39192" lon="5.8458">
        <ele>851</ele>
        <time>2013-06-14T17:22:04Z</time>
      </trkpt>
      <trkpt lat="45.39189" lon="5.84576">
        <ele>851</ele>
        <time>2013-06-14T17:22:08Z</time>
      </trkpt>
      <trkpt lat="45.39186" lon="5.84578">
        <ele>850</ele>
        <time>2013-06-14T17:22:11Z</time>
      </trkpt>
      <trkpt lat="45.39181" lon="5.84579">
        <ele>851</ele>
        <time>2013-06-14T17:22:17Z</time>
      </trkpt>
      <trkpt lat="45.39174" lon="5.84572">
        <ele>851</ele>
        <time>2013-06-14T17:22:23Z</time>
      </trkpt>
      <trkpt lat="45.3916" lon="5.84574">
        <ele>852</ele>
        <time>2013-06-14T17:22:40Z</time>
      </trkpt>
      <trkpt lat="45.39145" lon="5.84577">
        <ele>854</ele>
        <time>2013-06-14T17:22:57Z</time>
      </trkpt>
      <trkpt lat="45.39124" lon="5.84581">
        <ele>855</ele>
        <time>2013-06-14T17:23:13Z</time>
      </trkpt>
      <trkpt lat="45.3911" lon="5.84585">
        <ele>857</ele>
        <time>2013-06-14T17:23:32Z</time>
      </trkpt>
      <trkpt lat="45.39105" lon="5.84587">
        <ele>857</ele>
        <time>2013-06-14T17:23:38Z</time>
      </trkpt>
      <trkpt lat="45.39089" lon="5.8457">
        <ele>859</ele>
        <time>2013-06-14T17:23:51Z</time>
      </trkpt>
      <trkpt lat="45.39066" lon="5.84547">
        <ele>881</ele>
        <time>2013-06-14T17:24:20Z</time>
      </trkpt>
      <trkpt lat="45.39062" lon="5.8453">
        <ele>881</ele>
        <time>2013-06-14T17:24:28Z</time>
      </trkpt>
      <trkpt lat="45.39059" lon="5.84527">
        <ele>881</ele>
        <time>2013-06-14T17:24:31Z</time>
      </trkpt>
      <trkpt lat="45.39056" lon="5.84519">
        <ele>883</ele>
        <time>2013-06-14T17:24:36Z</time>
      </trkpt>
      <trkpt lat="45.39045" lon="5.84501">
        <ele>885</ele>
        <time>2013-06-14T17:24:54Z</time>
      </trkpt>
      <trkpt lat="45.39034" lon="5.845">
        <ele>885</ele>
        <time>2013-06-14T17:25:01Z</time>
      </trkpt>
      <trkpt lat="45.39006" lon="5.84492">
        <ele>886</ele>
        <time>2013-06-14T17:25:23Z</time>
      </trkpt>
      <trkpt lat="45.38991" lon="5.8448">
        <ele>888</ele>
        <time>2013-06-14T17:25:37Z</time>
      </trkpt>
      <trkpt lat="45.38988" lon="5.84476">
        <ele>888</ele>
        <time>2013-06-14T17:25:40Z</time>
      </trkpt>
      <trkpt lat="45.38962" lon="5.84456">
        <ele>891</ele>
        <time>2013-06-14T17:26:06Z</time>
      </trkpt>
      <trkpt lat="45.38938" lon="5.84442">
        <ele>893</ele>
        <time>2013-06-14T17:26:37Z</time>
      </trkpt>
      <trkpt lat="45.38911" lon="5.84451">
        <ele>896</ele>
        <time>2013-06-14T17:27:01Z</time>
      </trkpt>
      <trkpt lat="45.38895" lon="5.84428">
        <ele>899</ele>
        <time>2013-06-14T17:27:16Z</time>
      </trkpt>
      <trkpt lat="45.38886" lon="5.84415">
        <ele>903</ele>
        <time>2013-06-14T17:27:28Z</time>
      </trkpt>
      <trkpt lat="45.38872" lon="5.84385">
        <ele>906</ele>
        <time>2013-06-14T17:27:55Z</time>
      </trkpt>
      <trkpt lat="45.38861" lon="5.84377">
        <ele>907</ele>
        <time>2013-06-14T17:28:05Z</time>
      </trkpt>
      <trkpt lat="45.38846" lon="5.84369">
        <ele>909</ele>
        <time>2013-06-14T17:28:16Z</time>
      </trkpt>
      <trkpt lat="45.38841" lon="5.84366">
        <ele>910</ele>
        <time>2013-06-14T17:28:20Z</time>
      </trkpt>
      <trkpt lat="45.38835" lon="5.84363">
        <ele>911</ele>
        <time>2013-06-14T17:28:24Z</time>
      </trkpt>
      <trkpt lat="45.38834" lon="5.84362">
        <ele>912</ele>
        <time>2013-06-14T17:28:26Z</time>
      </trkpt>
      <trkpt lat="45.38814" lon="5.84359">
        <ele>913</ele>
        <time>2013-06-14T17:28:45Z</time>
      </trkpt>
      <trkpt lat="45.38806" lon="5.84342">
        <ele>914</ele>
        <time>2013-06-14T17:29:03Z</time>
      </trkpt>
      <trkpt lat="45.38804" lon="5.84332">
        <ele>914</ele>
        <time>2013-06-14T17:29:08Z</time>
      </trkpt>
      <trkpt lat="45.38796" lon="5.84311">
        <ele>915</ele>
        <time>2013-06-14T17:29:22Z</time>
      </trkpt>
      <trkpt lat="45.38794" lon="5.84292">
        <ele>914</ele>
        <time>2013-06-14T17:29:33Z</time>
      </trkpt>
      <trkpt lat="45.38788" lon="5.84281">
        <ele>915</ele>
        <time>2013-06-14T17:29:43Z</time>
      </trkpt>
      <trkpt lat="45.38778" lon="5.84261">
        <ele>915</ele>
        <time>2013-06-14T17:30:03Z</time>
      </trkpt>
      <trkpt lat="45.38772" lon="5.84272">
        <ele>915</ele>
        <time>2013-06-14T17:30:19Z</time>
      </trkpt>
      <trkpt lat="45.38772" lon="5.84269">
        <ele>916</ele>
        <time>2013-06-14T17:30:21Z</time>
      </trkpt>
      <trkpt lat="45.38771" lon="5.84224">
        <ele>917</ele>
        <time>2013-06-14T17:30:47Z</time>
      </trkpt>
      <trkpt lat="45.38771" lon="5.84223">
        <ele>916</ele>
        <time>2013-06-14T17:30:49Z</time>
      </trkpt>
      <trkpt lat="45.38766" lon="5.84217">
        <ele>916</ele>
        <time>2013-06-14T17:31:07Z</time>
      </trkpt>
      <trkpt lat="45.38767" lon="5.84225">
        <ele>916</ele>
        <time>2013-06-14T17:31:13Z</time>
      </trkpt>
      <trkpt lat="45.38764" lon="5.84238">
        <ele>917</ele>
        <time>2013-06-14T17:31:18Z</time>
      </trkpt>
      <trkpt lat="45.38761" lon="5.84252">
        <ele>918</ele>
        <time>2013-06-14T17:31:23Z</time>
      </trkpt>
      <trkpt lat="45.3876" lon="5.84254">
        <ele>917</ele>
        <time>2013-06-14T17:31:25Z</time>
      </trkpt>
      <trkpt lat="45.3876" lon="5.84259">
        <ele>918</ele>
        <time>2013-06-14T17:31:29Z</time>
      </trkpt>
      <trkpt lat="45.38757" lon="5.84266">
        <ele>918</ele>
        <time>2013-06-14T17:31:33Z</time>
      </trkpt>
      <trkpt lat="45.38754" lon="5.84277">
        <ele>918</ele>
        <time>2013-06-14T17:31:39Z</time>
      </trkpt>
      <trkpt lat="45.38753" lon="5.84281">
        <ele>919</ele>
        <time>2013-06-14T17:31:41Z</time>
      </trkpt>
      <trkpt lat="45.38746" lon="5.84298">
        <ele>920</ele>
        <time>2013-06-14T17:31:52Z</time>
      </trkpt>
      <trkpt lat="45.38736" lon="5.84322">
        <ele>921</ele>
        <time>2013-06-14T17:32:06Z</time>
      </trkpt>
      <trkpt lat="45.38731" lon="5.84329">
        <ele>922</ele>
        <time>2013-06-14T17:32:10Z</time>
      </trkpt>
      <trkpt lat="45.3873" lon="5.84334">
        <ele>922</ele>
        <time>2013-06-14T17:32:13Z</time>
      </trkpt>
      <trkpt lat="45.38728" lon="5.84345">
        <ele>922</ele>
        <time>2013-06-14T17:32:18Z</time>
      </trkpt>
      <trkpt lat="45.38725" lon="5.84352">
        <ele>923</ele>
        <time>2013-06-14T17:32:22Z</time>
      </trkpt>
      <trkpt lat="45.38719" lon="5.84365">
        <ele>923</ele>
        <time>2013-06-14T17:32:33Z</time>
      </trkpt>
      <trkpt lat="45.38718" lon="5.8437">
        <ele>923</ele>
        <time>2013-06-14T17:32:36Z</time>
      </trkpt>
      <trkpt lat="45.38716" lon="5.84374">
        <ele>924</ele>
        <time>2013-06-14T17:32:41Z</time>
      </trkpt>
      <trkpt lat="45.38714" lon="5.84379">
        <ele>924</ele>
        <time>2013-06-14T17:32:45Z</time>
      </trkpt>
      <trkpt lat="45.38715" lon="5.84378">
        <ele>925</ele>
        <time>2013-06-14T17:32:51Z</time>
      </trkpt>
      <trkpt lat="45.38712" lon="5.84384">
        <ele>925</ele>
        <time>2013-06-14T17:32:57Z</time>
      </trkpt>
      <trkpt lat="45.38707" lon="5.84385">
        <ele>926</ele>
        <time>2013-06-14T17:33:02Z</time>
      </trkpt>
      <trkpt lat="45.38677" lon="5.84397">
        <ele>928</ele>
        <time>2013-06-14T17:33:22Z</time>
      </trkpt>
      <trkpt lat="45.3864" lon="5.84399">
        <ele>930</ele>
        <time>2013-06-14T17:33:46Z</time>
      </trkpt>
      <trkpt lat="45.38623" lon="5.84393">
        <ele>931</ele>
        <time>2013-06-14T17:33:58Z</time>
      </trkpt>
      <trkpt lat="45.38619" lon="5.84394">
        <ele>931</ele>
        <time>2013-06-14T17:34:01Z</time>
      </trkpt>
      <trkpt lat="45.3861" lon="5.84392">
        <ele>932</ele>
        <time>2013-06-14T17:34:08Z</time>
      </trkpt>
      <trkpt lat="45.38589" lon="5.84388">
        <ele>934</ele>
        <time>2013-06-14T17:34:24Z</time>
      </trkpt>
      <trkpt lat="45.38585" lon="5.84387">
        <ele>934</ele>
        <time>2013-06-14T17:34:27Z</time>
      </trkpt>
      <trkpt lat="45.38549" lon="5.84385">
        <ele>936</ele>
        <time>2013-06-14T17:34:52Z</time>
      </trkpt>
      <trkpt lat="45.38545" lon="5.84385">
        <ele>937</ele>
        <time>2013-06-14T17:34:54Z</time>
      </trkpt>
      <trkpt lat="45.38519" lon="5.84376">
        <ele>938</ele>
        <time>2013-06-14T17:35:13Z</time>
      </trkpt>
      <trkpt lat="45.38486" lon="5.84355">
        <ele>940</ele>
        <time>2013-06-14T17:35:37Z</time>
      </trkpt>
      <trkpt lat="45.38483" lon="5.84353">
        <ele>940</ele>
        <time>2013-06-14T17:35:39Z</time>
      </trkpt>
      <trkpt lat="45.38423" lon="5.84317">
        <ele>942</ele>
        <time>2013-06-14T17:35:57Z</time>
      </trkpt>
      <trkpt lat="45.38416" lon="5.84319">
        <ele>943</ele>
        <time>2013-06-14T17:36:01Z</time>
      </trkpt>
      <trkpt lat="45.38408" lon="5.84313">
        <ele>943</ele>
        <time>2013-06-14T17:36:07Z</time>
      </trkpt>
      <trkpt lat="45.38401" lon="5.8431">
        <ele>944</ele>
        <time>2013-06-14T17:36:13Z</time>
      </trkpt>
      <trkpt lat="45.38392" lon="5.84308">
        <ele>944</ele>
        <time>2013-06-14T17:36:20Z</time>
      </trkpt>
      <trkpt lat="45.38372" lon="5.84308">
        <ele>945</ele>
        <time>2013-06-14T17:36:43Z</time>
      </trkpt>
      <trkpt lat="45.38344" lon="5.84319">
        <ele>947</ele>
        <time>2013-06-14T17:37:05Z</time>
      </trkpt>
      <trkpt lat="45.38297" lon="5.84325">
        <ele>948</ele>
        <time>2013-06-14T17:37:37Z</time>
      </trkpt>
      <trkpt lat="45.38277" lon="5.84343">
        <ele>949</ele>
        <time>2013-06-14T17:37:52Z</time>
      </trkpt>
      <trkpt lat="45.38263" lon="5.84355">
        <ele>950</ele>
        <time>2013-06-14T17:37:59Z</time>
      </trkpt>
      <trkpt lat="45.38258" lon="5.84352">
        <ele>950</ele>
        <time>2013-06-14T17:38:03Z</time>
      </trkpt>
      <trkpt lat="45.38233" lon="5.84365">
        <ele>952</ele>
        <time>2013-06-14T17:38:27Z</time>
      </trkpt>
      <trkpt lat="45.38173" lon="5.84359">
        <ele>953</ele>
        <time>2013-06-14T17:39:03Z</time>
      </trkpt>
      <trkpt lat="45.38128" lon="5.84365">
        <ele>954</ele>
        <time>2013-06-14T17:39:35Z</time>
      </trkpt>
      <trkpt lat="45.38122" lon="5.84359">
        <ele>954</ele>
        <time>2013-06-14T17:40:06Z</time>
      </trkpt>
      <trkpt lat="45.38096" lon="5.84349">
        <ele>953</ele>
        <time>2013-06-14T17:40:27Z</time>
      </trkpt>
      <trkpt lat="45.38074" lon="5.84338">
        <ele>951</ele>
        <time>2013-06-14T17:40:44Z</time>
      </trkpt>
      <trkpt lat="45.38026" lon="5.84301">
        <ele>951</ele>
        <time>2013-06-14T17:41:19Z</time>
      </trkpt>
      <trkpt lat="45.37998" lon="5.84276">
        <ele>949</ele>
        <time>2013-06-14T17:41:52Z</time>
      </trkpt>
      <trkpt lat="45.37986" lon="5.84285">
        <ele>949</ele>
        <time>2013-06-14T17:42:00Z</time>
      </trkpt>
      <trkpt lat="45.37965" lon="5.84286">
        <ele>949</ele>
        <time>2013-06-14T17:42:37Z</time>
      </trkpt>
      <trkpt lat="45.37928" lon="5.84266">
        <ele>949</ele>
        <time>2013-06-14T17:43:23Z</time>
      </trkpt>
      <trkpt lat="45.37908" lon="5.84277">
        <ele>950</ele>
        <time>2013-06-14T17:47:11Z</time>
      </trkpt>
      <trkpt lat="45.3788" lon="5.84275">
        <ele>950</ele>
        <time>2013-06-14T17:47:35Z</time>
      </trkpt>
      <trkpt lat="45.37853" lon="5.84253">
        <ele>951</ele>
        <time>2013-06-14T17:47:43Z</time>
      </trkpt>
      <trkpt lat="45.37849" lon="5.84254">
        <ele>951</ele>
        <time>2013-06-14T17:47:46Z</time>
      </trkpt>
      <trkpt lat="45.37818" lon="5.8424">
        <ele>950</ele>
        <time>2013-06-14T17:48:10Z</time>
      </trkpt>
      <trkpt lat="45.37818" lon="5.8424">
        <ele>949</ele>
        <time>2013-06-14T17:48:13Z</time>
      </trkpt>
      <trkpt lat="45.3784" lon="5.84247">
        <ele>951</ele>
        <time>2013-06-14T17:48:29Z</time>
      </trkpt>
      <trkpt lat="45.37837" lon="5.84236">
        <ele>951</ele>
        <time>2013-06-14T17:49:45Z</time>
      </trkpt>
      <trkpt lat="45.37819" lon="5.84239">
        <ele>950</ele>
        <time>2013-06-14T17:49:57Z</time>
      </trkpt>
      <trkpt lat="45.37802" lon="5.84234">
        <ele>950</ele>
        <time>2013-06-14T17:50:08Z</time>
      </trkpt>
      <trkpt lat="45.3779" lon="5.84236">
        <ele>950</ele>
        <time>2013-06-14T17:50:12Z</time>
      </trkpt>
      <trkpt lat="45.37787" lon="5.84237">
        <ele>950</ele>
        <time>2013-06-14T17:50:14Z</time>
      </trkpt>
      <trkpt lat="45.37782" lon="5.84237">
        <ele>950</ele>
        <time>2013-06-14T17:50:19Z</time>
      </trkpt>
      <trkpt lat="45.37755" lon="5.84224">
        <ele>952</ele>
        <time>2013-06-14T17:50:42Z</time>
      </trkpt>
      <trkpt lat="45.37719" lon="5.84215">
        <ele>951</ele>
        <time>2013-06-14T17:51:03Z</time>
      </trkpt>
      <trkpt lat="45.37713" lon="5.84212">
        <ele>950</ele>
        <time>2013-06-14T17:51:08Z</time>
      </trkpt>
      <trkpt lat="45.37678" lon="5.84197">
        <ele>951</ele>
        <time>2013-06-14T17:51:30Z</time>
      </trkpt>
      <trkpt lat="45.37643" lon="5.84189">
        <ele>951</ele>
        <time>2013-06-14T17:51:52Z</time>
      </trkpt>
      <trkpt lat="45.3761" lon="5.84187">
        <ele>952</ele>
        <time>2013-06-14T17:52:12Z</time>
      </trkpt>
      <trkpt lat="45.37578" lon="5.84174">
        <ele>954</ele>
        <time>2013-06-14T17:52:36Z</time>
      </trkpt>
      <trkpt lat="45.37557" lon="5.8416">
        <ele>954</ele>
        <time>2013-06-14T17:52:49Z</time>
      </trkpt>
      <trkpt lat="45.37526" lon="5.84148">
        <ele>955</ele>
        <time>2013-06-14T17:53:11Z</time>
      </trkpt>
      <trkpt lat="45.37523" lon="5.84144">
        <ele>955</ele>
        <time>2013-06-14T17:53:15Z</time>
      </trkpt>
      <trkpt lat="45.37515" lon="5.84136">
        <ele>956</ele>
        <time>2013-06-14T17:53:22Z</time>
      </trkpt>
      <trkpt lat="45.3751" lon="5.84138">
        <ele>956</ele>
        <time>2013-06-14T17:53:27Z</time>
      </trkpt>
      <trkpt lat="45.37492" lon="5.84141">
        <ele>956</ele>
        <time>2013-06-14T17:53:37Z</time>
      </trkpt>
      <trkpt lat="45.37488" lon="5.8414">
        <ele>955</ele>
        <time>2013-06-14T17:53:40Z</time>
      </trkpt>
      <trkpt lat="45.37464" lon="5.84151">
        <ele>954</ele>
        <time>2013-06-14T17:53:52Z</time>
      </trkpt>
      <trkpt lat="45.3743" lon="5.84165">
        <ele>952</ele>
        <time>2013-06-14T17:54:14Z</time>
      </trkpt>
      <trkpt lat="45.37402" lon="5.84178">
        <ele>952</ele>
        <time>2013-06-14T17:54:35Z</time>
      </trkpt>
      <trkpt lat="45.374" lon="5.84177">
        <ele>952</ele>
        <time>2013-06-14T17:55:40Z</time>
      </trkpt>
      <trkpt lat="45.37371" lon="5.84179">
        <ele>954</ele>
        <time>2013-06-14T17:57:26Z</time>
      </trkpt>
      <trkpt lat="45.37345" lon="5.84176">
        <ele>957</ele>
        <time>2013-06-14T17:57:47Z</time>
      </trkpt>
      <trkpt lat="45.37334" lon="5.84166">
        <ele>960</ele>
        <time>2013-06-14T17:58:09Z</time>
      </trkpt>
      <trkpt lat="45.3733" lon="5.84157">
        <ele>960</ele>
        <time>2013-06-14T17:58:12Z</time>
      </trkpt>
      <trkpt lat="45.37309" lon="5.84147">
        <ele>963</ele>
        <time>2013-06-14T17:58:26Z</time>
      </trkpt>
      <trkpt lat="45.37287" lon="5.8413">
        <ele>967</ele>
        <time>2013-06-14T17:58:41Z</time>
      </trkpt>
      <trkpt lat="45.37283" lon="5.84126">
        <ele>968</ele>
        <time>2013-06-14T17:58:47Z</time>
      </trkpt>
      <trkpt lat="45.37278" lon="5.84121">
        <ele>968</ele>
        <time>2013-06-14T17:58:50Z</time>
      </trkpt>
      <trkpt lat="45.37252" lon="5.84118">
        <ele>971</ele>
        <time>2013-06-14T17:59:07Z</time>
      </trkpt>
      <trkpt lat="45.37237" lon="5.84114">
        <ele>974</ele>
        <time>2013-06-14T17:59:24Z</time>
      </trkpt>
      <trkpt lat="45.37223" lon="5.84095">
        <ele>978</ele>
        <time>2013-06-14T17:59:41Z</time>
      </trkpt>
      <trkpt lat="45.37205" lon="5.84101">
        <ele>981</ele>
        <time>2013-06-14T17:59:56Z</time>
      </trkpt>
      <trkpt lat="45.37189" lon="5.84098">
        <ele>985</ele>
        <time>2013-06-14T18:00:12Z</time>
      </trkpt>
      <trkpt lat="45.37184" lon="5.84088">
        <ele>985</ele>
        <time>2013-06-14T18:00:16Z</time>
      </trkpt>
      <trkpt lat="45.37167" lon="5.84059">
        <ele>987</ele>
        <time>2013-06-14T18:00:42Z</time>
      </trkpt>
      <trkpt lat="45.37155" lon="5.84034">
        <ele>989</ele>
        <time>2013-06-14T18:01:05Z</time>
      </trkpt>
      <trkpt lat="45.37143" lon="5.84004">
        <ele>992</ele>
        <time>2013-06-14T18:01:25Z</time>
      </trkpt>
      <trkpt lat="45.37141" lon="5.83999">
        <ele>993</ele>
        <time>2013-06-14T18:01:28Z</time>
      </trkpt>
      <trkpt lat="45.37138" lon="5.83975">
        <ele>995</ele>
        <time>2013-06-14T18:01:40Z</time>
      </trkpt>
      <trkpt lat="45.37139" lon="5.83953">
        <ele>998</ele>
        <time>2013-06-14T18:01:57Z</time>
      </trkpt>
      <trkpt lat="45.37131" lon="5.83944">
        <ele>1000</ele>
        <time>2013-06-14T18:02:04Z</time>
      </trkpt>
      <trkpt lat="45.37101" lon="5.8392">
        <ele>1004</ele>
        <time>2013-06-14T18:02:18Z</time>
      </trkpt>
      <trkpt lat="45.37069" lon="5.83913">
        <ele>1007</ele>
        <time>2013-06-14T18:02:39Z</time>
      </trkpt>
      <trkpt lat="45.37057" lon="5.83896">
        <ele>1010</ele>
        <time>2013-06-14T18:02:54Z</time>
      </trkpt>
      <trkpt lat="45.37054" lon="5.83876">
        <ele>1011</ele>
        <time>2013-06-14T18:03:06Z</time>
      </trkpt>
      <trkpt lat="45.37048" lon="5.83858">
        <ele>1014</ele>
        <time>2013-06-14T18:03:16Z</time>
      </trkpt>
      <trkpt lat="45.37048" lon="5.83857">
        <ele>1014</ele>
        <time>2013-06-14T18:03:17Z</time>
      </trkpt>
      <trkpt lat="45.37036" lon="5.8384">
        <ele>1018</ele>
        <time>2013-06-14T18:03:33Z</time>
      </trkpt>
      <trkpt lat="45.37021" lon="5.8381">
        <ele>1021</ele>
        <time>2013-06-14T18:03:54Z</time>
      </trkpt>
      <trkpt lat="45.37001" lon="5.83804">
        <ele>1024</ele>
        <time>2013-06-14T18:04:07Z</time>
      </trkpt>
      <trkpt lat="45.36992" lon="5.83794">
        <ele>1026</ele>
        <time>2013-06-14T18:04:15Z</time>
      </trkpt>
      <trkpt lat="45.36991" lon="5.83788">
        <ele>1027</ele>
        <time>2013-06-14T18:04:18Z</time>
      </trkpt>
      <trkpt lat="45.36993" lon="5.83779">
        <ele>1028</ele>
        <time>2013-06-14T18:04:23Z</time>
      </trkpt>
      <trkpt lat="45.36993" lon="5.83763">
        <ele>1031</ele>
        <time>2013-06-14T18:04:33Z</time>
      </trkpt>
      <trkpt lat="45.36992" lon="5.8376">
        <ele>1032</ele>
        <time>2013-06-14T18:04:35Z</time>
      </trkpt>
      <trkpt lat="45.36986" lon="5.83754">
        <ele>1033</ele>
        <time>2013-06-14T18:04:40Z</time>
      </trkpt>
      <trkpt lat="45.36958" lon="5.83754">
        <ele>1073</ele>
        <time>2013-06-14T18:04:42Z</time>
      </trkpt>
      <trkpt lat="45.36931" lon="5.83762">
        <ele>1073</ele>
        <time>2013-06-14T18:05:00Z</time>
      </trkpt>
      <trkpt lat="45.36878" lon="5.83773">
        <ele>1077</ele>
        <time>2013-06-14T18:05:06Z</time>
      </trkpt>
    </trkseg>
  </trk>
</gpx>